St. Margarethen - Festspielgelnde
Wetterdaten: Dienstag, 10.01.2012
Datum Zeit Temp. A. Feuchte A. Regen Wind Richtung Richtung Windben
10.01.2012 00:00 2,9 C 93 % 0,0 l/m 2,0 km/h (1 Bft) SW 222 4,8 km/h (1 Bft)
10.01.2012 00:01 2,9 C 93 % 0,0 l/m 2,7 km/h (1 Bft) W 262 6,4 km/h (2 Bft)
10.01.2012 00:02 2,9 C 93 % 0,0 l/m 0,2 km/h (0 Bft) SW 219 1,6 km/h (1 Bft)
10.01.2012 00:03 2,9 C 93 % 0,2 l/m 0,2 km/h (0 Bft) SW 219 1,6 km/h (1 Bft)
10.01.2012 00:04 2,9 C 93 % 0,0 l/m 2,7 km/h (1 Bft) S-SW 207 4,8 km/h (1 Bft)
10.01.2012 00:05 2,9 C 93 % 0,0 l/m 4,5 km/h (1 Bft) SW 236 6,4 km/h (2 Bft)
10.01.2012 00:06 2,9 C 93 % 0,0 l/m 4,6 km/h (1 Bft) S-SW 193 6,4 km/h (2 Bft)
10.01.2012 00:07 2,9 C 93 % 0,0 l/m 4,8 km/h (1 Bft) S-SW 205 6,4 km/h (2 Bft)
10.01.2012 00:08 2,9 C 93 % 0,2 l/m 6,1 km/h (2 Bft) S-SW 210 8,0 km/h (2 Bft)
10.01.2012 00:09 2,9 C 93 % 0,0 l/m 6,2 km/h (2 Bft) S-SW 205 9,7 km/h (2 Bft)
10.01.2012 00:10 2,9 C 93 % 0,0 l/m 4,4 km/h (1 Bft) S-SW 204 6,4 km/h (2 Bft)
10.01.2012 00:11 2,9 C 93 % 0,0 l/m 5,2 km/h (1 Bft) S-SW 201 8,0 km/h (2 Bft)
10.01.2012 00:12 2,9 C 93 % 0,0 l/m 6,7 km/h (2 Bft) S-SW 201 8,0 km/h (2 Bft)
10.01.2012 00:13 2,9 C 93 % 0,2 l/m 5,4 km/h (1 Bft) S-SW 211 8,0 km/h (2 Bft)
10.01.2012 00:14 2,9 C 93 % 0,0 l/m 4,3 km/h (1 Bft) S-SW 195 6,4 km/h (2 Bft)
10.01.2012 00:15 2,9 C 93 % 0,0 l/m 2,6 km/h (1 Bft) SW 221 4,8 km/h (1 Bft)
10.01.2012 00:16 2,9 C 93 % 0,0 l/m 1,2 km/h (1 Bft) SW 214 1,6 km/h (1 Bft)
10.01.2012 00:17 2,9 C 93 % 0,0 l/m 0,0 km/h (0 Bft) SW 214 0,0 km/h (0 Bft)
10.01.2012 00:18 2,9 C 93 % 0,0 l/m 1,2 km/h (1 Bft) W-SW 245 1,6 km/h (1 Bft)
10.01.2012 00:19 2,9 C 93 % 0,0 l/m 2,9 km/h (1 Bft) W-SW 252 4,8 km/h (1 Bft)
10.01.2012 00:20 2,9 C 93 % 0,2 l/m 3,2 km/h (1 Bft) SW 228 6,4 km/h (2 Bft)
10.01.2012 00:21 2,9 C 93 % 0,0 l/m 3,0 km/h (1 Bft) W-SW 238 4,8 km/h (1 Bft)
10.01.2012 00:22 2,9 C 93 % 0,0 l/m 3,5 km/h (1 Bft) S-SW 207 4,8 km/h (1 Bft)
10.01.2012 00:23 2,9 C 93 % 0,0 l/m 4,1 km/h (1 Bft) S-SW 211 6,4 km/h (2 Bft)
10.01.2012 00:24 2,9 C 93 % 0,0 l/m 4,3 km/h (1 Bft) SW 218 6,4 km/h (2 Bft)
10.01.2012 00:25 2,9 C 93 % 0,0 l/m 4,0 km/h (1 Bft) S-SW 212 4,8 km/h (1 Bft)
10.01.2012 00:26 2,9 C 93 % 0,2 l/m 3,3 km/h (1 Bft) W-SW 245 4,8 km/h (1 Bft)
10.01.2012 00:27 3,0 C 93 % 0,0 l/m 2,5 km/h (1 Bft) SW 217 4,8 km/h (1 Bft)
10.01.2012 00:28 3,0 C 93 % 0,0 l/m 2,7 km/h (1 Bft) S-SW 210 4,8 km/h (1 Bft)
10.01.2012 00:29 3,0 C 93 % 0,0 l/m 3,4 km/h (1 Bft) W 264 4,8 km/h (1 Bft)
10.01.2012 00:30 3,0 C 93 % 0,0 l/m 3,8 km/h (1 Bft) S-SW 204 6,4 km/h (2 Bft)
10.01.2012 00:31 2,9 C 93 % 0,0 l/m 4,3 km/h (1 Bft) S-SW 208 4,8 km/h (1 Bft)
10.01.2012 00:32 3,0 C 93 % 0,0 l/m 4,6 km/h (1 Bft) SW 217 6,4 km/h (2 Bft)
10.01.2012 00:33 3,0 C 93 % 0,2 l/m 3,5 km/h (1 Bft) SW 222 4,8 km/h (1 Bft)
10.01.2012 00:34 3,0 C 93 % 0,0 l/m 2,7 km/h (1 Bft) S-SW 199 4,8 km/h (1 Bft)
10.01.2012 00:35 3,0 C 93 % 0,0 l/m 3,8 km/h (1 Bft) S-SW 203 4,8 km/h (1 Bft)
10.01.2012 00:36 3,0 C 93 % 0,0 l/m 2,2 km/h (1 Bft) S-SW 208 3,2 km/h (1 Bft)
10.01.2012 00:37 3,0 C 93 % 0,2 l/m 3,0 km/h (1 Bft) S-SW 201 3,2 km/h (1 Bft)
10.01.2012 00:38 3,0 C 93 % 0,0 l/m 3,5 km/h (1 Bft) S 184 4,8 km/h (1 Bft)
10.01.2012 00:39 3,0 C 93 % 0,0 l/m 2,1 km/h (1 Bft) S-SW 203 4,8 km/h (1 Bft)
10.01.2012 00:40 3,0 C 93 % 0,0 l/m 2,0 km/h (1 Bft) S-SW 203 3,2 km/h (1 Bft)
10.01.2012 00:41 3,0 C 93 % 0,0 l/m 2,6 km/h (1 Bft) S-SW 212 3,2 km/h (1 Bft)
10.01.2012 00:42 3,0 C 93 % 0,0 l/m 0,8 km/h (0 Bft) S-SW 198 3,2 km/h (1 Bft)
10.01.2012 00:43 3,0 C 93 % 0,2 l/m 3,1 km/h (1 Bft) S-SO 167 4,8 km/h (1 Bft)
10.01.2012 00:44 3,0 C 93 % 0,0 l/m 2,2 km/h (1 Bft) SW 221 4,8 km/h (1 Bft)
10.01.2012 00:45 3,0 C 93 % 0,0 l/m 2,3 km/h (1 Bft) S-SW 205 4,8 km/h (1 Bft)
10.01.2012 00:46 3,0 C 93 % 0,0 l/m 2,7 km/h (1 Bft) S-SW 193 3,2 km/h (1 Bft)
10.01.2012 00:47 3,0 C 93 % 0,0 l/m 3,5 km/h (1 Bft) S-SW 210 4,8 km/h (1 Bft)
10.01.2012 00:48 3,0 C 93 % 0,2 l/m 3,1 km/h (1 Bft) W-SW 238 4,8 km/h (1 Bft)
10.01.2012 00:49 3,0 C 93 % 0,0 l/m 2,7 km/h (1 Bft) W-SW 257 4,8 km/h (1 Bft)
10.01.2012 00:50 3,0 C 93 % 0,0 l/m 3,0 km/h (1 Bft) S-SW 208 4,8 km/h (1 Bft)
10.01.2012 00:51 3,0 C 93 % 0,0 l/m 3,1 km/h (1 Bft) S-SW 209 3,2 km/h (1 Bft)
10.01.2012 00:52 3,0 C 93 % 0,2 l/m 3,2 km/h (1 Bft) SW 217 4,8 km/h (1 Bft)
10.01.2012 00:53 3,1 C 93 % 0,0 l/m 3,4 km/h (1 Bft) S-SW 201 4,8 km/h (1 Bft)
10.01.2012 00:54 3,1 C 93 % 0,0 l/m 3,3 km/h (1 Bft) S-SW 210 4,8 km/h (1 Bft)
10.01.2012 00:55 3,1 C 93 % 0,0 l/m 4,3 km/h (1 Bft) SW 222 6,4 km/h (2 Bft)
10.01.2012 00:56 3,1 C 93 % 0,0 l/m 4,4 km/h (1 Bft) S-SW 212 4,8 km/h (1 Bft)
10.01.2012 00:57 3,1 C 93 % 0,0 l/m 3,4 km/h (1 Bft) S-SW 208 4,8 km/h (1 Bft)
10.01.2012 00:58 3,1 C 93 % 0,2 l/m 3,2 km/h (1 Bft) S-SW 207 4,8 km/h (1 Bft)
10.01.2012 00:59 3,1 C 93 % 0,0 l/m 2,4 km/h (1 Bft) SW 231 3,2 km/h (1 Bft)
10.01.2012 01:00 3,1 C 93 % 0,0 l/m 1,7 km/h (1 Bft) SW 231 3,2 km/h (1 Bft)
10.01.2012 01:01 3,1 C 93 % 0,0 l/m 0,7 km/h (0 Bft) SW 231 1,6 km/h (1 Bft)
10.01.2012 01:02 3,1 C 93 % 0,2 l/m 2,1 km/h (1 Bft) S-SW 210 4,8 km/h (1 Bft)
10.01.2012 01:03 3,1 C 93 % 0,0 l/m 3,4 km/h (1 Bft) S 188 4,8 km/h (1 Bft)
10.01.2012 01:04 3,1 C 93 % 0,0 l/m 2,5 km/h (1 Bft) S-SW 205 3,2 km/h (1 Bft)
10.01.2012 01:05 3,1 C 93 % 0,0 l/m 3,5 km/h (1 Bft) S-SW 207 4,8 km/h (1 Bft)
10.01.2012 01:06 3,1 C 93 % 0,0 l/m 3,3 km/h (1 Bft) SW 222 4,8 km/h (1 Bft)
10.01.2012 01:07 3,1 C 93 % 0,2 l/m 3,0 km/h (1 Bft) SW 226 4,8 km/h (1 Bft)
10.01.2012 01:08 3,1 C 93 % 0,0 l/m 1,4 km/h (1 Bft) SW 224 1,6 km/h (1 Bft)
10.01.2012 01:09 3,1 C 93 % 0,0 l/m 2,1 km/h (1 Bft) S 188 3,2 km/h (1 Bft)
10.01.2012 01:10 3,1 C 93 % 0,0 l/m 4,0 km/h (1 Bft) SW 214 6,4 km/h (2 Bft)
10.01.2012 01:11 3,1 C 93 % 0,0 l/m 5,0 km/h (1 Bft) SW 219 8,0 km/h (2 Bft)
10.01.2012 01:12 3,1 C 93 % 0,0 l/m 3,9 km/h (1 Bft) S-SW 208 8,0 km/h (2 Bft)
10.01.2012 01:13 3,1 C 93 % 0,0 l/m 3,0 km/h (1 Bft) SW 215 3,2 km/h (1 Bft)
10.01.2012 01:14 3,1 C 93 % 0,2 l/m 3,6 km/h (1 Bft) SW 218 6,4 km/h (2 Bft)
10.01.2012 01:15 3,1 C 93 % 0,0 l/m 3,6 km/h (1 Bft) SW 218 4,8 km/h (1 Bft)
10.01.2012 01:16 3,1 C 93 % 0,0 l/m 4,8 km/h (1 Bft) SW 218 6,4 km/h (2 Bft)
10.01.2012 01:17 3,1 C 93 % 0,0 l/m 4,8 km/h (1 Bft) SW 214 6,4 km/h (2 Bft)
10.01.2012 01:18 3,1 C 93 % 0,0 l/m 3,9 km/h (1 Bft) SW 215 6,4 km/h (2 Bft)
10.01.2012 01:19 3,0 C 93 % 0,2 l/m 4,8 km/h (1 Bft) S-SW 192 6,4 km/h (2 Bft)
10.01.2012 01:20 3,0 C 93 % 0,0 l/m 6,5 km/h (2 Bft) S-SW 207 8,0 km/h (2 Bft)
10.01.2012 01:21 3,0 C 93 % 0,0 l/m 3,8 km/h (1 Bft) SW 224 6,4 km/h (2 Bft)
10.01.2012 01:22 3,0 C 93 % 0,0 l/m 3,4 km/h (1 Bft) S-SW 212 4,8 km/h (1 Bft)
10.01.2012 01:23 3,0 C 93 % 0,0 l/m 4,6 km/h (1 Bft) SW 217 6,4 km/h (2 Bft)
10.01.2012 01:24 3,0 C 93 % 0,2 l/m 3,2 km/h (1 Bft) SW 222 4,8 km/h (1 Bft)
10.01.2012 01:25 2,9 C 93 % 0,0 l/m 2,3 km/h (1 Bft) SW 217 3,2 km/h (1 Bft)
10.01.2012 01:26 2,9 C 93 % 0,0 l/m 2,3 km/h (1 Bft) S-SW 200 4,8 km/h (1 Bft)
10.01.2012 01:27 2,9 C 94 % 0,0 l/m 3,4 km/h (1 Bft) W-SW 250 4,8 km/h (1 Bft)
10.01.2012 01:28 2,9 C 94 % 0,0 l/m 4,0 km/h (1 Bft) S-SW 204 4,8 km/h (1 Bft)
10.01.2012 01:29 2,9 C 94 % 0,0 l/m 3,2 km/h (1 Bft) W 259 4,8 km/h (1 Bft)
10.01.2012 01:30 2,9 C 94 % 0,0 l/m 2,8 km/h (1 Bft) S-SW 204 4,8 km/h (1 Bft)
10.01.2012 01:31 2,9 C 94 % 0,0 l/m 4,9 km/h (1 Bft) SW 214 6,4 km/h (2 Bft)
10.01.2012 01:32 2,9 C 94 % 0,0 l/m 3,8 km/h (1 Bft) SW 222 4,8 km/h (1 Bft)
10.01.2012 01:33 2,8 C 94 % 0,2 l/m 3,2 km/h (1 Bft) S-SW 208 4,8 km/h (1 Bft)
10.01.2012 01:34 2,8 C 94 % 0,0 l/m 5,9 km/h (2 Bft) S-SO 159 8,0 km/h (2 Bft)
10.01.2012 01:35 2,8 C 94 % 0,0 l/m 5,7 km/h (1 Bft) S 170 6,4 km/h (2 Bft)
10.01.2012 01:36 2,8 C 94 % 0,0 l/m 4,9 km/h (1 Bft) SW 226 6,4 km/h (2 Bft)
10.01.2012 01:37 2,8 C 94 % 0,0 l/m 4,2 km/h (1 Bft) S-SW 197 4,8 km/h (1 Bft)
10.01.2012 01:38 2,8 C 94 % 0,0 l/m 3,9 km/h (1 Bft) SW 222 4,8 km/h (1 Bft)
10.01.2012 01:39 2,8 C 94 % 0,2 l/m 2,7 km/h (1 Bft) S-SW 210 3,2 km/h (1 Bft)
10.01.2012 01:40 2,8 C 94 % 0,0 l/m 3,6 km/h (1 Bft) S-SW 211 4,8 km/h (1 Bft)
10.01.2012 01:41 2,8 C 94 % 0,0 l/m 2,5 km/h (1 Bft) W-SW 238 4,8 km/h (1 Bft)
10.01.2012 01:42 2,7 C 94 % 0,0 l/m 2,7 km/h (1 Bft) S 181 4,8 km/h (1 Bft)
10.01.2012 01:43 2,7 C 94 % 0,0 l/m 4,5 km/h (1 Bft) SW 225 6,4 km/h (2 Bft)
10.01.2012 01:44 2,7 C 94 % 0,0 l/m 4,8 km/h (1 Bft) S-SW 204 6,4 km/h (2 Bft)
10.01.2012 01:45 2,7 C 94 % 0,2 l/m 4,2 km/h (1 Bft) S-SW 193 4,8 km/h (1 Bft)
10.01.2012 01:46 2,7 C 94 % 0,0 l/m 5,6 km/h (1 Bft) W-SW 245 6,4 km/h (2 Bft)
10.01.2012 01:47 2,7 C 95 % 0,0 l/m 4,4 km/h (1 Bft) S-SW 212 8,0 km/h (2 Bft)
10.01.2012 01:48 2,7 C 95 % 0,0 l/m 5,8 km/h (2 Bft) SW 226 8,0 km/h (2 Bft)
10.01.2012 01:49 2,7 C 95 % 0,0 l/m 5,8 km/h (2 Bft) SW 215 8,0 km/h (2 Bft)
10.01.2012 01:50 2,7 C 95 % 0,0 l/m 3,7 km/h (1 Bft) S 190 6,4 km/h (2 Bft)
10.01.2012 01:51 2,6 C 95 % 0,2 l/m 6,1 km/h (2 Bft) S-SW 203 8,0 km/h (2 Bft)
10.01.2012 01:52 2,6 C 95 % 0,0 l/m 6,5 km/h (2 Bft) S-SW 211 8,0 km/h (2 Bft)
10.01.2012 01:53 2,6 C 95 % 0,0 l/m 5,9 km/h (2 Bft) SW 215 8,0 km/h (2 Bft)
10.01.2012 01:54 2,6 C 95 % 0,0 l/m 5,6 km/h (1 Bft) SW 225 6,4 km/h (2 Bft)
10.01.2012 01:55 2,6 C 95 % 0,0 l/m 4,3 km/h (1 Bft) SW 231 6,4 km/h (2 Bft)
10.01.2012 01:56 2,6 C 95 % 0,0 l/m 5,2 km/h (1 Bft) S-SW 207 6,4 km/h (2 Bft)
10.01.2012 01:57 2,6 C 95 % 0,2 l/m 5,3 km/h (1 Bft) SW 217 6,4 km/h (2 Bft)
10.01.2012 01:58 2,6 C 95 % 0,0 l/m 6,8 km/h (2 Bft) SW 224 9,7 km/h (2 Bft)
10.01.2012 01:59 2,6 C 95 % 0,0 l/m 5,0 km/h (1 Bft) S-SW 205 8,0 km/h (2 Bft)
10.01.2012 02:00 2,6 C 95 % 0,0 l/m 3,7 km/h (1 Bft) SW 219 8,0 km/h (2 Bft)
10.01.2012 02:01 2,6 C 95 % 0,0 l/m 3,2 km/h (1 Bft) SW 235 4,8 km/h (1 Bft)
10.01.2012 02:02 2,6 C 95 % 0,2 l/m 3,1 km/h (1 Bft) W-SW 242 6,4 km/h (2 Bft)
10.01.2012 02:03 2,6 C 95 % 0,0 l/m 1,6 km/h (1 Bft) SW 215 3,2 km/h (1 Bft)
10.01.2012 02:04 2,6 C 95 % 0,0 l/m 2,8 km/h (1 Bft) SW 218 3,2 km/h (1 Bft)
10.01.2012 02:05 2,6 C 95 % 0,0 l/m 4,3 km/h (1 Bft) S 185 6,4 km/h (2 Bft)
10.01.2012 02:06 2,5 C 95 % 0,0 l/m 1,1 km/h (1 Bft) SW 232 1,6 km/h (1 Bft)
10.01.2012 02:07 2,5 C 95 % 0,0 l/m 2,4 km/h (1 Bft) SW 219 3,2 km/h (1 Bft)
10.01.2012 02:08 2,5 C 95 % 0,0 l/m 1,9 km/h (1 Bft) SW 236 3,2 km/h (1 Bft)
10.01.2012 02:09 2,5 C 95 % 0,0 l/m 1,8 km/h (1 Bft) SW 229 3,2 km/h (1 Bft)
10.01.2012 02:10 2,5 C 95 % 0,0 l/m 1,8 km/h (1 Bft) W 260 3,2 km/h (1 Bft)
10.01.2012 02:11 2,5 C 95 % 0,0 l/m 2,7 km/h (1 Bft) W-SW 243 4,8 km/h (1 Bft)
10.01.2012 02:12 2,5 C 95 % 0,0 l/m 1,0 km/h (0 Bft) SW 215 3,2 km/h (1 Bft)
10.01.2012 02:13 2,5 C 95 % 0,0 l/m 3,4 km/h (1 Bft) SW 219 6,4 km/h (2 Bft)
10.01.2012 02:14 2,5 C 95 % 0,0 l/m 2,5 km/h (1 Bft) SW 217 4,8 km/h (1 Bft)
10.01.2012 02:15 2,4 C 95 % 0,0 l/m 5,4 km/h (1 Bft) SW 231 6,4 km/h (2 Bft)
10.01.2012 02:16 2,4 C 95 % 0,2 l/m 5,4 km/h (1 Bft) SW 224 6,4 km/h (2 Bft)
10.01.2012 02:17 2,4 C 95 % 0,0 l/m 3,8 km/h (1 Bft) SW 225 9,7 km/h (2 Bft)
10.01.2012 02:18 2,4 C 95 % 0,0 l/m 4,6 km/h (1 Bft) SW 228 6,4 km/h (2 Bft)
10.01.2012 02:19 2,4 C 95 % 0,0 l/m 6,9 km/h (2 Bft) SW 223 8,0 km/h (2 Bft)
10.01.2012 02:20 2,4 C 95 % 0,0 l/m 6,2 km/h (2 Bft) S-SW 212 9,7 km/h (2 Bft)
10.01.2012 02:21 2,3 C 95 % 0,0 l/m 5,0 km/h (1 Bft) SW 231 8,0 km/h (2 Bft)
10.01.2012 02:22 2,3 C 95 % 0,0 l/m 4,3 km/h (1 Bft) S-SW 203 6,4 km/h (2 Bft)
10.01.2012 02:23 2,3 C 95 % 0,0 l/m 6,1 km/h (2 Bft) SW 217 8,0 km/h (2 Bft)
10.01.2012 02:24 2,3 C 95 % 0,0 l/m 6,0 km/h (2 Bft) SW 215 8,0 km/h (2 Bft)
10.01.2012 02:25 2,3 C 95 % 0,0 l/m 6,3 km/h (2 Bft) S-SW 203 8,0 km/h (2 Bft)
10.01.2012 02:26 2,3 C 95 % 0,0 l/m 3,4 km/h (1 Bft) S-SO 155 4,8 km/h (1 Bft)
10.01.2012 02:27 2,2 C 95 % 0,0 l/m 2,8 km/h (1 Bft) S-SO 155 8,0 km/h (2 Bft)
10.01.2012 02:28 2,2 C 95 % 0,0 l/m 6,4 km/h (2 Bft) SW 222 11,3 km/h (2 Bft)
10.01.2012 02:29 2,2 C 95 % 0,0 l/m 3,0 km/h (1 Bft) S-SW 208 4,8 km/h (1 Bft)
10.01.2012 02:30 2,2 C 95 % 0,0 l/m 4,9 km/h (1 Bft) S-SW 203 8,0 km/h (2 Bft)
10.01.2012 02:31 2,2 C 95 % 0,0 l/m 5,4 km/h (1 Bft) SW 236 8,0 km/h (2 Bft)
10.01.2012 02:32 2,2 C 95 % 0,0 l/m 2,8 km/h (1 Bft) SW 224 4,8 km/h (1 Bft)
10.01.2012 02:33 2,2 C 95 % 0,0 l/m 3,1 km/h (1 Bft) SW 226 6,4 km/h (2 Bft)
10.01.2012 02:34 2,2 C 95 % 0,0 l/m 2,5 km/h (1 Bft) SW 215 3,2 km/h (1 Bft)
10.01.2012 02:35 2,2 C 95 % 0,0 l/m 2,9 km/h (1 Bft) W-SW 252 3,2 km/h (1 Bft)
10.01.2012 02:36 2,2 C 95 % 0,0 l/m 2,7 km/h (1 Bft) W-SW 253 4,8 km/h (1 Bft)
10.01.2012 02:37 2,2 C 95 % 0,0 l/m 1,1 km/h (1 Bft) W-SW 249 1,6 km/h (1 Bft)
10.01.2012 02:38 2,2 C 95 % 0,0 l/m 3,1 km/h (1 Bft) SW 226 4,8 km/h (1 Bft)
10.01.2012 02:39 2,2 C 95 % 0,0 l/m 3,0 km/h (1 Bft) W-SW 243 4,8 km/h (1 Bft)
10.01.2012 02:40 2,2 C 95 % 0,0 l/m 3,4 km/h (1 Bft) SW 215 4,8 km/h (1 Bft)
10.01.2012 02:41 2,1 C 95 % 0,0 l/m 3,9 km/h (1 Bft) S-SW 204 6,4 km/h (2 Bft)
10.01.2012 02:42 2,1 C 95 % 0,0 l/m 2,7 km/h (1 Bft) SW 225 4,8 km/h (1 Bft)
10.01.2012 02:43 2,1 C 95 % 0,0 l/m 2,0 km/h (1 Bft) SW 226 3,2 km/h (1 Bft)
10.01.2012 02:44 2,1 C 95 % 0,0 l/m 2,7 km/h (1 Bft) W-SW 239 4,8 km/h (1 Bft)
10.01.2012 02:45 2,1 C 95 % 0,0 l/m 5,2 km/h (1 Bft) W-SW 242 6,4 km/h (2 Bft)
10.01.2012 02:46 2,1 C 95 % 0,0 l/m 2,3 km/h (1 Bft) S-SW 212 4,8 km/h (1 Bft)
10.01.2012 02:47 2,1 C 95 % 0,0 l/m 1,5 km/h (1 Bft) S 191 3,2 km/h (1 Bft)
10.01.2012 02:48 2,1 C 95 % 0,0 l/m 3,1 km/h (1 Bft) W 263 6,4 km/h (2 Bft)
10.01.2012 02:49 2,1 C 95 % 0,0 l/m 4,1 km/h (1 Bft) SW 224 6,4 km/h (2 Bft)
10.01.2012 02:50 2,1 C 95 % 0,0 l/m 2,1 km/h (1 Bft) S-SW 197 4,8 km/h (1 Bft)
10.01.2012 02:51 2,1 C 95 % 0,0 l/m 3,9 km/h (1 Bft) W-SW 239 4,8 km/h (1 Bft)
10.01.2012 02:52 2,0 C 95 % 0,0 l/m 4,1 km/h (1 Bft) S-SO 147 4,8 km/h (1 Bft)
10.01.2012 02:53 2,0 C 95 % 0,0 l/m 4,9 km/h (1 Bft) S-SW 198 6,4 km/h (2 Bft)
10.01.2012 02:54 2,0 C 95 % 0,0 l/m 3,8 km/h (1 Bft) SW 219 4,8 km/h (1 Bft)
10.01.2012 02:55 2,0 C 95 % 0,0 l/m 3,1 km/h (1 Bft) W-SW 245 4,8 km/h (1 Bft)
10.01.2012 02:56 2,0 C 95 % 0,0 l/m 2,7 km/h (1 Bft) S 190 4,8 km/h (1 Bft)
10.01.2012 02:57 2,0 C 95 % 0,0 l/m 2,2 km/h (1 Bft) SW 228 3,2 km/h (1 Bft)
10.01.2012 02:58 2,0 C 95 % 0,0 l/m 1,4 km/h (1 Bft) SW 217 1,6 km/h (1 Bft)
10.01.2012 02:59 2,0 C 95 % 0,0 l/m 2,2 km/h (1 Bft) W-SW 245 3,2 km/h (1 Bft)
10.01.2012 03:00 2,0 C 95 % 0,0 l/m 4,3 km/h (1 Bft) SW 214 6,4 km/h (2 Bft)
10.01.2012 03:01 2,0 C 95 % 0,0 l/m 1,4 km/h (1 Bft) SW 233 4,8 km/h (1 Bft)
10.01.2012 03:02 2,1 C 95 % 0,0 l/m 3,4 km/h (1 Bft) S 191 4,8 km/h (1 Bft)
10.01.2012 03:03 2,1 C 95 % 0,0 l/m 4,5 km/h (1 Bft) W-SW 255 6,4 km/h (2 Bft)
10.01.2012 03:04 2,1 C 95 % 0,0 l/m 4,6 km/h (1 Bft) W-SW 240 6,4 km/h (2 Bft)
10.01.2012 03:05 2,1 C 95 % 0,0 l/m 5,2 km/h (1 Bft) SW 217 6,4 km/h (2 Bft)
10.01.2012 03:06 2,1 C 95 % 0,0 l/m 4,8 km/h (1 Bft) S-SO 162 6,4 km/h (2 Bft)
10.01.2012 03:07 2,2 C 95 % 0,0 l/m 1,9 km/h (1 Bft) S-SW 208 3,2 km/h (1 Bft)
10.01.2012 03:08 2,2 C 95 % 0,0 l/m 1,7 km/h (1 Bft) SO 146 3,2 km/h (1 Bft)
10.01.2012 03:09 2,2 C 95 % 0,0 l/m 3,0 km/h (1 Bft) S 189 4,8 km/h (1 Bft)
10.01.2012 03:10 2,2 C 95 % 0,0 l/m 2,2 km/h (1 Bft) S 176 4,8 km/h (1 Bft)
10.01.2012 03:11 2,3 C 95 % 0,0 l/m 1,4 km/h (1 Bft) SW 222 3,2 km/h (1 Bft)
10.01.2012 03:12 2,3 C 95 % 0,0 l/m 0,8 km/h (0 Bft) SO 133 3,2 km/h (1 Bft)
10.01.2012 03:14 2,3 C 95 % 0,0 l/m 2,0 km/h (1 Bft) SW 236 3,2 km/h (1 Bft)
10.01.2012 03:15 2,4 C 95 % 0,0 l/m 3,7 km/h (1 Bft) W-SW 239 4,8 km/h (1 Bft)
10.01.2012 03:16 2,4 C 95 % 0,0 l/m 2,5 km/h (1 Bft) W-SW 245 3,2 km/h (1 Bft)
10.01.2012 03:17 2,4 C 95 % 0,0 l/m 0,7 km/h (0 Bft) SW 224 1,6 km/h (1 Bft)
10.01.2012 03:18 2,5 C 95 % 0,0 l/m 2,0 km/h (1 Bft) W-SW 239 4,8 km/h (1 Bft)
10.01.2012 03:19 2,6 C 95 % 0,0 l/m 4,8 km/h (1 Bft) SW 232 6,4 km/h (2 Bft)
10.01.2012 03:20 2,6 C 95 % 0,0 l/m 4,4 km/h (1 Bft) W 265 6,4 km/h (2 Bft)
10.01.2012 03:21 2,7 C 95 % 0,0 l/m 5,2 km/h (1 Bft) W 259 8,0 km/h (2 Bft)
10.01.2012 03:22 2,8 C 94 % 0,0 l/m 5,5 km/h (1 Bft) SW 219 11,3 km/h (2 Bft)
10.01.2012 03:23 2,9 C 94 % 0,0 l/m 6,7 km/h (2 Bft) SW 219 11,3 km/h (2 Bft)
10.01.2012 03:24 3,1 C 94 % 0,0 l/m 11,5 km/h (2 Bft) W-SW 246 17,7 km/h (3 Bft)
10.01.2012 03:25 3,3 C 94 % 0,0 l/m 11,3 km/h (2 Bft) W-SW 245 20,9 km/h (4 Bft)
10.01.2012 03:26 3,5 C 94 % 0,0 l/m 8,9 km/h (2 Bft) W 261 16,1 km/h (3 Bft)
10.01.2012 03:27 3,7 C 93 % 0,0 l/m 10,7 km/h (2 Bft) W-SW 243 16,1 km/h (3 Bft)
10.01.2012 03:28 3,8 C 92 % 0,0 l/m 6,3 km/h (2 Bft) S-SO 149 14,5 km/h (3 Bft)
10.01.2012 03:29 4,0 C 91 % 0,0 l/m 4,1 km/h (1 Bft) W 278 6,4 km/h (2 Bft)
10.01.2012 03:30 4,1 C 91 % 0,0 l/m 3,6 km/h (1 Bft) W-SW 245 8,0 km/h (2 Bft)
10.01.2012 03:31 4,2 C 90 % 0,0 l/m 13,8 km/h (3 Bft) SW 219 30,6 km/h (5 Bft)
10.01.2012 03:32 4,3 C 89 % 0,0 l/m 9,5 km/h (2 Bft) W-SW 255 16,1 km/h (3 Bft)
10.01.2012 03:33 4,4 C 89 % 0,0 l/m 4,5 km/h (1 Bft) W-NW 293 8,0 km/h (2 Bft)
10.01.2012 03:34 4,4 C 89 % 0,0 l/m 13,5 km/h (3 Bft) NW 304 25,7 km/h (4 Bft)
10.01.2012 03:35 4,5 C 88 % 0,0 l/m 14,8 km/h (3 Bft) W-SW 240 24,1 km/h (4 Bft)
10.01.2012 03:36 4,6 C 88 % 0,0 l/m 10,0 km/h (2 Bft) W-NW 291 20,9 km/h (4 Bft)
10.01.2012 03:37 4,6 C 88 % 0,0 l/m 9,7 km/h (2 Bft) W 274 16,1 km/h (3 Bft)
10.01.2012 03:38 4,6 C 88 % 0,0 l/m 5,5 km/h (1 Bft) N 1 9,7 km/h (2 Bft)
10.01.2012 03:39 4,7 C 88 % 0,0 l/m 5,5 km/h (1 Bft) N-NW 333 11,3 km/h (2 Bft)
10.01.2012 03:40 4,7 C 88 % 0,0 l/m 10,9 km/h (2 Bft) W-NW 294 17,7 km/h (3 Bft)
10.01.2012 03:41 4,7 C 88 % 0,0 l/m 9,3 km/h (2 Bft) W-NW 293 12,9 km/h (3 Bft)
10.01.2012 03:42 4,7 C 88 % 0,0 l/m 13,5 km/h (3 Bft) W-SW 250 20,9 km/h (4 Bft)
10.01.2012 03:43 4,8 C 88 % 0,0 l/m 11,7 km/h (2 Bft) W 261 19,3 km/h (3 Bft)
10.01.2012 03:44 4,8 C 88 % 0,0 l/m 10,1 km/h (2 Bft) W-SW 250 16,1 km/h (3 Bft)
10.01.2012 03:45 4,8 C 88 % 0,0 l/m 9,8 km/h (2 Bft) W 262 12,9 km/h (3 Bft)
10.01.2012 03:46 4,8 C 88 % 0,0 l/m 14,7 km/h (3 Bft) W-NW 293 25,7 km/h (4 Bft)
10.01.2012 03:47 4,9 C 87 % 0,0 l/m 16,2 km/h (3 Bft) W-NW 302 30,6 km/h (5 Bft)
10.01.2012 03:48 4,9 C 87 % 0,0 l/m 5,6 km/h (1 Bft) NW 308 9,7 km/h (2 Bft)
10.01.2012 03:49 4,9 C 87 % 0,0 l/m 9,5 km/h (2 Bft) W-SW 244 17,7 km/h (3 Bft)
10.01.2012 03:50 5,0 C 87 % 0,2 l/m 10,2 km/h (2 Bft) W-NW 283 22,5 km/h (4 Bft)
10.01.2012 03:51 5,0 C 87 % 0,0 l/m 12,0 km/h (2 Bft) NW 321 25,7 km/h (4 Bft)
10.01.2012 03:52 5,1 C 87 % 0,0 l/m 17,1 km/h (3 Bft) W 266 27,4 km/h (4 Bft)
10.01.2012 03:53 5,1 C 87 % 0,0 l/m 12,2 km/h (2 Bft) W-SW 255 20,9 km/h (4 Bft)
10.01.2012 03:54 5,1 C 87 % 0,0 l/m 7,5 km/h (2 Bft) N-NW 342 12,9 km/h (3 Bft)
10.01.2012 03:55 5,1 C 87 % 0,0 l/m 9,3 km/h (2 Bft) W 261 14,5 km/h (3 Bft)
10.01.2012 03:56 5,1 C 87 % 0,0 l/m 11,0 km/h (2 Bft) NW 304 19,3 km/h (3 Bft)
10.01.2012 03:57 5,1 C 87 % 0,0 l/m 9,7 km/h (2 Bft) W-NW 290 19,3 km/h (3 Bft)
10.01.2012 03:58 5,1 C 86 % 0,0 l/m 12,0 km/h (2 Bft) NW 306 20,9 km/h (4 Bft)
10.01.2012 03:59 5,1 C 87 % 0,0 l/m 5,9 km/h (2 Bft) W-NW 293 11,3 km/h (2 Bft)
10.01.2012 04:00 5,1 C 87 % 0,0 l/m 6,7 km/h (2 Bft) S-SW 208 14,5 km/h (3 Bft)
10.01.2012 04:01 5,1 C 87 % 0,0 l/m 12,3 km/h (3 Bft) W-SW 252 19,3 km/h (3 Bft)
10.01.2012 04:02 5,2 C 86 % 0,0 l/m 11,1 km/h (2 Bft) W-NW 297 17,7 km/h (3 Bft)
10.01.2012 04:03 5,2 C 86 % 0,0 l/m 8,7 km/h (2 Bft) N-NW 331 14,5 km/h (3 Bft)
10.01.2012 04:04 5,2 C 86 % 0,0 l/m 6,1 km/h (2 Bft) W-NW 288 9,7 km/h (2 Bft)
10.01.2012 04:05 5,2 C 86 % 0,0 l/m 7,1 km/h (2 Bft) W-NW 285 12,9 km/h (3 Bft)
10.01.2012 04:06 5,2 C 86 % 0,0 l/m 8,0 km/h (2 Bft) W-SW 239 11,3 km/h (2 Bft)
10.01.2012 04:07 5,2 C 86 % 0,0 l/m 7,3 km/h (2 Bft) W-NW 287 11,3 km/h (2 Bft)
10.01.2012 04:08 5,2 C 86 % 0,0 l/m 6,4 km/h (2 Bft) N-NW 327 14,5 km/h (3 Bft)
10.01.2012 04:09 5,2 C 86 % 0,0 l/m 10,0 km/h (2 Bft) W-NW 293 16,1 km/h (3 Bft)
10.01.2012 04:10 5,2 C 86 % 0,0 l/m 13,5 km/h (3 Bft) W-NW 300 20,9 km/h (4 Bft)
10.01.2012 04:11 5,2 C 85 % 0,0 l/m 12,6 km/h (3 Bft) N-NO 23 22,5 km/h (4 Bft)
10.01.2012 04:12 5,3 C 85 % 0,0 l/m 12,5 km/h (3 Bft) N-NW 328 19,3 km/h (3 Bft)
10.01.2012 04:13 5,3 C 85 % 0,0 l/m 8,5 km/h (2 Bft) W-SW 238 11,3 km/h (2 Bft)
10.01.2012 04:14 5,3 C 85 % 0,0 l/m 11,1 km/h (2 Bft) W-SW 245 17,7 km/h (3 Bft)
10.01.2012 04:15 5,3 C 85 % 0,0 l/m 15,4 km/h (3 Bft) W 278 27,4 km/h (4 Bft)
10.01.2012 04:16 5,4 C 85 % 0,0 l/m 19,5 km/h (3 Bft) W-NW 283 29,0 km/h (5 Bft)
10.01.2012 04:17 5,4 C 85 % 0,0 l/m 14,4 km/h (3 Bft) W-NW 295 24,1 km/h (4 Bft)
10.01.2012 04:18 5,4 C 85 % 0,0 l/m 17,5 km/h (3 Bft) N-NW 328 27,4 km/h (4 Bft)
10.01.2012 04:19 5,4 C 84 % 0,0 l/m 15,8 km/h (3 Bft) N 355 30,6 km/h (5 Bft)
10.01.2012 04:20 5,5 C 84 % 0,0 l/m 15,0 km/h (3 Bft) W-NW 293 27,4 km/h (4 Bft)
10.01.2012 04:21 5,5 C 84 % 0,0 l/m 9,7 km/h (2 Bft) NW 304 24,1 km/h (4 Bft)
10.01.2012 04:22 5,6 C 84 % 0,0 l/m 9,1 km/h (2 Bft) NW 305 17,7 km/h (3 Bft)
10.01.2012 04:23 5,6 C 84 % 0,0 l/m 11,3 km/h (2 Bft) N-NO 30 24,1 km/h (4 Bft)
10.01.2012 04:24 5,6 C 84 % 0,0 l/m 15,8 km/h (3 Bft) W-NW 297 29,0 km/h (5 Bft)
10.01.2012 04:25 5,6 C 84 % 0,0 l/m 27,7 km/h (4 Bft) W-NW 295 41,8 km/h (6 Bft)
10.01.2012 04:26 5,7 C 83 % 0,0 l/m 20,6 km/h (4 Bft) W 269 38,6 km/h (5 Bft)
10.01.2012 04:27 5,7 C 84 % 0,0 l/m 22,0 km/h (4 Bft) W-NW 298 35,4 km/h (5 Bft)
10.01.2012 04:28 5,7 C 83 % 0,0 l/m 17,0 km/h (3 Bft) W 271 25,7 km/h (4 Bft)
10.01.2012 04:29 5,8 C 83 % 0,0 l/m 19,0 km/h (3 Bft) W-SW 240 32,2 km/h (5 Bft)
10.01.2012 04:30 5,8 C 83 % 0,0 l/m 12,4 km/h (3 Bft) W-SW 257 29,0 km/h (5 Bft)
10.01.2012 04:31 5,8 C 83 % 0,0 l/m 19,3 km/h (3 Bft) SW 222 40,2 km/h (6 Bft)
10.01.2012 04:32 5,8 C 83 % 0,0 l/m 15,3 km/h (3 Bft) W-NW 293 32,2 km/h (5 Bft)
10.01.2012 04:33 5,8 C 83 % 0,0 l/m 14,8 km/h (3 Bft) W 260 25,7 km/h (4 Bft)
10.01.2012 04:34 5,8 C 83 % 0,0 l/m 12,3 km/h (3 Bft) W 262 22,5 km/h (4 Bft)
10.01.2012 04:35 5,8 C 83 % 0,0 l/m 13,2 km/h (3 Bft) N-NW 327 20,9 km/h (4 Bft)
10.01.2012 04:36 5,8 C 83 % 0,0 l/m 19,6 km/h (3 Bft) W-SW 250 33,8 km/h (5 Bft)
10.01.2012 04:37 5,8 C 83 % 0,0 l/m 12,0 km/h (2 Bft) O 95 19,3 km/h (3 Bft)
10.01.2012 04:38 5,8 C 83 % 0,0 l/m 15,6 km/h (3 Bft) W 271 20,9 km/h (4 Bft)
10.01.2012 04:39 5,8 C 83 % 0,0 l/m 13,0 km/h (3 Bft) W 269 27,4 km/h (4 Bft)
10.01.2012 04:40 5,8 C 83 % 0,0 l/m 19,7 km/h (3 Bft) S-SW 208 30,6 km/h (5 Bft)
10.01.2012 04:41 5,8 C 83 % 0,0 l/m 10,9 km/h (2 Bft) N-NO 29 20,9 km/h (4 Bft)
10.01.2012 04:42 5,8 C 83 % 0,0 l/m 18,2 km/h (3 Bft) N-NW 336 27,4 km/h (4 Bft)
10.01.2012 04:43 5,8 C 83 % 0,0 l/m 10,3 km/h (2 Bft) SO 127 27,4 km/h (4 Bft)
10.01.2012 04:44 5,8 C 83 % 0,0 l/m 8,4 km/h (2 Bft) W-NW 288 14,5 km/h (3 Bft)
10.01.2012 04:45 5,8 C 83 % 0,0 l/m 13,8 km/h (3 Bft) W-SW 240 25,7 km/h (4 Bft)
10.01.2012 04:46 5,8 C 83 % 0,0 l/m 13,2 km/h (3 Bft) W-NW 297 17,7 km/h (3 Bft)
10.01.2012 04:47 5,8 C 83 % 0,0 l/m 12,5 km/h (3 Bft) W-SW 248 22,5 km/h (4 Bft)
10.01.2012 04:48 5,8 C 83 % 0,0 l/m 12,4 km/h (3 Bft) W-NW 288 22,5 km/h (4 Bft)
10.01.2012 04:49 5,8 C 83 % 0,0 l/m 15,2 km/h (3 Bft) W 259 20,9 km/h (4 Bft)
10.01.2012 04:50 5,8 C 83 % 0,0 l/m 19,8 km/h (3 Bft) NW 319 27,4 km/h (4 Bft)
10.01.2012 04:51 5,9 C 83 % 0,0 l/m 12,2 km/h (2 Bft) W-SW 257 27,4 km/h (4 Bft)
10.01.2012 04:52 5,9 C 83 % 0,0 l/m 17,9 km/h (3 Bft) W 276 29,0 km/h (5 Bft)
10.01.2012 04:53 5,9 C 83 % 0,0 l/m 15,1 km/h (3 Bft) W 280 25,7 km/h (4 Bft)
10.01.2012 04:54 5,9 C 82 % 0,0 l/m 22,4 km/h (4 Bft) W-SW 243 40,2 km/h (6 Bft)
10.01.2012 04:55 6,0 C 82 % 0,0 l/m 16,4 km/h (3 Bft) NW 326 27,4 km/h (4 Bft)
10.01.2012 04:56 6,0 C 82 % 0,0 l/m 20,0 km/h (4 Bft) NW 308 38,6 km/h (5 Bft)
10.01.2012 04:57 6,0 C 82 % 0,0 l/m 19,3 km/h (3 Bft) NW 311 29,0 km/h (5 Bft)
10.01.2012 04:58 6,1 C 82 % 0,0 l/m 16,0 km/h (3 Bft) W-NW 295 38,6 km/h (5 Bft)
10.01.2012 04:59 6,1 C 82 % 0,0 l/m 18,9 km/h (3 Bft) N-NW 345 22,5 km/h (4 Bft)
10.01.2012 05:00 6,1 C 82 % 0,0 l/m 16,2 km/h (3 Bft) W 281 29,0 km/h (5 Bft)
10.01.2012 05:01 6,1 C 82 % 0,0 l/m 9,0 km/h (2 Bft) SW 224 14,5 km/h (3 Bft)
10.01.2012 05:02 6,1 C 82 % 0,0 l/m 15,4 km/h (3 Bft) NW 312 25,7 km/h (4 Bft)
10.01.2012 05:03 6,1 C 82 % 0,0 l/m 19,9 km/h (4 Bft) W 267 27,4 km/h (4 Bft)
10.01.2012 05:04 6,1 C 82 % 0,0 l/m 11,7 km/h (2 Bft) NW 326 17,7 km/h (3 Bft)
10.01.2012 05:05 6,1 C 81 % 0,0 l/m 20,3 km/h (4 Bft) W-SW 250 40,2 km/h (6 Bft)
10.01.2012 05:06 6,2 C 81 % 0,0 l/m 17,0 km/h (3 Bft) W-NW 297 29,0 km/h (5 Bft)
10.01.2012 05:07 6,2 C 81 % 0,0 l/m 16,0 km/h (3 Bft) W-NW 297 33,8 km/h (5 Bft)
10.01.2012 05:08 6,2 C 81 % 0,0 l/m 17,4 km/h (3 Bft) W-NW 301 27,4 km/h (4 Bft)
10.01.2012 05:09 6,2 C 81 % 0,0 l/m 19,4 km/h (3 Bft) W-NW 291 37,0 km/h (5 Bft)
10.01.2012 05:10 6,2 C 81 % 0,0 l/m 13,2 km/h (3 Bft) NW 309 20,9 km/h (4 Bft)
10.01.2012 05:11 6,2 C 81 % 0,0 l/m 17,6 km/h (3 Bft) NO 53 33,8 km/h (5 Bft)
10.01.2012 05:12 6,2 C 80 % 0,0 l/m 14,8 km/h (3 Bft) NW 321 30,6 km/h (5 Bft)
10.01.2012 05:13 6,3 C 80 % 0,0 l/m 23,2 km/h (4 Bft) W-NW 295 33,8 km/h (5 Bft)
10.01.2012 05:14 6,3 C 80 % 0,0 l/m 19,1 km/h (3 Bft) W 267 29,0 km/h (5 Bft)
10.01.2012 05:15 6,3 C 80 % 0,0 l/m 17,2 km/h (3 Bft) N-NO 12 27,4 km/h (4 Bft)
10.01.2012 05:16 6,3 C 80 % 0,0 l/m 11,0 km/h (2 Bft) W-NW 293 24,1 km/h (4 Bft)
10.01.2012 05:17 6,3 C 80 % 0,0 l/m 14,8 km/h (3 Bft) N 1 24,1 km/h (4 Bft)
10.01.2012 05:18 6,3 C 80 % 0,0 l/m 11,8 km/h (2 Bft) W 266 19,3 km/h (3 Bft)
10.01.2012 05:19 6,3 C 80 % 0,0 l/m 12,8 km/h (3 Bft) N-NW 339 25,7 km/h (4 Bft)
10.01.2012 05:20 6,3 C 80 % 0,0 l/m 12,8 km/h (3 Bft) W-NW 300 20,9 km/h (4 Bft)
10.01.2012 05:21 6,3 C 80 % 0,0 l/m 18,8 km/h (3 Bft) W-SW 246 32,2 km/h (5 Bft)
10.01.2012 05:22 6,3 C 80 % 0,0 l/m 11,8 km/h (2 Bft) W-SW 257 29,0 km/h (5 Bft)
10.01.2012 05:23 6,3 C 80 % 0,0 l/m 14,0 km/h (3 Bft) N-NO 23 22,5 km/h (4 Bft)
10.01.2012 05:24 6,3 C 80 % 0,0 l/m 9,1 km/h (2 Bft) NW 310 25,7 km/h (4 Bft)
10.01.2012 05:25 6,4 C 80 % 0,0 l/m 15,8 km/h (3 Bft) W-NW 297 22,5 km/h (4 Bft)
10.01.2012 05:26 6,4 C 79 % 0,0 l/m 15,0 km/h (3 Bft) W-NW 297 29,0 km/h (5 Bft)
10.01.2012 05:27 6,4 C 79 % 0,0 l/m 17,1 km/h (3 Bft) W-NW 285 32,2 km/h (5 Bft)
10.01.2012 05:28 6,4 C 79 % 0,0 l/m 12,6 km/h (3 Bft) W-NW 285 19,3 km/h (3 Bft)
10.01.2012 05:29 6,4 C 79 % 0,0 l/m 20,2 km/h (4 Bft) NW 318 35,4 km/h (5 Bft)
10.01.2012 05:30 6,4 C 79 % 0,0 l/m 13,1 km/h (3 Bft) N 9 17,7 km/h (3 Bft)
10.01.2012 05:31 6,5 C 79 % 0,0 l/m 12,6 km/h (3 Bft) W-SW 253 24,1 km/h (4 Bft)
10.01.2012 05:32 6,5 C 79 % 0,0 l/m 10,0 km/h (2 Bft) SW 217 22,5 km/h (4 Bft)
10.01.2012 05:33 6,5 C 79 % 0,0 l/m 12,7 km/h (3 Bft) NW 309 22,5 km/h (4 Bft)
10.01.2012 05:34 6,5 C 79 % 0,0 l/m 11,1 km/h (2 Bft) NW 312 22,5 km/h (4 Bft)
10.01.2012 05:35 6,5 C 78 % 0,0 l/m 22,6 km/h (4 Bft) W-NW 285 37,0 km/h (5 Bft)
10.01.2012 05:36 6,5 C 78 % 0,0 l/m 11,5 km/h (2 Bft) W-NW 289 24,1 km/h (4 Bft)
10.01.2012 05:37 6,5 C 79 % 0,0 l/m 20,3 km/h (4 Bft) S-SO 157 32,2 km/h (5 Bft)
10.01.2012 05:38 6,5 C 79 % 0,0 l/m 22,0 km/h (4 Bft) W 271 43,5 km/h (6 Bft)
10.01.2012 05:39 6,5 C 79 % 0,0 l/m 16,1 km/h (3 Bft) W 278 27,4 km/h (4 Bft)
10.01.2012 05:40 6,5 C 79 % 0,0 l/m 20,7 km/h (4 Bft) S-SW 213 32,2 km/h (5 Bft)
10.01.2012 05:41 6,5 C 79 % 0,0 l/m 16,7 km/h (3 Bft) N 4 38,6 km/h (5 Bft)
10.01.2012 05:42 6,5 C 79 % 0,0 l/m 21,2 km/h (4 Bft) O-SO 117 38,6 km/h (5 Bft)
10.01.2012 05:43 6,5 C 79 % 0,0 l/m 18,9 km/h (3 Bft) N 349 32,2 km/h (5 Bft)
10.01.2012 05:44 6,6 C 79 % 0,0 l/m 23,1 km/h (4 Bft) NW 306 38,6 km/h (5 Bft)
10.01.2012 05:45 6,6 C 78 % 0,0 l/m 27,2 km/h (4 Bft) W-NW 295 41,8 km/h (6 Bft)
10.01.2012 05:46 6,6 C 78 % 0,0 l/m 26,2 km/h (4 Bft) W 281 41,8 km/h (6 Bft)
10.01.2012 05:47 6,6 C 78 % 0,0 l/m 25,7 km/h (4 Bft) S-SO 161 37,0 km/h (5 Bft)
10.01.2012 05:48 6,6 C 78 % 0,0 l/m 21,5 km/h (4 Bft) W 280 38,6 km/h (5 Bft)
10.01.2012 05:49 6,6 C 79 % 0,0 l/m 18,1 km/h (3 Bft) W-NW 301 24,1 km/h (4 Bft)
10.01.2012 05:50 6,6 C 79 % 0,0 l/m 18,4 km/h (3 Bft) W-NW 297 30,6 km/h (5 Bft)
10.01.2012 05:51 6,5 C 79 % 0,0 l/m 22,6 km/h (4 Bft) W 280 41,8 km/h (6 Bft)
10.01.2012 05:52 6,5 C 79 % 0,0 l/m 20,9 km/h (4 Bft) W-SW 239 41,8 km/h (6 Bft)
10.01.2012 05:53 6,5 C 79 % 0,0 l/m 20,0 km/h (4 Bft) W-NW 289 41,8 km/h (6 Bft)
10.01.2012 05:54 6,4 C 80 % 0,0 l/m 15,3 km/h (3 Bft) W 263 27,4 km/h (4 Bft)
10.01.2012 05:55 6,4 C 80 % 0,0 l/m 22,0 km/h (4 Bft) S 186 30,6 km/h (5 Bft)
10.01.2012 05:56 6,4 C 80 % 0,0 l/m 17,8 km/h (3 Bft) W-SW 255 49,9 km/h (6 Bft)
10.01.2012 05:57 6,4 C 80 % 0,0 l/m 17,3 km/h (3 Bft) N-NW 337 33,8 km/h (5 Bft)
10.01.2012 05:58 6,3 C 80 % 0,0 l/m 11,7 km/h (2 Bft) W-NW 302 19,3 km/h (3 Bft)
10.01.2012 05:59 6,3 C 81 % 0,0 l/m 16,6 km/h (3 Bft) W-NW 297 27,4 km/h (4 Bft)
10.01.2012 06:00 6,3 C 80 % 0,0 l/m 26,1 km/h (4 Bft) W-SW 255 41,8 km/h (6 Bft)
10.01.2012 06:01 6,3 C 80 % 0,0 l/m 17,5 km/h (3 Bft) O 83 24,1 km/h (4 Bft)
10.01.2012 06:02 6,3 C 81 % 0,0 l/m 17,0 km/h (3 Bft) W 276 27,4 km/h (4 Bft)
10.01.2012 06:03 6,3 C 81 % 0,0 l/m 15,3 km/h (3 Bft) W-SW 257 20,9 km/h (4 Bft)
10.01.2012 06:04 6,3 C 81 % 0,0 l/m 18,3 km/h (3 Bft) W 278 27,4 km/h (4 Bft)
10.01.2012 06:05 6,3 C 80 % 0,0 l/m 17,2 km/h (3 Bft) NW 304 29,0 km/h (5 Bft)
10.01.2012 06:06 6,3 C 81 % 0,0 l/m 13,1 km/h (3 Bft) W-NW 299 24,1 km/h (4 Bft)
10.01.2012 06:07 6,3 C 80 % 0,0 l/m 17,5 km/h (3 Bft) W 269 27,4 km/h (4 Bft)
10.01.2012 06:08 6,3 C 80 % 0,0 l/m 15,8 km/h (3 Bft) W 277 24,1 km/h (4 Bft)
10.01.2012 06:09 6,3 C 80 % 0,0 l/m 21,3 km/h (4 Bft) W-NW 289 29,0 km/h (5 Bft)
10.01.2012 06:10 6,3 C 80 % 0,0 l/m 13,3 km/h (3 Bft) W 277 24,1 km/h (4 Bft)
10.01.2012 06:11 6,3 C 80 % 0,0 l/m 15,5 km/h (3 Bft) W 278 29,0 km/h (5 Bft)
10.01.2012 06:12 6,3 C 81 % 0,0 l/m 14,6 km/h (3 Bft) W 259 25,7 km/h (4 Bft)
10.01.2012 06:13 6,3 C 81 % 0,0 l/m 10,9 km/h (2 Bft) W-SW 246 24,1 km/h (4 Bft)
10.01.2012 06:14 6,3 C 81 % 0,0 l/m 13,7 km/h (3 Bft) NO 40 20,9 km/h (4 Bft)
10.01.2012 06:15 6,2 C 81 % 0,0 l/m 7,5 km/h (2 Bft) W-NW 302 17,7 km/h (3 Bft)
10.01.2012 06:16 6,2 C 81 % 0,0 l/m 12,2 km/h (2 Bft) SW 224 22,5 km/h (4 Bft)
10.01.2012 06:17 6,2 C 81 % 0,0 l/m 15,0 km/h (3 Bft) N-NW 336 19,3 km/h (3 Bft)
10.01.2012 06:18 6,2 C 81 % 0,0 l/m 19,2 km/h (3 Bft) W-SW 248 30,6 km/h (5 Bft)
10.01.2012 06:19 6,2 C 80 % 0,0 l/m 13,0 km/h (3 Bft) W-SW 253 24,1 km/h (4 Bft)
10.01.2012 06:20 6,2 C 80 % 0,0 l/m 14,8 km/h (3 Bft) W 263 22,5 km/h (4 Bft)
10.01.2012 06:21 6,3 C 81 % 0,0 l/m 16,3 km/h (3 Bft) W 263 29,0 km/h (5 Bft)
10.01.2012 06:22 6,3 C 80 % 0,0 l/m 17,0 km/h (3 Bft) W-NW 301 22,5 km/h (4 Bft)
10.01.2012 06:23 6,2 C 80 % 0,0 l/m 15,2 km/h (3 Bft) SW 233 25,7 km/h (4 Bft)
10.01.2012 06:24 6,2 C 80 % 0,0 l/m 18,8 km/h (3 Bft) W-SW 239 30,6 km/h (5 Bft)
10.01.2012 06:25 6,2 C 80 % 0,0 l/m 19,3 km/h (3 Bft) NW 312 24,1 km/h (4 Bft)
10.01.2012 06:26 6,2 C 80 % 0,0 l/m 18,6 km/h (3 Bft) W-SW 249 29,0 km/h (5 Bft)
10.01.2012 06:27 6,2 C 80 % 0,0 l/m 16,6 km/h (3 Bft) W-SW 239 27,4 km/h (4 Bft)
10.01.2012 06:28 6,3 C 80 % 0,0 l/m 18,7 km/h (3 Bft) W 270 25,7 km/h (4 Bft)
10.01.2012 06:29 6,3 C 80 % 0,0 l/m 18,7 km/h (3 Bft) SW 236 25,7 km/h (4 Bft)
10.01.2012 06:30 6,3 C 80 % 0,0 l/m 15,4 km/h (3 Bft) W 260 24,1 km/h (4 Bft)
10.01.2012 06:31 6,3 C 79 % 0,0 l/m 22,2 km/h (4 Bft) W-SW 245 40,2 km/h (6 Bft)
10.01.2012 06:32 6,3 C 79 % 0,0 l/m 27,4 km/h (4 Bft) W-NW 284 35,4 km/h (5 Bft)
10.01.2012 06:33 6,3 C 79 % 0,0 l/m 22,2 km/h (4 Bft) W-SW 243 33,8 km/h (5 Bft)
10.01.2012 06:34 6,3 C 80 % 0,0 l/m 14,0 km/h (3 Bft) W 276 25,7 km/h (4 Bft)
10.01.2012 06:35 6,3 C 80 % 0,0 l/m 18,6 km/h (3 Bft) W-SW 240 32,2 km/h (5 Bft)
10.01.2012 06:36 6,3 C 80 % 0,0 l/m 13,6 km/h (3 Bft) W-NW 294 25,7 km/h (4 Bft)
10.01.2012 06:37 6,3 C 80 % 0,0 l/m 16,0 km/h (3 Bft) SW 224 27,4 km/h (4 Bft)
10.01.2012 06:38 6,3 C 80 % 0,0 l/m 19,2 km/h (3 Bft) W-SW 243 25,7 km/h (4 Bft)
10.01.2012 06:39 6,3 C 80 % 0,0 l/m 19,1 km/h (3 Bft) W-SW 245 32,2 km/h (5 Bft)
10.01.2012 06:40 6,3 C 80 % 0,0 l/m 22,7 km/h (4 Bft) SW 224 37,0 km/h (5 Bft)
10.01.2012 06:41 6,3 C 80 % 0,0 l/m 16,3 km/h (3 Bft) W-SW 243 29,0 km/h (5 Bft)
10.01.2012 06:42 6,3 C 80 % 0,0 l/m 18,8 km/h (3 Bft) W-SW 256 32,2 km/h (5 Bft)
10.01.2012 06:43 6,2 C 80 % 0,0 l/m 17,7 km/h (3 Bft) W-NW 293 29,0 km/h (5 Bft)
10.01.2012 06:44 6,2 C 80 % 0,0 l/m 14,6 km/h (3 Bft) NW 313 20,9 km/h (4 Bft)
10.01.2012 06:45 6,2 C 80 % 0,0 l/m 12,0 km/h (2 Bft) SW 226 17,7 km/h (3 Bft)
10.01.2012 06:46 6,2 C 80 % 0,0 l/m 18,6 km/h (3 Bft) W-SW 242 32,2 km/h (5 Bft)
10.01.2012 06:47 6,2 C 80 % 0,0 l/m 18,5 km/h (3 Bft) N 9 27,4 km/h (4 Bft)
10.01.2012 06:48 6,2 C 80 % 0,0 l/m 16,4 km/h (3 Bft) W-SW 254 29,0 km/h (5 Bft)
10.01.2012 06:49 6,2 C 80 % 0,0 l/m 13,2 km/h (3 Bft) W 273 20,9 km/h (4 Bft)
10.01.2012 06:50 6,2 C 80 % 0,0 l/m 21,7 km/h (4 Bft) NW 308 33,8 km/h (5 Bft)
10.01.2012 06:51 6,2 C 79 % 0,0 l/m 15,5 km/h (3 Bft) W-SW 237 27,4 km/h (4 Bft)
10.01.2012 06:52 6,3 C 79 % 0,0 l/m 22,6 km/h (4 Bft) SW 215 32,2 km/h (5 Bft)
10.01.2012 06:53 6,3 C 79 % 0,0 l/m 20,5 km/h (4 Bft) SW 217 29,0 km/h (5 Bft)
10.01.2012 06:54 6,3 C 79 % 0,0 l/m 22,5 km/h (4 Bft) W 274 45,1 km/h (6 Bft)
10.01.2012 06:55 6,3 C 79 % 0,0 l/m 18,3 km/h (3 Bft) W 280 32,2 km/h (5 Bft)
10.01.2012 06:56 6,3 C 79 % 0,0 l/m 15,5 km/h (3 Bft) NO 49 30,6 km/h (5 Bft)
10.01.2012 06:57 6,3 C 79 % 0,0 l/m 26,7 km/h (4 Bft) W-NW 293 45,1 km/h (6 Bft)
10.01.2012 06:58 6,3 C 78 % 0,0 l/m 20,2 km/h (4 Bft) W-SW 240 29,0 km/h (5 Bft)
10.01.2012 06:59 6,4 C 78 % 0,0 l/m 20,4 km/h (4 Bft) W-SW 249 40,2 km/h (6 Bft)
10.01.2012 07:00 6,4 C 78 % 0,0 l/m 15,3 km/h (3 Bft) N-NO 31 20,9 km/h (4 Bft)
10.01.2012 07:01 6,4 C 78 % 0,0 l/m 19,6 km/h (3 Bft) S-SO 155 38,6 km/h (5 Bft)
10.01.2012 07:02 6,4 C 78 % 0,0 l/m 22,2 km/h (4 Bft) SW 225 38,6 km/h (5 Bft)
10.01.2012 07:03 6,4 C 78 % 0,0 l/m 19,3 km/h (3 Bft) N-NW 329 35,4 km/h (5 Bft)
10.01.2012 07:04 6,4 C 77 % 0,0 l/m 16,9 km/h (3 Bft) W-SW 256 32,2 km/h (5 Bft)
10.01.2012 07:05 6,4 C 78 % 0,0 l/m 19,6 km/h (3 Bft) NW 312 43,5 km/h (6 Bft)
10.01.2012 07:06 6,4 C 77 % 0,0 l/m 24,2 km/h (4 Bft) W-SW 245 37,0 km/h (5 Bft)
10.01.2012 07:07 6,4 C 77 % 0,0 l/m 19,2 km/h (3 Bft) W 269 24,1 km/h (4 Bft)
10.01.2012 07:08 6,5 C 77 % 0,0 l/m 22,5 km/h (4 Bft) NW 312 40,2 km/h (6 Bft)
10.01.2012 07:09 6,5 C 77 % 0,0 l/m 22,5 km/h (4 Bft) S-SW 204 40,2 km/h (6 Bft)
10.01.2012 07:10 6,5 C 77 % 0,0 l/m 24,0 km/h (4 Bft) W 281 37,0 km/h (5 Bft)
10.01.2012 07:11 6,5 C 77 % 0,0 l/m 23,3 km/h (4 Bft) NW 313 45,1 km/h (6 Bft)
10.01.2012 07:12 6,6 C 76 % 0,0 l/m 25,5 km/h (4 Bft) W-NW 289 56,3 km/h (7 Bft)
10.01.2012 07:13 6,6 C 76 % 0,0 l/m 25,6 km/h (4 Bft) N 6 49,9 km/h (6 Bft)
10.01.2012 07:14 6,6 C 77 % 0,0 l/m 24,4 km/h (4 Bft) W-NW 295 40,2 km/h (6 Bft)
10.01.2012 07:15 6,6 C 76 % 0,0 l/m 31,1 km/h (5 Bft) W-SW 255 46,7 km/h (6 Bft)
10.01.2012 07:16 6,6 C 77 % 0,0 l/m 17,6 km/h (3 Bft) W 269 24,1 km/h (4 Bft)
10.01.2012 07:17 6,6 C 76 % 0,0 l/m 31,0 km/h (5 Bft) NW 325 45,1 km/h (6 Bft)
10.01.2012 07:18 6,6 C 77 % 0,0 l/m 20,6 km/h (4 Bft) N-NW 343 41,8 km/h (6 Bft)
10.01.2012 07:19 6,6 C 77 % 0,0 l/m 20,5 km/h (4 Bft) W 277 46,7 km/h (6 Bft)
10.01.2012 07:20 6,6 C 77 % 0,0 l/m 30,0 km/h (5 Bft) W-SW 245 49,9 km/h (6 Bft)
10.01.2012 07:21 6,6 C 77 % 0,0 l/m 22,0 km/h (4 Bft) O 96 51,5 km/h (7 Bft)
10.01.2012 07:22 6,6 C 77 % 0,0 l/m 27,4 km/h (4 Bft) W 263 41,8 km/h (6 Bft)
10.01.2012 07:23 6,6 C 77 % 0,0 l/m 31,4 km/h (5 Bft) N-NW 328 49,9 km/h (6 Bft)
10.01.2012 07:24 6,6 C 77 % 0,0 l/m 24,3 km/h (4 Bft) W 269 53,1 km/h (7 Bft)
10.01.2012 07:25 6,6 C 77 % 0,0 l/m 26,1 km/h (4 Bft) W 270 43,5 km/h (6 Bft)
10.01.2012 07:26 6,6 C 77 % 0,0 l/m 23,4 km/h (4 Bft) SW 225 46,7 km/h (6 Bft)
10.01.2012 07:27 6,6 C 77 % 0,0 l/m 22,0 km/h (4 Bft) W-NW 301 41,8 km/h (6 Bft)
10.01.2012 07:28 6,6 C 77 % 0,0 l/m 25,9 km/h (4 Bft) N-NO 19 41,8 km/h (6 Bft)
10.01.2012 07:29 6,6 C 77 % 0,0 l/m 21,9 km/h (4 Bft) SW 235 33,8 km/h (5 Bft)
10.01.2012 07:30 6,5 C 78 % 0,0 l/m 14,4 km/h (3 Bft) W-NW 284 25,7 km/h (4 Bft)
10.01.2012 07:31 6,5 C 78 % 0,0 l/m 19,2 km/h (3 Bft) W-NW 291 35,4 km/h (5 Bft)
10.01.2012 07:32 6,4 C 78 % 0,0 l/m 17,2 km/h (3 Bft) S 179 29,0 km/h (5 Bft)
10.01.2012 07:33 6,4 C 78 % 0,0 l/m 18,8 km/h (3 Bft) W 277 27,4 km/h (4 Bft)
10.01.2012 07:34 6,4 C 78 % 0,0 l/m 26,1 km/h (4 Bft) W 269 48,3 km/h (6 Bft)
10.01.2012 07:35 6,4 C 78 % 0,0 l/m 15,2 km/h (3 Bft) W-SW 245 24,1 km/h (4 Bft)
10.01.2012 07:36 6,4 C 79 % 0,0 l/m 18,7 km/h (3 Bft) W-NW 301 37,0 km/h (5 Bft)
10.01.2012 07:37 6,3 C 79 % 0,0 l/m 23,9 km/h (4 Bft) W-NW 297 37,0 km/h (5 Bft)
10.01.2012 07:38 6,3 C 80 % 0,0 l/m 17,5 km/h (3 Bft) SW 215 27,4 km/h (4 Bft)
10.01.2012 07:39 6,3 C 80 % 0,0 l/m 20,4 km/h (4 Bft) NW 318 30,6 km/h (5 Bft)
10.01.2012 07:40 6,2 C 81 % 0,0 l/m 15,0 km/h (3 Bft) N 358 29,0 km/h (5 Bft)
10.01.2012 07:41 6,2 C 80 % 0,0 l/m 24,1 km/h (4 Bft) W-NW 294 40,2 km/h (6 Bft)
10.01.2012 07:42 6,2 C 80 % 0,0 l/m 18,9 km/h (3 Bft) NW 317 30,6 km/h (5 Bft)
10.01.2012 07:43 6,2 C 80 % 0,0 l/m 18,4 km/h (3 Bft) W 281 33,8 km/h (5 Bft)
10.01.2012 07:44 6,2 C 81 % 0,0 l/m 16,8 km/h (3 Bft) W 281 29,0 km/h (5 Bft)
10.01.2012 07:45 6,2 C 80 % 0,0 l/m 23,2 km/h (4 Bft) W-SW 245 38,6 km/h (5 Bft)
10.01.2012 07:46 6,2 C 80 % 0,0 l/m 17,4 km/h (3 Bft) N 360 29,0 km/h (5 Bft)
10.01.2012 07:47 6,2 C 80 % 0,0 l/m 20,9 km/h (4 Bft) W-SW 239 32,2 km/h (5 Bft)
10.01.2012 07:48 6,2 C 80 % 0,0 l/m 18,6 km/h (3 Bft) W 262 32,2 km/h (5 Bft)
10.01.2012 07:49 6,2 C 80 % 0,0 l/m 32,4 km/h (5 Bft) W-NW 297 46,7 km/h (6 Bft)
10.01.2012 07:50 6,3 C 79 % 0,0 l/m 35,1 km/h (5 Bft) W-NW 293 56,3 km/h (7 Bft)
10.01.2012 07:51 6,3 C 79 % 0,0 l/m 28,7 km/h (4 Bft) W-SW 255 70,8 km/h (8 Bft)
10.01.2012 07:52 6,3 C 79 % 0,0 l/m 30,2 km/h (5 Bft) W-NW 288 40,2 km/h (6 Bft)
10.01.2012 07:53 6,3 C 80 % 0,0 l/m 27,1 km/h (4 Bft) W 266 41,8 km/h (6 Bft)
10.01.2012 07:54 6,3 C 80 % 0,0 l/m 38,6 km/h (5 Bft) W-NW 301 56,3 km/h (7 Bft)
10.01.2012 07:55 6,3 C 80 % 0,0 l/m 27,6 km/h (4 Bft) NW 325 51,5 km/h (7 Bft)
10.01.2012 07:56 6,3 C 81 % 0,0 l/m 20,2 km/h (4 Bft) S-SW 210 38,6 km/h (5 Bft)
10.01.2012 07:57 6,3 C 81 % 0,0 l/m 15,0 km/h (3 Bft) W-NW 300 24,1 km/h (4 Bft)
10.01.2012 07:58 6,2 C 81 % 0,0 l/m 11,6 km/h (2 Bft) W-NW 301 19,3 km/h (3 Bft)
10.01.2012 07:59 6,2 C 81 % 0,0 l/m 21,8 km/h (4 Bft) N-NW 343 38,6 km/h (5 Bft)
10.01.2012 08:00 6,2 C 81 % 0,0 l/m 25,6 km/h (4 Bft) S-SO 164 35,4 km/h (5 Bft)
10.01.2012 08:01 6,2 C 81 % 0,0 l/m 19,1 km/h (3 Bft) N-NW 330 33,8 km/h (5 Bft)
10.01.2012 08:02 6,2 C 82 % 0,0 l/m 28,5 km/h (4 Bft) W-NW 295 38,6 km/h (5 Bft)
10.01.2012 08:03 6,1 C 82 % 0,0 l/m 19,0 km/h (3 Bft) W-NW 300 32,2 km/h (5 Bft)
10.01.2012 08:04 6,1 C 82 % 0,0 l/m 22,1 km/h (4 Bft) W 280 43,5 km/h (6 Bft)
10.01.2012 08:05 6,1 C 82 % 0,0 l/m 20,2 km/h (4 Bft) W-SW 243 43,5 km/h (6 Bft)
10.01.2012 08:06 6,1 C 83 % 0,0 l/m 22,8 km/h (4 Bft) W 260 35,4 km/h (5 Bft)
10.01.2012 08:07 6,1 C 83 % 0,0 l/m 25,6 km/h (4 Bft) W-SW 252 38,6 km/h (5 Bft)
10.01.2012 08:08 6,1 C 82 % 0,0 l/m 34,0 km/h (5 Bft) W 271 49,9 km/h (6 Bft)
10.01.2012 08:09 6,0 C 82 % 0,0 l/m 25,2 km/h (4 Bft) NO 50 37,0 km/h (5 Bft)
10.01.2012 08:10 6,0 C 82 % 0,0 l/m 22,5 km/h (4 Bft) NW 314 35,4 km/h (5 Bft)
10.01.2012 08:11 6,0 C 83 % 0,0 l/m 19,8 km/h (3 Bft) W 278 35,4 km/h (5 Bft)
10.01.2012 08:12 6,0 C 83 % 0,0 l/m 17,4 km/h (3 Bft) W 271 29,0 km/h (5 Bft)
10.01.2012 08:13 5,9 C 83 % 0,0 l/m 21,8 km/h (4 Bft) W 273 35,4 km/h (5 Bft)
10.01.2012 08:14 5,9 C 83 % 0,0 l/m 19,6 km/h (3 Bft) N-NO 20 32,2 km/h (5 Bft)
10.01.2012 08:15 5,9 C 83 % 0,0 l/m 21,1 km/h (4 Bft) W-NW 301 35,4 km/h (5 Bft)
10.01.2012 08:16 5,9 C 84 % 0,0 l/m 18,1 km/h (3 Bft) W 273 30,6 km/h (5 Bft)
10.01.2012 08:17 5,9 C 84 % 0,0 l/m 23,0 km/h (4 Bft) W-NW 295 32,2 km/h (5 Bft)
10.01.2012 08:18 5,8 C 84 % 0,0 l/m 19,4 km/h (3 Bft) W-NW 297 38,6 km/h (5 Bft)
10.01.2012 08:19 5,8 C 85 % 0,0 l/m 19,7 km/h (3 Bft) W 281 27,4 km/h (4 Bft)
10.01.2012 08:20 5,8 C 85 % 0,0 l/m 17,0 km/h (3 Bft) SW 215 37,0 km/h (5 Bft)
10.01.2012 08:21 5,7 C 85 % 0,2 l/m 17,7 km/h (3 Bft) W 280 35,4 km/h (5 Bft)
10.01.2012 08:22 5,6 C 85 % 0,0 l/m 34,6 km/h (5 Bft) NW 323 48,3 km/h (6 Bft)
10.01.2012 08:23 5,6 C 86 % 0,2 l/m 21,5 km/h (4 Bft) N-NW 341 41,8 km/h (6 Bft)
10.01.2012 08:24 5,4 C 86 % 0,0 l/m 23,2 km/h (4 Bft) W 263 40,2 km/h (6 Bft)
10.01.2012 08:25 5,3 C 87 % 0,0 l/m 21,7 km/h (4 Bft) NW 309 40,2 km/h (6 Bft)
10.01.2012 08:26 5,3 C 87 % 0,2 l/m 24,3 km/h (4 Bft) NW 304 45,1 km/h (6 Bft)
10.01.2012 08:27 5,2 C 87 % 0,0 l/m 25,9 km/h (4 Bft) W 274 40,2 km/h (6 Bft)
10.01.2012 08:28 5,1 C 87 % 0,0 l/m 26,5 km/h (4 Bft) W-NW 300 45,1 km/h (6 Bft)
10.01.2012 08:29 5,0 C 87 % 0,0 l/m 32,0 km/h (5 Bft) SW 217 51,5 km/h (7 Bft)
10.01.2012 08:30 4,9 C 88 % 0,0 l/m 21,5 km/h (4 Bft) W-NW 289 43,5 km/h (6 Bft)
10.01.2012 08:31 4,9 C 87 % 0,0 l/m 34,4 km/h (5 Bft) W-NW 290 48,3 km/h (6 Bft)
10.01.2012 08:32 4,8 C 88 % 0,0 l/m 25,9 km/h (4 Bft) N 360 43,5 km/h (6 Bft)
10.01.2012 08:33 4,7 C 88 % 0,2 l/m 23,9 km/h (4 Bft) SW 232 45,1 km/h (6 Bft)
10.01.2012 08:34 4,6 C 89 % 0,0 l/m 18,7 km/h (3 Bft) NW 319 37,0 km/h (5 Bft)
10.01.2012 08:35 4,6 C 89 % 0,2 l/m 32,9 km/h (5 Bft) W-SW 239 61,2 km/h (7 Bft)
10.01.2012 08:36 4,6 C 89 % 0,0 l/m 27,6 km/h (4 Bft) W 269 41,8 km/h (6 Bft)
10.01.2012 08:37 4,5 C 89 % 0,0 l/m 25,9 km/h (4 Bft) NW 316 45,1 km/h (6 Bft)
10.01.2012 08:38 4,5 C 90 % 0,2 l/m 30,3 km/h (5 Bft) N 4 59,5 km/h (7 Bft)
10.01.2012 08:39 4,5 C 90 % 0,0 l/m 27,7 km/h (4 Bft) SW 226 38,6 km/h (5 Bft)
10.01.2012 08:40 4,4 C 91 % 0,0 l/m 23,7 km/h (4 Bft) NW 308 35,4 km/h (5 Bft)
10.01.2012 08:41 4,4 C 91 % 0,0 l/m 15,1 km/h (3 Bft) W-NW 301 25,7 km/h (4 Bft)
10.01.2012 08:42 4,3 C 91 % 0,2 l/m 19,6 km/h (3 Bft) NW 308 32,2 km/h (5 Bft)
10.01.2012 08:43 4,3 C 91 % 0,0 l/m 18,7 km/h (3 Bft) NW 308 30,6 km/h (5 Bft)
10.01.2012 08:44 4,2 C 90 % 0,0 l/m 24,3 km/h (4 Bft) W 260 43,5 km/h (6 Bft)
10.01.2012 08:45 4,2 C 90 % 0,0 l/m 22,0 km/h (4 Bft) NO 38 41,8 km/h (6 Bft)
10.01.2012 08:46 4,2 C 89 % 0,0 l/m 28,8 km/h (4 Bft) NW 318 41,8 km/h (6 Bft)
10.01.2012 08:47 4,2 C 89 % 0,0 l/m 15,1 km/h (3 Bft) W 259 24,1 km/h (4 Bft)
10.01.2012 08:48 4,2 C 89 % 0,0 l/m 13,5 km/h (3 Bft) S-SW 211 32,2 km/h (5 Bft)
10.01.2012 08:49 4,2 C 89 % 0,0 l/m 9,7 km/h (2 Bft) SW 226 19,3 km/h (3 Bft)
10.01.2012 08:50 4,2 C 89 % 0,0 l/m 17,7 km/h (3 Bft) N-NW 342 29,0 km/h (5 Bft)
10.01.2012 08:51 4,2 C 89 % 0,0 l/m 12,5 km/h (3 Bft) W-SW 246 19,3 km/h (3 Bft)
10.01.2012 08:52 4,2 C 89 % 0,0 l/m 7,2 km/h (2 Bft) W 273 12,9 km/h (3 Bft)
10.01.2012 08:53 4,1 C 89 % 0,0 l/m 8,5 km/h (2 Bft) NW 308 16,1 km/h (3 Bft)
10.01.2012 08:54 4,2 C 89 % 0,0 l/m 15,0 km/h (3 Bft) W 277 27,4 km/h (4 Bft)
10.01.2012 08:55 4,2 C 89 % 0,0 l/m 16,4 km/h (3 Bft) W-NW 287 25,7 km/h (4 Bft)
10.01.2012 08:56 4,2 C 88 % 0,0 l/m 23,7 km/h (4 Bft) N 349 37,0 km/h (5 Bft)
10.01.2012 08:57 4,2 C 88 % 0,0 l/m 15,2 km/h (3 Bft) W-NW 283 37,0 km/h (5 Bft)
10.01.2012 08:58 4,3 C 88 % 0,0 l/m 17,0 km/h (3 Bft) W-NW 298 24,1 km/h (4 Bft)
10.01.2012 08:59 4,3 C 88 % 0,0 l/m 15,0 km/h (3 Bft) W-SW 255 24,1 km/h (4 Bft)
10.01.2012 09:00 4,3 C 88 % 0,0 l/m 13,1 km/h (3 Bft) NW 317 22,5 km/h (4 Bft)
10.01.2012 09:01 4,3 C 88 % 0,0 l/m 13,9 km/h (3 Bft) NW 308 22,5 km/h (4 Bft)
10.01.2012 09:02 4,3 C 88 % 0,0 l/m 9,7 km/h (2 Bft) W-NW 288 20,9 km/h (4 Bft)
10.01.2012 09:03 4,3 C 88 % 0,0 l/m 15,8 km/h (3 Bft) SW 219 24,1 km/h (4 Bft)
10.01.2012 09:04 4,4 C 88 % 0,0 l/m 8,9 km/h (2 Bft) W-NW 298 17,7 km/h (3 Bft)
10.01.2012 09:05 4,4 C 88 % 0,0 l/m 12,8 km/h (3 Bft) W-NW 297 22,5 km/h (4 Bft)
10.01.2012 09:06 4,4 C 87 % 0,0 l/m 14,0 km/h (3 Bft) W-NW 291 22,5 km/h (4 Bft)
10.01.2012 09:07 4,4 C 87 % 0,0 l/m 15,9 km/h (3 Bft) NW 310 27,4 km/h (4 Bft)
10.01.2012 09:08 4,4 C 87 % 0,0 l/m 12,1 km/h (2 Bft) W 276 19,3 km/h (3 Bft)
10.01.2012 09:09 4,4 C 87 % 0,0 l/m 12,6 km/h (3 Bft) W 277 20,9 km/h (4 Bft)
10.01.2012 09:10 4,5 C 87 % 0,0 l/m 15,9 km/h (3 Bft) W-NW 300 20,9 km/h (4 Bft)
10.01.2012 09:11 4,5 C 87 % 0,0 l/m 9,8 km/h (2 Bft) W-SW 245 20,9 km/h (4 Bft)
10.01.2012 09:12 4,5 C 87 % 0,0 l/m 11,0 km/h (2 Bft) W-SW 250 16,1 km/h (3 Bft)
10.01.2012 09:13 4,5 C 87 % 0,0 l/m 10,2 km/h (2 Bft) W 278 22,5 km/h (4 Bft)
10.01.2012 09:14 4,5 C 87 % 0,0 l/m 10,0 km/h (2 Bft) W-SW 242 17,7 km/h (3 Bft)
10.01.2012 09:15 4,5 C 87 % 0,0 l/m 4,4 km/h (1 Bft) W 269 8,0 km/h (2 Bft)
10.01.2012 09:16 4,5 C 88 % 0,0 l/m 9,7 km/h (2 Bft) NW 317 19,3 km/h (3 Bft)
10.01.2012 09:17 4,5 C 88 % 0,0 l/m 11,6 km/h (2 Bft) SW 222 19,3 km/h (3 Bft)
10.01.2012 09:18 4,5 C 88 % 0,0 l/m 10,8 km/h (2 Bft) W-SW 243 16,1 km/h (3 Bft)
10.01.2012 09:19 4,5 C 88 % 0,0 l/m 6,2 km/h (2 Bft) W 278 17,7 km/h (3 Bft)
10.01.2012 09:20 4,5 C 88 % 0,0 l/m 10,7 km/h (2 Bft) NW 304 19,3 km/h (3 Bft)
10.01.2012 09:21 4,4 C 88 % 0,0 l/m 8,0 km/h (2 Bft) NW 323 11,3 km/h (2 Bft)
10.01.2012 09:22 4,5 C 88 % 0,0 l/m 7,2 km/h (2 Bft) W-SW 255 16,1 km/h (3 Bft)
10.01.2012 09:23 4,5 C 88 % 0,0 l/m 6,0 km/h (2 Bft) W-NW 283 9,7 km/h (2 Bft)
10.01.2012 09:24 4,4 C 88 % 0,0 l/m 10,0 km/h (2 Bft) W-SW 252 17,7 km/h (3 Bft)
10.01.2012 09:25 4,4 C 88 % 0,0 l/m 12,7 km/h (3 Bft) NW 319 17,7 km/h (3 Bft)
10.01.2012 09:26 4,5 C 88 % 0,0 l/m 6,0 km/h (2 Bft) N-NO 15 11,3 km/h (2 Bft)
10.01.2012 09:27 4,5 C 88 % 0,0 l/m 3,5 km/h (1 Bft) O-NO 77 6,4 km/h (2 Bft)
10.01.2012 09:28 4,5 C 89 % 0,0 l/m 6,3 km/h (2 Bft) W-NW 298 11,3 km/h (2 Bft)
10.01.2012 09:29 4,5 C 89 % 0,0 l/m 6,8 km/h (2 Bft) W-SW 243 9,7 km/h (2 Bft)
10.01.2012 09:30 4,5 C 89 % 0,0 l/m 3,8 km/h (1 Bft) W-NW 293 9,7 km/h (2 Bft)
10.01.2012 09:31 4,5 C 89 % 0,0 l/m 13,1 km/h (3 Bft) W 281 17,7 km/h (3 Bft)
10.01.2012 09:32 4,5 C 89 % 0,0 l/m 6,3 km/h (2 Bft) W-NW 300 12,9 km/h (3 Bft)
10.01.2012 09:33 4,6 C 89 % 0,0 l/m 10,1 km/h (2 Bft) SW 235 17,7 km/h (3 Bft)
10.01.2012 09:34 4,6 C 89 % 0,0 l/m 8,2 km/h (2 Bft) W-SW 252 19,3 km/h (3 Bft)
10.01.2012 09:35 4,6 C 88 % 0,0 l/m 4,5 km/h (1 Bft) NW 313 8,0 km/h (2 Bft)
10.01.2012 09:36 4,6 C 89 % 0,0 l/m 5,2 km/h (1 Bft) W-SW 253 9,7 km/h (2 Bft)
10.01.2012 09:37 4,6 C 88 % 0,0 l/m 7,2 km/h (2 Bft) W-NW 300 11,3 km/h (2 Bft)
10.01.2012 09:38 4,6 C 88 % 0,0 l/m 9,3 km/h (2 Bft) W 271 16,1 km/h (3 Bft)
10.01.2012 09:39 4,7 C 88 % 0,0 l/m 7,6 km/h (2 Bft) W-SW 250 14,5 km/h (3 Bft)
10.01.2012 09:40 4,7 C 88 % 0,0 l/m 8,3 km/h (2 Bft) N 360 11,3 km/h (2 Bft)
10.01.2012 09:41 4,7 C 88 % 0,0 l/m 11,4 km/h (2 Bft) W 274 22,5 km/h (4 Bft)
10.01.2012 09:42 4,7 C 88 % 0,0 l/m 5,6 km/h (1 Bft) W-NW 297 9,7 km/h (2 Bft)
10.01.2012 09:43 4,8 C 88 % 0,0 l/m 11,3 km/h (2 Bft) W-NW 295 16,1 km/h (3 Bft)
10.01.2012 09:44 4,8 C 87 % 0,0 l/m 6,2 km/h (2 Bft) N-NW 336 9,7 km/h (2 Bft)
10.01.2012 09:45 4,8 C 88 % 0,0 l/m 6,8 km/h (2 Bft) N 11 12,9 km/h (3 Bft)
10.01.2012 09:46 4,9 C 87 % 0,0 l/m 14,6 km/h (3 Bft) W-NW 295 20,9 km/h (4 Bft)
10.01.2012 09:47 4,9 C 86 % 0,0 l/m 11,6 km/h (2 Bft) W-SW 245 20,9 km/h (4 Bft)
10.01.2012 09:48 5,0 C 86 % 0,0 l/m 5,0 km/h (1 Bft) W-SW 240 14,5 km/h (3 Bft)
10.01.2012 09:49 5,1 C 86 % 0,0 l/m 8,4 km/h (2 Bft) NW 307 16,1 km/h (3 Bft)
10.01.2012 09:50 5,1 C 85 % 0,0 l/m 18,4 km/h (3 Bft) NW 310 35,4 km/h (5 Bft)
10.01.2012 09:51 5,2 C 84 % 0,0 l/m 16,9 km/h (3 Bft) W-NW 284 27,4 km/h (4 Bft)
10.01.2012 09:52 5,3 C 84 % 0,0 l/m 20,8 km/h (4 Bft) W 270 25,7 km/h (4 Bft)
10.01.2012 09:53 5,3 C 84 % 0,0 l/m 11,5 km/h (2 Bft) S-SW 201 25,7 km/h (4 Bft)
10.01.2012 09:54 5,4 C 84 % 0,0 l/m 11,2 km/h (2 Bft) W 266 19,3 km/h (3 Bft)
10.01.2012 09:55 5,4 C 84 % 0,0 l/m 17,0 km/h (3 Bft) W-SW 253 25,7 km/h (4 Bft)
10.01.2012 09:56 5,5 C 83 % 0,0 l/m 16,9 km/h (3 Bft) N-NW 335 32,2 km/h (5 Bft)
10.01.2012 09:57 5,5 C 83 % 0,0 l/m 18,0 km/h (3 Bft) S-SW 209 24,1 km/h (4 Bft)
10.01.2012 09:58 5,6 C 82 % 0,0 l/m 16,4 km/h (3 Bft) NW 308 30,6 km/h (5 Bft)
10.01.2012 09:59 5,6 C 82 % 0,0 l/m 11,7 km/h (2 Bft) NW 307 19,3 km/h (3 Bft)
10.01.2012 10:00 5,7 C 82 % 0,0 l/m 12,0 km/h (2 Bft) W 266 17,7 km/h (3 Bft)
10.01.2012 10:01 5,7 C 82 % 0,0 l/m 12,1 km/h (2 Bft) W 273 25,7 km/h (4 Bft)
10.01.2012 10:02 5,7 C 82 % 0,0 l/m 12,4 km/h (3 Bft) W 274 25,7 km/h (4 Bft)
10.01.2012 10:03 5,7 C 82 % 0,0 l/m 13,4 km/h (3 Bft) W-NW 288 22,5 km/h (4 Bft)
10.01.2012 10:04 5,8 C 82 % 0,0 l/m 16,5 km/h (3 Bft) N-NW 332 30,6 km/h (5 Bft)
10.01.2012 10:05 5,8 C 82 % 0,0 l/m 13,7 km/h (3 Bft) W 273 25,7 km/h (4 Bft)
10.01.2012 10:06 5,8 C 81 % 0,0 l/m 6,6 km/h (2 Bft) W-NW 283 14,5 km/h (3 Bft)
10.01.2012 10:07 5,9 C 82 % 0,0 l/m 8,9 km/h (2 Bft) W-NW 297 17,7 km/h (3 Bft)
10.01.2012 10:08 5,9 C 81 % 0,0 l/m 14,3 km/h (3 Bft) W-NW 294 25,7 km/h (4 Bft)
10.01.2012 10:09 5,9 C 80 % 0,0 l/m 23,6 km/h (4 Bft) NW 315 40,2 km/h (6 Bft)
10.01.2012 10:10 5,9 C 80 % 0,0 l/m 19,3 km/h (3 Bft) W 274 25,7 km/h (4 Bft)
10.01.2012 10:11 5,9 C 80 % 0,0 l/m 14,9 km/h (3 Bft) NW 325 32,2 km/h (5 Bft)
10.01.2012 10:12 6,0 C 80 % 0,0 l/m 14,7 km/h (3 Bft) W-SW 242 25,7 km/h (4 Bft)
10.01.2012 10:13 6,0 C 80 % 0,0 l/m 13,6 km/h (3 Bft) W-NW 290 25,7 km/h (4 Bft)
10.01.2012 10:14 6,1 C 79 % 0,0 l/m 18,0 km/h (3 Bft) W-NW 284 27,4 km/h (4 Bft)
10.01.2012 10:15 6,1 C 80 % 0,0 l/m 13,8 km/h (3 Bft) NW 309 27,4 km/h (4 Bft)
10.01.2012 10:16 6,1 C 79 % 0,0 l/m 14,9 km/h (3 Bft) W-NW 295 25,7 km/h (4 Bft)
10.01.2012 10:17 6,1 C 79 % 0,0 l/m 18,9 km/h (3 Bft) W-NW 285 37,0 km/h (5 Bft)
10.01.2012 10:18 6,1 C 78 % 0,0 l/m 28,3 km/h (4 Bft) W-NW 290 38,6 km/h (5 Bft)
10.01.2012 10:19 6,1 C 78 % 0,0 l/m 20,9 km/h (4 Bft) W-NW 290 27,4 km/h (4 Bft)
10.01.2012 10:20 6,1 C 78 % 0,0 l/m 19,7 km/h (3 Bft) NW 305 35,4 km/h (5 Bft)
10.01.2012 10:21 6,1 C 78 % 0,0 l/m 18,7 km/h (3 Bft) N 1 29,0 km/h (5 Bft)
10.01.2012 10:22 6,1 C 78 % 0,0 l/m 16,1 km/h (3 Bft) W-NW 284 35,4 km/h (5 Bft)
10.01.2012 10:23 6,1 C 77 % 0,0 l/m 28,2 km/h (4 Bft) W-NW 297 43,5 km/h (6 Bft)
10.01.2012 10:24 6,1 C 77 % 0,0 l/m 20,4 km/h (4 Bft) W-NW 293 37,0 km/h (5 Bft)
10.01.2012 10:25 6,1 C 78 % 0,0 l/m 16,1 km/h (3 Bft) N 353 27,4 km/h (4 Bft)
10.01.2012 10:26 6,1 C 77 % 0,0 l/m 22,5 km/h (4 Bft) W-NW 293 32,2 km/h (5 Bft)
10.01.2012 10:27 6,1 C 78 % 0,0 l/m 14,3 km/h (3 Bft) NW 322 25,7 km/h (4 Bft)
10.01.2012 10:28 6,1 C 78 % 0,0 l/m 23,7 km/h (4 Bft) W-SW 252 38,6 km/h (5 Bft)
10.01.2012 10:29 6,1 C 78 % 0,0 l/m 16,6 km/h (3 Bft) W-NW 298 25,7 km/h (4 Bft)
10.01.2012 10:30 6,0 C 78 % 0,0 l/m 24,7 km/h (4 Bft) W 274 37,0 km/h (5 Bft)
10.01.2012 10:31 6,0 C 78 % 0,0 l/m 15,4 km/h (3 Bft) N-NW 329 24,1 km/h (4 Bft)
10.01.2012 10:32 6,0 C 78 % 0,0 l/m 22,9 km/h (4 Bft) N-NW 340 41,8 km/h (6 Bft)
10.01.2012 10:33 6,0 C 78 % 0,0 l/m 16,3 km/h (3 Bft) SO 143 27,4 km/h (4 Bft)
10.01.2012 10:34 6,1 C 78 % 0,0 l/m 26,1 km/h (4 Bft) NW 314 38,6 km/h (5 Bft)
10.01.2012 10:35 6,1 C 77 % 0,0 l/m 27,0 km/h (4 Bft) S-SW 201 35,4 km/h (5 Bft)
10.01.2012 10:36 6,1 C 77 % 0,0 l/m 22,5 km/h (4 Bft) W 264 27,4 km/h (4 Bft)
10.01.2012 10:37 6,2 C 78 % 0,0 l/m 21,6 km/h (4 Bft) W-NW 297 35,4 km/h (5 Bft)
10.01.2012 10:38 6,2 C 78 % 0,0 l/m 21,7 km/h (4 Bft) NW 312 32,2 km/h (5 Bft)
10.01.2012 10:39 6,3 C 78 % 0,0 l/m 16,3 km/h (3 Bft) W-NW 294 25,7 km/h (4 Bft)
10.01.2012 10:40 6,4 C 77 % 0,0 l/m 20,1 km/h (4 Bft) W-NW 300 33,8 km/h (5 Bft)
10.01.2012 10:41 6,4 C 76 % 0,0 l/m 19,2 km/h (3 Bft) W 281 33,8 km/h (5 Bft)
10.01.2012 10:42 6,4 C 76 % 0,0 l/m 27,4 km/h (4 Bft) NW 309 41,8 km/h (6 Bft)
10.01.2012 10:43 6,4 C 76 % 0,0 l/m 16,6 km/h (3 Bft) W-NW 298 33,8 km/h (5 Bft)
10.01.2012 10:44 6,4 C 76 % 0,0 l/m 17,5 km/h (3 Bft) N-NW 333 35,4 km/h (5 Bft)
10.01.2012 10:45 6,4 C 76 % 0,0 l/m 17,9 km/h (3 Bft) N-NW 330 27,4 km/h (4 Bft)
10.01.2012 10:46 6,4 C 76 % 0,0 l/m 19,0 km/h (3 Bft) W 274 37,0 km/h (5 Bft)
10.01.2012 10:47 6,4 C 76 % 0,0 l/m 21,4 km/h (4 Bft) W-NW 300 35,4 km/h (5 Bft)
10.01.2012 10:48 6,4 C 76 % 0,0 l/m 16,2 km/h (3 Bft) W-NW 300 29,0 km/h (5 Bft)
10.01.2012 10:49 6,4 C 76 % 0,0 l/m 20,7 km/h (4 Bft) W-SW 240 32,2 km/h (5 Bft)
10.01.2012 10:50 6,4 C 75 % 0,0 l/m 21,4 km/h (4 Bft) W-NW 302 35,4 km/h (5 Bft)
10.01.2012 10:51 6,4 C 75 % 0,0 l/m 21,0 km/h (4 Bft) NW 305 35,4 km/h (5 Bft)
10.01.2012 10:52 6,4 C 76 % 0,0 l/m 18,3 km/h (3 Bft) W-NW 301 30,6 km/h (5 Bft)
10.01.2012 10:53 6,4 C 76 % 0,0 l/m 20,8 km/h (4 Bft) W 274 30,6 km/h (5 Bft)
10.01.2012 10:54 6,5 C 76 % 0,0 l/m 24,1 km/h (4 Bft) W-NW 289 33,8 km/h (5 Bft)
10.01.2012 10:55 6,5 C 75 % 0,0 l/m 27,1 km/h (4 Bft) NW 305 41,8 km/h (6 Bft)
10.01.2012 10:56 6,6 C 74 % 0,0 l/m 31,8 km/h (5 Bft) W-NW 285 46,7 km/h (6 Bft)
10.01.2012 10:57 6,6 C 74 % 0,0 l/m 32,9 km/h (5 Bft) W-NW 300 51,5 km/h (7 Bft)
10.01.2012 10:58 6,6 C 74 % 0,0 l/m 31,2 km/h (5 Bft) W 263 53,1 km/h (7 Bft)
10.01.2012 10:59 6,6 C 74 % 0,0 l/m 24,6 km/h (4 Bft) W-NW 300 35,4 km/h (5 Bft)
10.01.2012 11:00 6,6 C 73 % 0,0 l/m 33,0 km/h (5 Bft) W-SW 255 49,9 km/h (6 Bft)
10.01.2012 11:01 6,6 C 74 % 0,0 l/m 27,3 km/h (4 Bft) W-NW 288 40,2 km/h (6 Bft)
10.01.2012 11:02 6,6 C 73 % 0,0 l/m 27,4 km/h (4 Bft) SW 218 40,2 km/h (6 Bft)
10.01.2012 11:03 6,6 C 73 % 0,0 l/m 26,6 km/h (4 Bft) N-NW 330 35,4 km/h (5 Bft)
10.01.2012 11:04 6,6 C 73 % 0,0 l/m 28,4 km/h (4 Bft) W 277 40,2 km/h (6 Bft)
10.01.2012 11:05 6,6 C 73 % 0,0 l/m 23,6 km/h (4 Bft) NW 311 32,2 km/h (5 Bft)
10.01.2012 11:06 6,6 C 74 % 0,0 l/m 25,5 km/h (4 Bft) N-NW 345 37,0 km/h (5 Bft)
10.01.2012 11:07 6,6 C 74 % 0,0 l/m 24,6 km/h (4 Bft) W-NW 290 41,8 km/h (6 Bft)
10.01.2012 11:08 6,6 C 74 % 0,0 l/m 27,2 km/h (4 Bft) W-NW 295 37,0 km/h (5 Bft)
10.01.2012 11:09 6,6 C 74 % 0,0 l/m 20,4 km/h (4 Bft) NW 309 30,6 km/h (5 Bft)
10.01.2012 11:10 6,6 C 74 % 0,0 l/m 21,5 km/h (4 Bft) W 266 29,0 km/h (5 Bft)
10.01.2012 11:11 6,6 C 74 % 0,0 l/m 19,8 km/h (3 Bft) W 277 25,7 km/h (4 Bft)
10.01.2012 11:12 6,5 C 74 % 0,0 l/m 24,7 km/h (4 Bft) W-NW 288 37,0 km/h (5 Bft)
10.01.2012 11:13 6,6 C 73 % 0,0 l/m 27,4 km/h (4 Bft) N-NW 335 40,2 km/h (6 Bft)
10.01.2012 11:14 6,5 C 73 % 0,0 l/m 25,4 km/h (4 Bft) W-NW 300 38,6 km/h (5 Bft)
10.01.2012 11:15 6,5 C 73 % 0,0 l/m 24,9 km/h (4 Bft) NW 322 46,7 km/h (6 Bft)
10.01.2012 11:16 6,5 C 72 % 0,0 l/m 28,6 km/h (4 Bft) W-NW 295 41,8 km/h (6 Bft)
10.01.2012 11:17 6,5 C 73 % 0,0 l/m 23,7 km/h (4 Bft) W-NW 302 32,2 km/h (5 Bft)
10.01.2012 11:18 6,6 C 72 % 0,0 l/m 26,6 km/h (4 Bft) W 260 38,6 km/h (5 Bft)
10.01.2012 11:19 6,6 C 72 % 0,0 l/m 35,5 km/h (5 Bft) W-NW 295 57,9 km/h (7 Bft)
10.01.2012 11:20 6,6 C 71 % 0,0 l/m 29,5 km/h (5 Bft) NW 312 38,6 km/h (5 Bft)
10.01.2012 11:21 6,6 C 71 % 0,0 l/m 32,0 km/h (5 Bft) W-NW 290 41,8 km/h (6 Bft)
10.01.2012 11:22 6,5 C 72 % 0,0 l/m 21,7 km/h (4 Bft) W-NW 301 37,0 km/h (5 Bft)
10.01.2012 11:23 6,6 C 72 % 0,0 l/m 29,2 km/h (5 Bft) N-NW 341 40,2 km/h (6 Bft)
10.01.2012 11:24 6,5 C 72 % 0,0 l/m 29,8 km/h (5 Bft) W-SW 241 43,5 km/h (6 Bft)
10.01.2012 11:25 6,5 C 73 % 0,0 l/m 22,3 km/h (4 Bft) W-NW 298 33,8 km/h (5 Bft)
10.01.2012 11:26 6,5 C 72 % 0,0 l/m 25,3 km/h (4 Bft) W 276 45,1 km/h (6 Bft)
10.01.2012 11:27 6,5 C 72 % 0,0 l/m 21,6 km/h (4 Bft) W-NW 295 30,6 km/h (5 Bft)
10.01.2012 11:28 6,6 C 72 % 0,0 l/m 19,7 km/h (3 Bft) W-NW 287 32,2 km/h (5 Bft)
10.01.2012 11:29 6,5 C 72 % 0,0 l/m 19,2 km/h (3 Bft) W-NW 300 33,8 km/h (5 Bft)
10.01.2012 11:30 6,5 C 73 % 0,0 l/m 26,0 km/h (4 Bft) NW 307 41,8 km/h (6 Bft)
10.01.2012 11:31 6,5 C 73 % 0,0 l/m 16,0 km/h (3 Bft) SW 233 25,7 km/h (4 Bft)
10.01.2012 11:32 6,5 C 73 % 0,0 l/m 22,4 km/h (4 Bft) W-NW 289 41,8 km/h (6 Bft)
10.01.2012 11:33 6,5 C 72 % 0,0 l/m 25,4 km/h (4 Bft) W 277 40,2 km/h (6 Bft)
10.01.2012 11:34 6,5 C 72 % 0,0 l/m 23,1 km/h (4 Bft) W-NW 295 33,8 km/h (5 Bft)
10.01.2012 11:35 6,5 C 73 % 0,0 l/m 18,5 km/h (3 Bft) W 280 37,0 km/h (5 Bft)
10.01.2012 11:36 6,5 C 73 % 0,0 l/m 24,8 km/h (4 Bft) W-NW 288 37,0 km/h (5 Bft)
10.01.2012 11:37 6,5 C 72 % 0,0 l/m 24,6 km/h (4 Bft) W-NW 284 32,2 km/h (5 Bft)
10.01.2012 11:38 6,4 C 73 % 0,0 l/m 19,7 km/h (3 Bft) W-NW 294 33,8 km/h (5 Bft)
10.01.2012 11:39 6,4 C 73 % 0,0 l/m 18,8 km/h (3 Bft) W-NW 282 25,7 km/h (4 Bft)
10.01.2012 11:40 6,4 C 71 % 0,0 l/m 29,2 km/h (5 Bft) W-NW 300 40,2 km/h (6 Bft)
10.01.2012 11:41 6,4 C 71 % 0,0 l/m 29,7 km/h (5 Bft) S-SW 207 43,5 km/h (6 Bft)
10.01.2012 11:42 6,4 C 71 % 0,0 l/m 34,7 km/h (5 Bft) W-NW 293 51,5 km/h (7 Bft)
10.01.2012 11:43 6,4 C 72 % 0,0 l/m 26,8 km/h (4 Bft) NW 315 41,8 km/h (6 Bft)
10.01.2012 11:44 6,4 C 72 % 0,0 l/m 18,7 km/h (3 Bft) N-NO 16 29,0 km/h (5 Bft)
10.01.2012 11:45 6,4 C 72 % 0,0 l/m 20,7 km/h (4 Bft) NW 311 38,6 km/h (5 Bft)
10.01.2012 11:46 6,4 C 72 % 0,0 l/m 14,4 km/h (3 Bft) W-NW 301 25,7 km/h (4 Bft)
10.01.2012 11:47 6,4 C 73 % 0,0 l/m 12,4 km/h (3 Bft) W 269 27,4 km/h (4 Bft)
10.01.2012 11:48 6,4 C 73 % 0,0 l/m 22,7 km/h (4 Bft) W-NW 302 32,2 km/h (5 Bft)
10.01.2012 11:49 6,4 C 72 % 0,0 l/m 23,5 km/h (4 Bft) W-NW 301 29,0 km/h (5 Bft)
10.01.2012 11:50 6,4 C 72 % 0,0 l/m 32,3 km/h (5 Bft) NW 305 54,7 km/h (7 Bft)
10.01.2012 11:51 6,4 C 71 % 0,0 l/m 26,8 km/h (4 Bft) W-NW 291 38,6 km/h (5 Bft)
10.01.2012 11:52 6,5 C 71 % 0,0 l/m 26,4 km/h (4 Bft) W-SW 248 45,1 km/h (6 Bft)
10.01.2012 11:53 6,5 C 71 % 0,0 l/m 22,9 km/h (4 Bft) NW 323 35,4 km/h (5 Bft)
10.01.2012 11:54 6,5 C 71 % 0,0 l/m 22,9 km/h (4 Bft) NW 310 41,8 km/h (6 Bft)
10.01.2012 11:55 6,5 C 71 % 0,0 l/m 26,8 km/h (4 Bft) NW 318 40,2 km/h (6 Bft)
10.01.2012 11:56 6,5 C 71 % 0,0 l/m 27,7 km/h (4 Bft) N-NW 333 41,8 km/h (6 Bft)
10.01.2012 11:57 6,5 C 71 % 0,0 l/m 27,4 km/h (4 Bft) W-SW 256 40,2 km/h (6 Bft)
10.01.2012 11:58 6,5 C 72 % 0,0 l/m 17,3 km/h (3 Bft) NW 325 29,0 km/h (5 Bft)
10.01.2012 11:59 6,6 C 72 % 0,0 l/m 21,6 km/h (4 Bft) W-NW 301 30,6 km/h (5 Bft)
10.01.2012 12:00 6,6 C 71 % 0,0 l/m 23,3 km/h (4 Bft) W-SW 253 35,4 km/h (5 Bft)
10.01.2012 12:01 6,6 C 72 % 0,0 l/m 17,9 km/h (3 Bft) W-NW 285 25,7 km/h (4 Bft)
10.01.2012 12:02 6,6 C 72 % 0,0 l/m 16,9 km/h (3 Bft) NW 321 30,6 km/h (5 Bft)
10.01.2012 12:03 6,6 C 72 % 0,0 l/m 35,1 km/h (5 Bft) W-NW 302 43,5 km/h (6 Bft)
10.01.2012 12:04 6,6 C 71 % 0,0 l/m 28,3 km/h (4 Bft) W-NW 295 41,8 km/h (6 Bft)
10.01.2012 12:05 6,6 C 71 % 0,0 l/m 32,3 km/h (5 Bft) W 281 49,9 km/h (6 Bft)
10.01.2012 12:06 6,6 C 70 % 0,0 l/m 28,2 km/h (4 Bft) W-NW 282 40,2 km/h (6 Bft)
10.01.2012 12:07 6,6 C 71 % 0,0 l/m 27,2 km/h (4 Bft) W-NW 301 41,8 km/h (6 Bft)
10.01.2012 12:08 6,6 C 71 % 0,0 l/m 17,1 km/h (3 Bft) NW 305 19,3 km/h (3 Bft)
10.01.2012 12:09 6,6 C 71 % 0,0 l/m 21,0 km/h (4 Bft) SW 226 35,4 km/h (5 Bft)
10.01.2012 12:10 6,6 C 71 % 0,0 l/m 29,6 km/h (5 Bft) N-NO 29 43,5 km/h (6 Bft)
10.01.2012 12:11 6,6 C 71 % 0,0 l/m 23,1 km/h (4 Bft) W-NW 289 37,0 km/h (5 Bft)
10.01.2012 12:12 6,7 C 71 % 0,0 l/m 23,3 km/h (4 Bft) W-NW 295 38,6 km/h (5 Bft)
10.01.2012 12:13 6,7 C 70 % 0,0 l/m 26,1 km/h (4 Bft) NW 318 33,8 km/h (5 Bft)
10.01.2012 12:14 6,7 C 70 % 0,0 l/m 22,8 km/h (4 Bft) NW 312 40,2 km/h (6 Bft)
10.01.2012 12:15 6,7 C 70 % 0,0 l/m 17,5 km/h (3 Bft) NW 305 32,2 km/h (5 Bft)
10.01.2012 12:16 6,7 C 70 % 0,0 l/m 26,7 km/h (4 Bft) W-NW 294 41,8 km/h (6 Bft)
10.01.2012 12:17 6,7 C 70 % 0,0 l/m 23,5 km/h (4 Bft) N-NO 23 32,2 km/h (5 Bft)
10.01.2012 12:18 6,6 C 71 % 0,0 l/m 17,5 km/h (3 Bft) NW 308 29,0 km/h (5 Bft)
10.01.2012 12:19 6,6 C 71 % 0,0 l/m 22,1 km/h (4 Bft) W-NW 301 30,6 km/h (5 Bft)
10.01.2012 12:20 6,6 C 71 % 0,0 l/m 17,0 km/h (3 Bft) W 276 30,6 km/h (5 Bft)
10.01.2012 12:21 6,6 C 71 % 0,0 l/m 19,0 km/h (3 Bft) W-NW 288 30,6 km/h (5 Bft)
10.01.2012 12:22 6,6 C 71 % 0,0 l/m 21,8 km/h (4 Bft) NW 312 35,4 km/h (5 Bft)
10.01.2012 12:23 6,6 C 71 % 0,0 l/m 25,7 km/h (4 Bft) W-NW 300 37,0 km/h (5 Bft)
10.01.2012 12:24 6,6 C 72 % 0,0 l/m 17,8 km/h (3 Bft) NW 325 29,0 km/h (5 Bft)
10.01.2012 12:25 6,6 C 72 % 0,0 l/m 23,1 km/h (4 Bft) W-NW 288 40,2 km/h (6 Bft)
10.01.2012 12:26 6,6 C 70 % 0,0 l/m 22,6 km/h (4 Bft) W 273 37,0 km/h (5 Bft)
10.01.2012 12:27 6,6 C 71 % 0,0 l/m 23,6 km/h (4 Bft) W 274 40,2 km/h (6 Bft)
10.01.2012 12:28 6,6 C 70 % 0,0 l/m 31,0 km/h (5 Bft) W-NW 291 45,1 km/h (6 Bft)
10.01.2012 12:29 6,6 C 70 % 0,0 l/m 27,4 km/h (4 Bft) W-SW 249 40,2 km/h (6 Bft)
10.01.2012 12:30 6,6 C 69 % 0,0 l/m 29,7 km/h (5 Bft) W-NW 300 41,8 km/h (6 Bft)
10.01.2012 12:31 6,6 C 71 % 0,0 l/m 24,4 km/h (4 Bft) NW 308 37,0 km/h (5 Bft)
10.01.2012 12:32 6,6 C 71 % 0,0 l/m 15,9 km/h (3 Bft) NW 326 25,7 km/h (4 Bft)
10.01.2012 12:33 6,6 C 71 % 0,0 l/m 11,5 km/h (2 Bft) W-NW 300 17,7 km/h (3 Bft)
10.01.2012 12:34 6,6 C 71 % 0,0 l/m 15,8 km/h (3 Bft) NW 319 25,7 km/h (4 Bft)
10.01.2012 12:35 6,6 C 71 % 0,0 l/m 25,0 km/h (4 Bft) NW 321 40,2 km/h (6 Bft)
10.01.2012 12:36 6,6 C 69 % 0,0 l/m 28,5 km/h (4 Bft) W-NW 287 43,5 km/h (6 Bft)
10.01.2012 12:37 6,6 C 69 % 0,0 l/m 24,3 km/h (4 Bft) W-NW 294 35,4 km/h (5 Bft)
10.01.2012 12:38 6,6 C 69 % 0,0 l/m 27,7 km/h (4 Bft) W-NW 295 33,8 km/h (5 Bft)
10.01.2012 12:39 6,6 C 68 % 0,0 l/m 25,9 km/h (4 Bft) W-NW 295 35,4 km/h (5 Bft)
10.01.2012 12:40 6,6 C 69 % 0,0 l/m 16,9 km/h (3 Bft) W-SW 248 27,4 km/h (4 Bft)
10.01.2012 12:41 6,6 C 70 % 0,0 l/m 14,9 km/h (3 Bft) N-NW 342 30,6 km/h (5 Bft)
10.01.2012 12:42 6,6 C 70 % 0,0 l/m 15,6 km/h (3 Bft) NW 318 30,6 km/h (5 Bft)
10.01.2012 12:43 6,6 C 70 % 0,0 l/m 16,5 km/h (3 Bft) W-NW 301 27,4 km/h (4 Bft)
10.01.2012 12:44 6,7 C 69 % 0,0 l/m 23,4 km/h (4 Bft) NW 305 33,8 km/h (5 Bft)
10.01.2012 12:45 6,7 C 69 % 0,0 l/m 14,8 km/h (3 Bft) W 260 22,5 km/h (4 Bft)
10.01.2012 12:46 6,7 C 69 % 0,0 l/m 17,3 km/h (3 Bft) W 267 27,4 km/h (4 Bft)
10.01.2012 12:47 6,7 C 70 % 0,0 l/m 25,1 km/h (4 Bft) NW 317 40,2 km/h (6 Bft)
10.01.2012 12:48 6,7 C 68 % 0,0 l/m 27,8 km/h (4 Bft) W-NW 297 43,5 km/h (6 Bft)
10.01.2012 12:49 6,7 C 68 % 0,0 l/m 27,6 km/h (4 Bft) W 276 37,0 km/h (5 Bft)
10.01.2012 12:50 6,7 C 68 % 0,0 l/m 16,5 km/h (3 Bft) NW 319 27,4 km/h (4 Bft)
10.01.2012 12:51 6,7 C 69 % 0,0 l/m 18,1 km/h (3 Bft) W-NW 287 38,6 km/h (5 Bft)
10.01.2012 12:52 6,7 C 69 % 0,0 l/m 22,3 km/h (4 Bft) N-NO 20 45,1 km/h (6 Bft)
10.01.2012 12:53 6,7 C 68 % 0,0 l/m 21,5 km/h (4 Bft) N-NO 23 30,6 km/h (5 Bft)
10.01.2012 12:54 6,7 C 69 % 0,0 l/m 24,2 km/h (4 Bft) NW 304 41,8 km/h (6 Bft)
10.01.2012 12:55 6,6 C 68 % 0,0 l/m 24,5 km/h (4 Bft) NW 312 37,0 km/h (5 Bft)
10.01.2012 12:56 6,6 C 69 % 0,0 l/m 15,7 km/h (3 Bft) NW 316 25,7 km/h (4 Bft)
10.01.2012 12:57 6,6 C 68 % 0,0 l/m 25,6 km/h (4 Bft) N 5 38,6 km/h (5 Bft)
10.01.2012 12:58 6,6 C 68 % 0,0 l/m 24,2 km/h (4 Bft) N-NW 337 33,8 km/h (5 Bft)
10.01.2012 12:59 6,6 C 68 % 0,0 l/m 20,0 km/h (4 Bft) NW 321 33,8 km/h (5 Bft)
10.01.2012 13:00 6,6 C 68 % 0,0 l/m 16,6 km/h (3 Bft) N-NO 32 25,7 km/h (4 Bft)
10.01.2012 13:01 6,6 C 68 % 0,0 l/m 32,7 km/h (5 Bft) NW 325 45,1 km/h (6 Bft)
10.01.2012 13:02 6,6 C 67 % 0,0 l/m 20,9 km/h (4 Bft) N-NW 341 30,6 km/h (5 Bft)
10.01.2012 13:03 6,6 C 68 % 0,0 l/m 18,4 km/h (3 Bft) W-NW 297 35,4 km/h (5 Bft)
10.01.2012 13:04 6,6 C 68 % 0,0 l/m 26,1 km/h (4 Bft) W-NW 300 35,4 km/h (5 Bft)
10.01.2012 13:05 6,5 C 68 % 0,0 l/m 17,1 km/h (3 Bft) NW 321 25,7 km/h (4 Bft)
10.01.2012 13:06 6,5 C 68 % 0,0 l/m 19,7 km/h (3 Bft) NW 316 32,2 km/h (5 Bft)
10.01.2012 13:07 6,5 C 68 % 0,0 l/m 23,0 km/h (4 Bft) NW 305 32,2 km/h (5 Bft)
10.01.2012 13:08 6,5 C 68 % 0,0 l/m 15,8 km/h (3 Bft) W 278 29,0 km/h (5 Bft)
10.01.2012 13:09 6,5 C 68 % 0,0 l/m 19,6 km/h (3 Bft) NO 51 33,8 km/h (5 Bft)
10.01.2012 13:10 6,5 C 69 % 0,0 l/m 10,8 km/h (2 Bft) W-NW 295 20,9 km/h (4 Bft)
10.01.2012 13:11 6,4 C 69 % 0,0 l/m 18,3 km/h (3 Bft) N-NO 23 25,7 km/h (4 Bft)
10.01.2012 13:12 6,4 C 69 % 0,0 l/m 18,4 km/h (3 Bft) W-NW 297 27,4 km/h (4 Bft)
10.01.2012 13:13 6,4 C 68 % 0,0 l/m 22,2 km/h (4 Bft) N-NW 345 29,0 km/h (5 Bft)
10.01.2012 13:14 6,4 C 68 % 0,0 l/m 22,5 km/h (4 Bft) W-NW 287 33,8 km/h (5 Bft)
10.01.2012 13:15 6,4 C 68 % 0,0 l/m 18,6 km/h (3 Bft) N 4 35,4 km/h (5 Bft)
10.01.2012 13:16 6,4 C 68 % 0,0 l/m 18,1 km/h (3 Bft) NO 37 35,4 km/h (5 Bft)
10.01.2012 13:17 6,4 C 69 % 0,0 l/m 13,9 km/h (3 Bft) W-NW 295 22,5 km/h (4 Bft)
10.01.2012 13:18 6,4 C 69 % 0,0 l/m 7,8 km/h (2 Bft) W-NW 295 17,7 km/h (3 Bft)
10.01.2012 13:19 6,4 C 69 % 0,0 l/m 17,1 km/h (3 Bft) NW 314 29,0 km/h (5 Bft)
10.01.2012 13:20 6,4 C 69 % 0,0 l/m 13,0 km/h (3 Bft) W-NW 285 17,7 km/h (3 Bft)
10.01.2012 13:21 6,4 C 69 % 0,0 l/m 13,9 km/h (3 Bft) W 273 24,1 km/h (4 Bft)
10.01.2012 13:22 6,3 C 69 % 0,0 l/m 9,9 km/h (2 Bft) NW 314 22,5 km/h (4 Bft)
10.01.2012 13:23 6,3 C 68 % 0,0 l/m 23,6 km/h (4 Bft) W-NW 283 41,8 km/h (6 Bft)
10.01.2012 13:24 6,3 C 68 % 0,0 l/m 19,9 km/h (4 Bft) W 266 37,0 km/h (5 Bft)
10.01.2012 13:25 6,3 C 68 % 0,0 l/m 16,1 km/h (3 Bft) W-NW 302 29,0 km/h (5 Bft)
10.01.2012 13:26 6,3 C 68 % 0,0 l/m 24,6 km/h (4 Bft) W-NW 295 38,6 km/h (5 Bft)
10.01.2012 13:27 6,3 C 67 % 0,0 l/m 26,4 km/h (4 Bft) N-NW 330 40,2 km/h (6 Bft)
10.01.2012 13:28 6,4 C 67 % 0,0 l/m 21,0 km/h (4 Bft) W-NW 300 37,0 km/h (5 Bft)
10.01.2012 13:29 6,4 C 68 % 0,0 l/m 17,6 km/h (3 Bft) W-NW 297 27,4 km/h (4 Bft)
10.01.2012 13:30 6,4 C 68 % 0,0 l/m 17,5 km/h (3 Bft) N 1 27,4 km/h (4 Bft)
10.01.2012 13:31 6,4 C 68 % 0,0 l/m 13,4 km/h (3 Bft) W-NW 300 20,9 km/h (4 Bft)
10.01.2012 13:32 6,4 C 67 % 0,0 l/m 20,8 km/h (4 Bft) W-NW 291 30,6 km/h (5 Bft)
10.01.2012 13:33 6,4 C 67 % 0,0 l/m 20,6 km/h (4 Bft) W 277 29,0 km/h (5 Bft)
10.01.2012 13:34 6,4 C 67 % 0,0 l/m 16,2 km/h (3 Bft) NW 304 27,4 km/h (4 Bft)
10.01.2012 13:35 6,4 C 67 % 0,0 l/m 17,4 km/h (3 Bft) NW 304 32,2 km/h (5 Bft)
10.01.2012 13:36 6,4 C 67 % 0,0 l/m 19,0 km/h (3 Bft) N-NW 333 30,6 km/h (5 Bft)
10.01.2012 13:37 6,4 C 66 % 0,0 l/m 27,7 km/h (4 Bft) NW 321 43,5 km/h (6 Bft)
10.01.2012 13:38 6,4 C 67 % 0,0 l/m 18,1 km/h (3 Bft) W 281 32,2 km/h (5 Bft)
10.01.2012 13:39 6,4 C 67 % 0,0 l/m 28,1 km/h (4 Bft) W-NW 298 38,6 km/h (5 Bft)
10.01.2012 13:40 6,4 C 67 % 0,0 l/m 23,7 km/h (4 Bft) N-NO 25 38,6 km/h (5 Bft)
10.01.2012 13:41 6,4 C 67 % 0,0 l/m 11,9 km/h (2 Bft) W 277 22,5 km/h (4 Bft)
10.01.2012 13:42 6,4 C 67 % 0,0 l/m 21,2 km/h (4 Bft) W-NW 297 29,0 km/h (5 Bft)
10.01.2012 13:43 6,4 C 68 % 0,0 l/m 20,2 km/h (4 Bft) N 349 30,6 km/h (5 Bft)
10.01.2012 13:44 6,4 C 68 % 0,0 l/m 19,8 km/h (3 Bft) W-NW 288 33,8 km/h (5 Bft)
10.01.2012 13:45 6,4 C 67 % 0,0 l/m 18,7 km/h (3 Bft) W 278 24,1 km/h (4 Bft)
10.01.2012 13:46 6,4 C 68 % 0,0 l/m 11,5 km/h (2 Bft) W 269 20,9 km/h (4 Bft)
10.01.2012 13:47 6,4 C 68 % 0,0 l/m 22,2 km/h (4 Bft) NW 307 35,4 km/h (5 Bft)
10.01.2012 13:48 6,4 C 67 % 0,0 l/m 24,1 km/h (4 Bft) W-NW 297 30,6 km/h (5 Bft)
10.01.2012 13:49 6,4 C 67 % 0,0 l/m 24,9 km/h (4 Bft) O-SO 122 37,0 km/h (5 Bft)
10.01.2012 13:50 6,4 C 67 % 0,0 l/m 22,8 km/h (4 Bft) W-NW 291 29,0 km/h (5 Bft)
10.01.2012 13:51 6,4 C 67 % 0,0 l/m 21,9 km/h (4 Bft) W 278 33,8 km/h (5 Bft)
10.01.2012 13:52 6,4 C 68 % 0,0 l/m 21,7 km/h (4 Bft) N-NW 328 32,2 km/h (5 Bft)
10.01.2012 13:53 6,4 C 67 % 0,0 l/m 15,9 km/h (3 Bft) NW 323 30,6 km/h (5 Bft)
10.01.2012 13:54 6,4 C 68 % 0,0 l/m 21,5 km/h (4 Bft) W-NW 301 30,6 km/h (5 Bft)
10.01.2012 13:55 6,4 C 68 % 0,0 l/m 18,9 km/h (3 Bft) N-NO 13 25,7 km/h (4 Bft)
10.01.2012 13:56 6,4 C 68 % 0,0 l/m 17,2 km/h (3 Bft) O-NO 68 35,4 km/h (5 Bft)
10.01.2012 13:57 6,4 C 67 % 0,0 l/m 18,7 km/h (3 Bft) N-NW 329 29,0 km/h (5 Bft)
10.01.2012 13:58 6,4 C 67 % 0,0 l/m 13,7 km/h (3 Bft) W-NW 282 20,9 km/h (4 Bft)
10.01.2012 13:59 6,4 C 67 % 0,0 l/m 23,9 km/h (4 Bft) NW 323 32,2 km/h (5 Bft)
10.01.2012 14:00 6,4 C 67 % 0,0 l/m 16,7 km/h (3 Bft) W-NW 300 27,4 km/h (4 Bft)
10.01.2012 14:01 6,4 C 68 % 0,0 l/m 21,8 km/h (4 Bft) NW 325 30,6 km/h (5 Bft)
10.01.2012 14:02 6,3 C 67 % 0,0 l/m 22,0 km/h (4 Bft) W-NW 295 32,2 km/h (5 Bft)
10.01.2012 14:03 6,3 C 67 % 0,0 l/m 23,5 km/h (4 Bft) W-NW 300 35,4 km/h (5 Bft)
10.01.2012 14:04 6,3 C 67 % 0,0 l/m 23,7 km/h (4 Bft) W-NW 298 32,2 km/h (5 Bft)
10.01.2012 14:05 6,3 C 67 % 0,0 l/m 19,2 km/h (3 Bft) NW 323 25,7 km/h (4 Bft)
10.01.2012 14:06 6,3 C 68 % 0,0 l/m 10,5 km/h (2 Bft) NW 312 17,7 km/h (3 Bft)
10.01.2012 14:07 6,3 C 67 % 0,0 l/m 22,4 km/h (4 Bft) W-NW 294 35,4 km/h (5 Bft)
10.01.2012 14:08 6,3 C 67 % 0,0 l/m 19,9 km/h (4 Bft) W-NW 299 30,6 km/h (5 Bft)
10.01.2012 14:09 6,3 C 68 % 0,0 l/m 19,2 km/h (3 Bft) W-NW 301 30,6 km/h (5 Bft)
10.01.2012 14:10 6,3 C 67 % 0,0 l/m 14,7 km/h (3 Bft) N-NW 335 24,1 km/h (4 Bft)
10.01.2012 14:11 6,3 C 68 % 0,0 l/m 8,7 km/h (2 Bft) NW 316 17,7 km/h (3 Bft)
10.01.2012 14:12 6,3 C 68 % 0,0 l/m 17,0 km/h (3 Bft) N-NW 335 27,4 km/h (4 Bft)
10.01.2012 14:13 6,3 C 68 % 0,0 l/m 20,4 km/h (4 Bft) O-SO 110 35,4 km/h (5 Bft)
10.01.2012 14:14 6,3 C 68 % 0,0 l/m 23,7 km/h (4 Bft) NW 305 32,2 km/h (5 Bft)
10.01.2012 14:15 6,3 C 68 % 0,0 l/m 25,1 km/h (4 Bft) W 271 51,5 km/h (7 Bft)
10.01.2012 14:16 6,3 C 67 % 0,0 l/m 36,7 km/h (5 Bft) W-NW 297 48,3 km/h (6 Bft)
10.01.2012 14:17 6,3 C 66 % 0,0 l/m 21,8 km/h (4 Bft) S-SW 193 41,8 km/h (6 Bft)
10.01.2012 14:18 6,3 C 67 % 0,0 l/m 16,6 km/h (3 Bft) NW 306 30,6 km/h (5 Bft)
10.01.2012 14:19 6,3 C 67 % 0,0 l/m 20,5 km/h (4 Bft) NW 325 37,0 km/h (5 Bft)
10.01.2012 14:20 6,3 C 67 % 0,0 l/m 18,2 km/h (3 Bft) NW 311 33,8 km/h (5 Bft)
10.01.2012 14:21 6,3 C 66 % 0,0 l/m 21,8 km/h (4 Bft) NW 322 27,4 km/h (4 Bft)
10.01.2012 14:22 6,3 C 67 % 0,0 l/m 20,3 km/h (4 Bft) N 353 29,0 km/h (5 Bft)
10.01.2012 14:23 6,2 C 68 % 0,0 l/m 14,1 km/h (3 Bft) NW 321 25,7 km/h (4 Bft)
10.01.2012 14:24 6,2 C 68 % 0,0 l/m 14,2 km/h (3 Bft) W 266 22,5 km/h (4 Bft)
10.01.2012 14:25 6,2 C 68 % 0,0 l/m 14,7 km/h (3 Bft) NW 307 33,8 km/h (5 Bft)
10.01.2012 14:26 6,2 C 67 % 0,0 l/m 23,7 km/h (4 Bft) W-NW 284 33,8 km/h (5 Bft)
10.01.2012 14:27 6,2 C 67 % 0,0 l/m 15,7 km/h (3 Bft) NW 312 29,0 km/h (5 Bft)
10.01.2012 14:28 6,2 C 67 % 0,0 l/m 27,0 km/h (4 Bft) W-NW 298 35,4 km/h (5 Bft)
10.01.2012 14:29 6,2 C 67 % 0,0 l/m 22,4 km/h (4 Bft) NW 312 30,6 km/h (5 Bft)
10.01.2012 14:30 6,2 C 67 % 0,0 l/m 27,2 km/h (4 Bft) NW 315 38,6 km/h (5 Bft)
10.01.2012 14:31 6,2 C 66 % 0,0 l/m 34,3 km/h (5 Bft) NW 317 46,7 km/h (6 Bft)
10.01.2012 14:32 6,2 C 67 % 0,0 l/m 22,5 km/h (4 Bft) N-NW 332 32,2 km/h (5 Bft)
10.01.2012 14:33 6,2 C 66 % 0,0 l/m 24,9 km/h (4 Bft) NW 315 37,0 km/h (5 Bft)
10.01.2012 14:34 6,1 C 67 % 0,0 l/m 19,4 km/h (3 Bft) W 273 29,0 km/h (5 Bft)
10.01.2012 14:35 6,1 C 67 % 0,0 l/m 20,8 km/h (4 Bft) N-NO 12 35,4 km/h (5 Bft)
10.01.2012 14:36 6,1 C 68 % 0,0 l/m 28,7 km/h (4 Bft) W 273 49,9 km/h (6 Bft)
10.01.2012 14:37 6,1 C 67 % 0,0 l/m 19,1 km/h (3 Bft) S 187 37,0 km/h (5 Bft)
10.01.2012 14:38 6,1 C 67 % 0,0 l/m 28,2 km/h (4 Bft) W 270 45,1 km/h (6 Bft)
10.01.2012 14:39 6,1 C 66 % 0,0 l/m 25,2 km/h (4 Bft) NW 325 40,2 km/h (6 Bft)
10.01.2012 14:40 6,1 C 66 % 0,0 l/m 29,0 km/h (5 Bft) NW 309 38,6 km/h (5 Bft)
10.01.2012 14:41 6,1 C 67 % 0,0 l/m 21,3 km/h (4 Bft) NW 305 35,4 km/h (5 Bft)
10.01.2012 14:42 6,1 C 67 % 0,0 l/m 20,5 km/h (4 Bft) W-NW 299 38,6 km/h (5 Bft)
10.01.2012 14:43 6,1 C 67 % 0,0 l/m 19,2 km/h (3 Bft) W 269 25,7 km/h (4 Bft)
10.01.2012 14:44 6,1 C 67 % 0,0 l/m 14,5 km/h (3 Bft) N 349 22,5 km/h (4 Bft)
10.01.2012 14:45 6,0 C 67 % 0,0 l/m 14,7 km/h (3 Bft) W-NW 293 27,4 km/h (4 Bft)
10.01.2012 14:46 6,1 C 67 % 0,0 l/m 22,7 km/h (4 Bft) W-NW 287 35,4 km/h (5 Bft)
10.01.2012 14:47 6,1 C 66 % 0,0 l/m 21,6 km/h (4 Bft) W-NW 295 37,0 km/h (5 Bft)
10.01.2012 14:48 6,1 C 67 % 0,0 l/m 17,2 km/h (3 Bft) W-NW 293 30,6 km/h (5 Bft)
10.01.2012 14:49 6,1 C 67 % 0,0 l/m 20,5 km/h (4 Bft) W 277 29,0 km/h (5 Bft)
10.01.2012 14:50 6,1 C 67 % 0,0 l/m 19,9 km/h (4 Bft) W 266 33,8 km/h (5 Bft)
10.01.2012 14:51 6,1 C 67 % 0,0 l/m 35,0 km/h (5 Bft) W-NW 288 43,5 km/h (6 Bft)
10.01.2012 14:52 6,1 C 66 % 0,0 l/m 31,5 km/h (5 Bft) W-NW 299 45,1 km/h (6 Bft)
10.01.2012 14:53 6,1 C 67 % 0,0 l/m 27,4 km/h (4 Bft) NO 37 41,8 km/h (6 Bft)
10.01.2012 14:54 6,1 C 67 % 0,0 l/m 16,3 km/h (3 Bft) W 276 27,4 km/h (4 Bft)
10.01.2012 14:55 6,1 C 67 % 0,0 l/m 26,2 km/h (4 Bft) NW 305 35,4 km/h (5 Bft)
10.01.2012 14:56 6,1 C 67 % 0,0 l/m 24,1 km/h (4 Bft) W-NW 300 37,0 km/h (5 Bft)
10.01.2012 14:57 6,1 C 67 % 0,0 l/m 24,9 km/h (4 Bft) W-NW 290 37,0 km/h (5 Bft)
10.01.2012 14:58 6,1 C 67 % 0,0 l/m 17,6 km/h (3 Bft) NW 312 32,2 km/h (5 Bft)
10.01.2012 14:59 6,1 C 67 % 0,0 l/m 18,8 km/h (3 Bft) W-SW 243 29,0 km/h (5 Bft)
10.01.2012 15:00 6,1 C 67 % 0,0 l/m 14,7 km/h (3 Bft) W-NW 297 25,7 km/h (4 Bft)
10.01.2012 15:01 6,1 C 67 % 0,0 l/m 22,3 km/h (4 Bft) NW 305 45,1 km/h (6 Bft)
10.01.2012 15:02 6,1 C 67 % 0,0 l/m 24,0 km/h (4 Bft) NW 319 32,2 km/h (5 Bft)
10.01.2012 15:03 6,1 C 68 % 0,0 l/m 21,2 km/h (4 Bft) W 273 27,4 km/h (4 Bft)
10.01.2012 15:04 6,1 C 68 % 0,0 l/m 18,8 km/h (3 Bft) NW 308 25,7 km/h (4 Bft)
10.01.2012 15:05 6,1 C 68 % 0,0 l/m 15,4 km/h (3 Bft) W-NW 301 33,8 km/h (5 Bft)
10.01.2012 15:06 6,1 C 67 % 0,0 l/m 22,1 km/h (4 Bft) W-NW 284 32,2 km/h (5 Bft)
10.01.2012 15:07 6,1 C 67 % 0,0 l/m 16,0 km/h (3 Bft) W-SW 239 25,7 km/h (4 Bft)
10.01.2012 15:08 6,2 C 67 % 0,0 l/m 14,8 km/h (3 Bft) W-NW 288 25,7 km/h (4 Bft)
10.01.2012 15:09 6,2 C 66 % 0,0 l/m 21,4 km/h (4 Bft) W 278 33,8 km/h (5 Bft)
10.01.2012 15:10 6,2 C 66 % 0,0 l/m 19,9 km/h (4 Bft) W-NW 284 38,6 km/h (5 Bft)
10.01.2012 15:11 6,2 C 66 % 0,0 l/m 19,8 km/h (3 Bft) W-NW 300 25,7 km/h (4 Bft)
10.01.2012 15:12 6,2 C 66 % 0,0 l/m 26,2 km/h (4 Bft) W-NW 287 32,2 km/h (5 Bft)
10.01.2012 15:13 6,2 C 66 % 0,0 l/m 19,3 km/h (3 Bft) NW 304 30,6 km/h (5 Bft)
10.01.2012 15:14 6,2 C 66 % 0,0 l/m 20,2 km/h (4 Bft) W-NW 302 32,2 km/h (5 Bft)
10.01.2012 15:15 6,2 C 66 % 0,0 l/m 16,8 km/h (3 Bft) W-NW 294 27,4 km/h (4 Bft)
10.01.2012 15:16 6,2 C 66 % 0,0 l/m 19,4 km/h (3 Bft) W 265 27,4 km/h (4 Bft)
10.01.2012 15:17 6,2 C 66 % 0,0 l/m 21,0 km/h (4 Bft) W-SW 248 40,2 km/h (6 Bft)
10.01.2012 15:18 6,2 C 65 % 0,0 l/m 23,2 km/h (4 Bft) SW 236 40,2 km/h (6 Bft)
10.01.2012 15:19 6,2 C 65 % 0,0 l/m 22,6 km/h (4 Bft) W 278 43,5 km/h (6 Bft)
10.01.2012 15:20 6,3 C 65 % 0,0 l/m 21,7 km/h (4 Bft) W-NW 300 29,0 km/h (5 Bft)
10.01.2012 15:21 6,2 C 66 % 0,0 l/m 19,7 km/h (3 Bft) N-NW 338 30,6 km/h (5 Bft)
10.01.2012 15:22 6,2 C 66 % 0,0 l/m 17,6 km/h (3 Bft) NW 313 29,0 km/h (5 Bft)
10.01.2012 15:23 6,2 C 66 % 0,0 l/m 25,0 km/h (4 Bft) W-NW 298 37,0 km/h (5 Bft)
10.01.2012 15:24 6,2 C 66 % 0,0 l/m 16,2 km/h (3 Bft) NW 306 29,0 km/h (5 Bft)
10.01.2012 15:25 6,2 C 66 % 0,0 l/m 18,0 km/h (3 Bft) W-NW 297 25,7 km/h (4 Bft)
10.01.2012 15:26 6,2 C 66 % 0,0 l/m 20,8 km/h (4 Bft) NW 306 27,4 km/h (4 Bft)
10.01.2012 15:27 6,2 C 66 % 0,0 l/m 17,8 km/h (3 Bft) W-SW 241 27,4 km/h (4 Bft)
10.01.2012 15:28 6,2 C 67 % 0,0 l/m 13,9 km/h (3 Bft) W 280 22,5 km/h (4 Bft)
10.01.2012 15:29 6,2 C 67 % 0,0 l/m 13,9 km/h (3 Bft) W-NW 283 20,9 km/h (4 Bft)
10.01.2012 15:30 6,2 C 67 % 0,0 l/m 15,6 km/h (3 Bft) NW 308 25,7 km/h (4 Bft)
10.01.2012 15:31 6,2 C 67 % 0,0 l/m 22,9 km/h (4 Bft) NW 315 29,0 km/h (5 Bft)
10.01.2012 15:32 6,2 C 66 % 0,0 l/m 24,1 km/h (4 Bft) W-NW 302 30,6 km/h (5 Bft)
10.01.2012 15:33 6,2 C 66 % 0,0 l/m 17,2 km/h (3 Bft) NW 305 24,1 km/h (4 Bft)
10.01.2012 15:34 6,2 C 66 % 0,0 l/m 27,2 km/h (4 Bft) NW 309 43,5 km/h (6 Bft)
10.01.2012 15:35 6,2 C 66 % 0,0 l/m 21,5 km/h (4 Bft) W 274 37,0 km/h (5 Bft)
10.01.2012 15:36 6,2 C 66 % 0,0 l/m 13,6 km/h (3 Bft) N-NW 336 24,1 km/h (4 Bft)
10.01.2012 15:37 6,2 C 66 % 0,0 l/m 20,8 km/h (4 Bft) NW 326 29,0 km/h (5 Bft)
10.01.2012 15:38 6,2 C 66 % 0,0 l/m 22,2 km/h (4 Bft) W-NW 298 30,6 km/h (5 Bft)
10.01.2012 15:39 6,2 C 66 % 0,0 l/m 18,9 km/h (3 Bft) S-SW 210 29,0 km/h (5 Bft)
10.01.2012 15:40 6,2 C 66 % 0,0 l/m 19,2 km/h (3 Bft) W-NW 297 29,0 km/h (5 Bft)
10.01.2012 15:41 6,2 C 66 % 0,0 l/m 17,2 km/h (3 Bft) NW 308 25,7 km/h (4 Bft)
10.01.2012 15:42 6,2 C 66 % 0,0 l/m 21,2 km/h (4 Bft) W-NW 295 33,8 km/h (5 Bft)
10.01.2012 15:43 6,2 C 66 % 0,0 l/m 24,2 km/h (4 Bft) W-NW 291 33,8 km/h (5 Bft)
10.01.2012 15:44 6,2 C 66 % 0,0 l/m 19,6 km/h (3 Bft) O-NO 58 29,0 km/h (5 Bft)
10.01.2012 15:45 6,2 C 66 % 0,0 l/m 18,6 km/h (3 Bft) NW 305 33,8 km/h (5 Bft)
10.01.2012 15:46 6,2 C 66 % 0,0 l/m 20,0 km/h (4 Bft) W 280 29,0 km/h (5 Bft)
10.01.2012 15:47 6,2 C 66 % 0,0 l/m 18,2 km/h (3 Bft) W 262 22,5 km/h (4 Bft)
10.01.2012 15:48 6,2 C 67 % 0,0 l/m 18,8 km/h (3 Bft) N-NO 29 30,6 km/h (5 Bft)
10.01.2012 15:49 6,2 C 66 % 0,0 l/m 25,5 km/h (4 Bft) W-NW 293 40,2 km/h (6 Bft)
10.01.2012 15:50 6,2 C 66 % 0,0 l/m 26,8 km/h (4 Bft) W-NW 291 38,6 km/h (5 Bft)
10.01.2012 15:51 6,2 C 66 % 0,0 l/m 24,0 km/h (4 Bft) NW 304 33,8 km/h (5 Bft)
10.01.2012 15:52 6,2 C 65 % 0,0 l/m 21,6 km/h (4 Bft) S-SW 197 37,0 km/h (5 Bft)
10.01.2012 15:53 6,2 C 66 % 0,0 l/m 23,2 km/h (4 Bft) W-SW 252 41,8 km/h (6 Bft)
10.01.2012 15:54 6,3 C 65 % 0,0 l/m 30,0 km/h (5 Bft) W-NW 291 43,5 km/h (6 Bft)
10.01.2012 15:55 6,3 C 65 % 0,0 l/m 25,3 km/h (4 Bft) NW 308 41,8 km/h (6 Bft)
10.01.2012 15:56 6,3 C 65 % 0,0 l/m 21,5 km/h (4 Bft) SO 131 35,4 km/h (5 Bft)
10.01.2012 15:57 6,3 C 65 % 0,0 l/m 15,7 km/h (3 Bft) NW 314 35,4 km/h (5 Bft)
10.01.2012 15:58 6,3 C 65 % 0,0 l/m 21,6 km/h (4 Bft) W 280 37,0 km/h (5 Bft)
10.01.2012 15:59 6,3 C 65 % 0,0 l/m 27,6 km/h (4 Bft) NW 304 38,6 km/h (5 Bft)
10.01.2012 16:00 6,3 C 65 % 0,0 l/m 14,5 km/h (3 Bft) NW 308 29,0 km/h (5 Bft)
10.01.2012 16:01 6,3 C 65 % 0,0 l/m 20,3 km/h (4 Bft) W-NW 296 27,4 km/h (4 Bft)
10.01.2012 16:02 6,3 C 66 % 0,0 l/m 16,0 km/h (3 Bft) W 267 25,7 km/h (4 Bft)
10.01.2012 16:03 6,3 C 66 % 0,0 l/m 20,6 km/h (4 Bft) W-NW 283 30,6 km/h (5 Bft)
10.01.2012 16:04 6,2 C 65 % 0,0 l/m 22,6 km/h (4 Bft) W-NW 300 35,4 km/h (5 Bft)
10.01.2012 16:05 6,3 C 65 % 0,0 l/m 20,2 km/h (4 Bft) W-NW 294 29,0 km/h (5 Bft)
10.01.2012 16:06 6,2 C 66 % 0,0 l/m 16,9 km/h (3 Bft) W-NW 293 22,5 km/h (4 Bft)
10.01.2012 16:07 6,2 C 66 % 0,0 l/m 20,1 km/h (4 Bft) NW 309 33,8 km/h (5 Bft)
10.01.2012 16:08 6,2 C 66 % 0,0 l/m 16,6 km/h (3 Bft) W-NW 296 27,4 km/h (4 Bft)
10.01.2012 16:09 6,2 C 66 % 0,0 l/m 11,4 km/h (2 Bft) W-SW 248 29,0 km/h (5 Bft)
10.01.2012 16:10 6,2 C 66 % 0,0 l/m 16,6 km/h (3 Bft) NW 321 27,4 km/h (4 Bft)
10.01.2012 16:11 6,2 C 65 % 0,0 l/m 24,2 km/h (4 Bft) NW 305 41,8 km/h (6 Bft)
10.01.2012 16:12 6,2 C 66 % 0,0 l/m 17,1 km/h (3 Bft) N-NW 332 30,6 km/h (5 Bft)
10.01.2012 16:13 6,2 C 66 % 0,0 l/m 26,8 km/h (4 Bft) NW 322 40,2 km/h (6 Bft)
10.01.2012 16:14 6,2 C 65 % 0,0 l/m 26,0 km/h (4 Bft) W-NW 297 40,2 km/h (6 Bft)
10.01.2012 16:15 6,2 C 65 % 0,0 l/m 22,9 km/h (4 Bft) W 277 35,4 km/h (5 Bft)
10.01.2012 16:16 6,2 C 66 % 0,0 l/m 17,2 km/h (3 Bft) W-NW 283 25,7 km/h (4 Bft)
10.01.2012 16:17 6,2 C 66 % 0,0 l/m 16,7 km/h (3 Bft) W 280 25,7 km/h (4 Bft)
10.01.2012 16:18 6,2 C 66 % 0,0 l/m 16,2 km/h (3 Bft) W 270 22,5 km/h (4 Bft)
10.01.2012 16:19 6,2 C 66 % 0,0 l/m 20,9 km/h (4 Bft) W-NW 288 30,6 km/h (5 Bft)
10.01.2012 16:20 6,2 C 66 % 0,0 l/m 19,6 km/h (3 Bft) W-NW 302 27,4 km/h (4 Bft)
10.01.2012 16:21 6,2 C 65 % 0,0 l/m 20,5 km/h (4 Bft) N 349 29,0 km/h (5 Bft)
10.01.2012 16:22 6,2 C 66 % 0,0 l/m 22,3 km/h (4 Bft) W-NW 290 32,2 km/h (5 Bft)
10.01.2012 16:23 6,2 C 65 % 0,0 l/m 27,2 km/h (4 Bft) N-NO 19 37,0 km/h (5 Bft)
10.01.2012 16:24 6,3 C 65 % 0,0 l/m 19,3 km/h (3 Bft) W-NW 290 30,6 km/h (5 Bft)
10.01.2012 16:25 6,3 C 65 % 0,0 l/m 15,3 km/h (3 Bft) O-NO 64 30,6 km/h (5 Bft)
10.01.2012 16:26 6,2 C 65 % 0,0 l/m 23,2 km/h (4 Bft) W 271 29,0 km/h (5 Bft)
10.01.2012 16:27 6,2 C 65 % 0,0 l/m 17,8 km/h (3 Bft) W 276 25,7 km/h (4 Bft)
10.01.2012 16:28 6,2 C 65 % 0,0 l/m 20,4 km/h (4 Bft) W-NW 297 33,8 km/h (5 Bft)
10.01.2012 16:29 6,2 C 65 % 0,0 l/m 24,9 km/h (4 Bft) W 281 37,0 km/h (5 Bft)
10.01.2012 16:30 6,3 C 65 % 0,0 l/m 18,6 km/h (3 Bft) W-NW 297 30,6 km/h (5 Bft)
10.01.2012 16:31 6,3 C 64 % 0,0 l/m 25,2 km/h (4 Bft) W-NW 290 32,2 km/h (5 Bft)
10.01.2012 16:32 6,3 C 65 % 0,0 l/m 14,3 km/h (3 Bft) NO 42 29,0 km/h (5 Bft)
10.01.2012 16:33 6,3 C 65 % 0,0 l/m 11,9 km/h (2 Bft) W-NW 298 24,1 km/h (4 Bft)
10.01.2012 16:34 6,3 C 65 % 0,0 l/m 16,2 km/h (3 Bft) NW 313 22,5 km/h (4 Bft)
10.01.2012 16:35 6,2 C 66 % 0,0 l/m 12,9 km/h (3 Bft) W 259 19,3 km/h (3 Bft)
10.01.2012 16:36 6,2 C 65 % 0,0 l/m 10,4 km/h (2 Bft) W 281 16,1 km/h (3 Bft)
10.01.2012 16:37 6,2 C 65 % 0,0 l/m 15,4 km/h (3 Bft) NW 326 20,9 km/h (4 Bft)
10.01.2012 16:38 6,2 C 66 % 0,0 l/m 13,5 km/h (3 Bft) NW 307 22,5 km/h (4 Bft)
10.01.2012 16:39 6,2 C 66 % 0,0 l/m 14,6 km/h (3 Bft) NW 309 22,5 km/h (4 Bft)
10.01.2012 16:40 6,2 C 66 % 0,0 l/m 22,5 km/h (4 Bft) NW 316 32,2 km/h (5 Bft)
10.01.2012 16:41 6,2 C 66 % 0,0 l/m 18,6 km/h (3 Bft) NW 312 32,2 km/h (5 Bft)
10.01.2012 16:42 6,2 C 66 % 0,0 l/m 18,7 km/h (3 Bft) W-NW 295 25,7 km/h (4 Bft)
10.01.2012 16:43 6,2 C 66 % 0,0 l/m 17,3 km/h (3 Bft) W-NW 302 24,1 km/h (4 Bft)
10.01.2012 16:44 6,2 C 66 % 0,0 l/m 17,2 km/h (3 Bft) NW 305 24,1 km/h (4 Bft)
10.01.2012 16:45 6,2 C 66 % 0,0 l/m 18,2 km/h (3 Bft) W-NW 288 24,1 km/h (4 Bft)
10.01.2012 16:46 6,2 C 66 % 0,0 l/m 22,3 km/h (4 Bft) W-SW 248 38,6 km/h (5 Bft)
10.01.2012 16:47 6,2 C 65 % 0,0 l/m 22,1 km/h (4 Bft) W-SW 237 30,6 km/h (5 Bft)
10.01.2012 16:48 6,2 C 65 % 0,0 l/m 25,2 km/h (4 Bft) W 278 38,6 km/h (5 Bft)
10.01.2012 16:49 6,2 C 66 % 0,0 l/m 15,7 km/h (3 Bft) O-SO 121 30,6 km/h (5 Bft)
10.01.2012 16:50 6,2 C 65 % 0,0 l/m 21,9 km/h (4 Bft) W-NW 294 30,6 km/h (5 Bft)
10.01.2012 16:51 6,2 C 65 % 0,0 l/m 21,2 km/h (4 Bft) W-NW 287 30,6 km/h (5 Bft)
10.01.2012 16:52 6,2 C 65 % 0,0 l/m 21,8 km/h (4 Bft) NW 304 33,8 km/h (5 Bft)
10.01.2012 16:53 6,2 C 66 % 0,0 l/m 17,3 km/h (3 Bft) W-SW 257 29,0 km/h (5 Bft)
10.01.2012 16:54 6,2 C 65 % 0,0 l/m 17,5 km/h (3 Bft) N-NW 332 27,4 km/h (4 Bft)
10.01.2012 16:55 6,2 C 65 % 0,0 l/m 11,2 km/h (2 Bft) N 9 19,3 km/h (3 Bft)
10.01.2012 16:56 6,2 C 66 % 0,0 l/m 20,4 km/h (4 Bft) SW 232 38,6 km/h (5 Bft)
10.01.2012 16:57 6,2 C 64 % 0,0 l/m 26,1 km/h (4 Bft) NW 308 40,2 km/h (6 Bft)
10.01.2012 16:58 6,2 C 65 % 0,0 l/m 20,5 km/h (4 Bft) W 274 35,4 km/h (5 Bft)
10.01.2012 16:59 6,2 C 65 % 0,0 l/m 21,1 km/h (4 Bft) W-SW 240 32,2 km/h (5 Bft)
10.01.2012 17:00 6,2 C 64 % 0,0 l/m 22,5 km/h (4 Bft) N 355 38,6 km/h (5 Bft)
10.01.2012 17:01 6,2 C 65 % 0,0 l/m 21,3 km/h (4 Bft) W 281 37,0 km/h (5 Bft)
10.01.2012 17:02 6,2 C 65 % 0,0 l/m 26,1 km/h (4 Bft) NW 306 37,0 km/h (5 Bft)
10.01.2012 17:03 6,2 C 65 % 0,0 l/m 33,5 km/h (5 Bft) W-NW 295 41,8 km/h (6 Bft)
10.01.2012 17:04 6,2 C 64 % 0,0 l/m 26,2 km/h (4 Bft) W-NW 300 33,8 km/h (5 Bft)
10.01.2012 17:05 6,2 C 65 % 0,0 l/m 27,7 km/h (4 Bft) W 271 35,4 km/h (5 Bft)
10.01.2012 17:06 6,2 C 65 % 0,0 l/m 17,6 km/h (3 Bft) W 276 25,7 km/h (4 Bft)
10.01.2012 17:07 6,2 C 66 % 0,0 l/m 20,3 km/h (4 Bft) NW 306 32,2 km/h (5 Bft)
10.01.2012 17:08 6,2 C 66 % 0,0 l/m 18,5 km/h (3 Bft) W-NW 293 33,8 km/h (5 Bft)
10.01.2012 17:09 6,2 C 65 % 0,0 l/m 30,5 km/h (5 Bft) NW 308 40,2 km/h (6 Bft)
10.01.2012 17:10 6,2 C 65 % 0,0 l/m 17,5 km/h (3 Bft) W 270 25,7 km/h (4 Bft)
10.01.2012 17:11 6,2 C 65 % 0,0 l/m 25,6 km/h (4 Bft) N-NW 332 40,2 km/h (6 Bft)
10.01.2012 17:12 6,2 C 65 % 0,0 l/m 22,3 km/h (4 Bft) W-NW 297 32,2 km/h (5 Bft)
10.01.2012 17:13 6,2 C 65 % 0,0 l/m 32,4 km/h (5 Bft) NW 314 41,8 km/h (6 Bft)
10.01.2012 17:14 6,2 C 65 % 0,0 l/m 19,8 km/h (3 Bft) W-NW 294 33,8 km/h (5 Bft)
10.01.2012 17:15 6,2 C 65 % 0,0 l/m 25,1 km/h (4 Bft) NW 317 33,8 km/h (5 Bft)
10.01.2012 17:16 6,2 C 65 % 0,0 l/m 27,4 km/h (4 Bft) W-NW 300 33,8 km/h (5 Bft)
10.01.2012 17:17 6,2 C 65 % 0,0 l/m 15,7 km/h (3 Bft) SW 233 33,8 km/h (5 Bft)
10.01.2012 17:18 6,2 C 66 % 0,0 l/m 20,0 km/h (4 Bft) W 271 32,2 km/h (5 Bft)
10.01.2012 17:19 6,2 C 66 % 0,0 l/m 20,8 km/h (4 Bft) S 176 29,0 km/h (5 Bft)
10.01.2012 17:20 6,2 C 66 % 0,0 l/m 21,0 km/h (4 Bft) W 273 33,8 km/h (5 Bft)
10.01.2012 17:21 6,2 C 65 % 0,0 l/m 23,6 km/h (4 Bft) SW 228 32,2 km/h (5 Bft)
10.01.2012 17:22 6,2 C 65 % 0,0 l/m 26,1 km/h (4 Bft) W 269 38,6 km/h (5 Bft)
10.01.2012 17:23 6,2 C 65 % 0,0 l/m 27,0 km/h (4 Bft) NW 304 35,4 km/h (5 Bft)
10.01.2012 17:24 6,2 C 65 % 0,0 l/m 20,3 km/h (4 Bft) NW 304 32,2 km/h (5 Bft)
10.01.2012 17:25 6,2 C 66 % 0,0 l/m 17,2 km/h (3 Bft) W 269 27,4 km/h (4 Bft)
10.01.2012 17:26 6,2 C 66 % 0,0 l/m 18,4 km/h (3 Bft) NW 306 30,6 km/h (5 Bft)
10.01.2012 17:27 6,2 C 66 % 0,0 l/m 22,5 km/h (4 Bft) W-NW 301 29,0 km/h (5 Bft)
10.01.2012 17:28 6,2 C 66 % 0,0 l/m 17,7 km/h (3 Bft) W-NW 299 27,4 km/h (4 Bft)
10.01.2012 17:29 6,2 C 66 % 0,0 l/m 18,6 km/h (3 Bft) W-NW 295 33,8 km/h (5 Bft)
10.01.2012 17:30 6,2 C 66 % 0,0 l/m 23,1 km/h (4 Bft) NW 313 35,4 km/h (5 Bft)
10.01.2012 17:31 6,2 C 66 % 0,0 l/m 22,0 km/h (4 Bft) W-NW 301 29,0 km/h (5 Bft)
10.01.2012 17:32 6,2 C 66 % 0,0 l/m 16,0 km/h (3 Bft) NW 304 24,1 km/h (4 Bft)
10.01.2012 17:33 6,2 C 66 % 0,0 l/m 15,6 km/h (3 Bft) NW 315 29,0 km/h (5 Bft)
10.01.2012 17:34 6,1 C 66 % 0,0 l/m 15,0 km/h (3 Bft) W-NW 288 20,9 km/h (4 Bft)
10.01.2012 17:35 6,1 C 67 % 0,0 l/m 19,3 km/h (3 Bft) W-NW 285 25,7 km/h (4 Bft)
10.01.2012 17:36 6,1 C 67 % 0,0 l/m 15,2 km/h (3 Bft) W-SW 243 24,1 km/h (4 Bft)
10.01.2012 17:37 6,1 C 67 % 0,0 l/m 14,1 km/h (3 Bft) N-NW 330 20,9 km/h (4 Bft)
10.01.2012 17:38 6,1 C 67 % 0,0 l/m 12,9 km/h (3 Bft) NW 308 22,5 km/h (4 Bft)
10.01.2012 17:39 6,1 C 67 % 0,0 l/m 11,2 km/h (2 Bft) W-NW 294 16,1 km/h (3 Bft)
10.01.2012 17:40 6,0 C 68 % 0,0 l/m 17,6 km/h (3 Bft) W-SW 255 25,7 km/h (4 Bft)
10.01.2012 17:41 6,1 C 67 % 0,0 l/m 19,2 km/h (3 Bft) W-NW 303 27,4 km/h (4 Bft)
10.01.2012 17:42 6,1 C 67 % 0,0 l/m 17,7 km/h (3 Bft) W-NW 297 25,7 km/h (4 Bft)
10.01.2012 17:43 6,1 C 67 % 0,0 l/m 24,6 km/h (4 Bft) W 277 35,4 km/h (5 Bft)
10.01.2012 17:44 6,1 C 67 % 0,0 l/m 16,8 km/h (3 Bft) W 278 24,1 km/h (4 Bft)
10.01.2012 17:45 6,1 C 67 % 0,0 l/m 14,7 km/h (3 Bft) W-NW 295 19,3 km/h (3 Bft)
10.01.2012 17:46 6,1 C 67 % 0,0 l/m 11,7 km/h (2 Bft) W-SW 249 17,7 km/h (3 Bft)
10.01.2012 17:47 6,1 C 68 % 0,0 l/m 6,9 km/h (2 Bft) W-NW 290 16,1 km/h (3 Bft)
10.01.2012 17:48 6,1 C 67 % 0,0 l/m 17,2 km/h (3 Bft) W-NW 291 25,7 km/h (4 Bft)
10.01.2012 17:49 6,1 C 67 % 0,0 l/m 14,4 km/h (3 Bft) W-NW 291 24,1 km/h (4 Bft)
10.01.2012 17:50 6,1 C 67 % 0,0 l/m 11,9 km/h (2 Bft) W 277 20,9 km/h (4 Bft)
10.01.2012 17:51 6,1 C 67 % 0,0 l/m 9,9 km/h (2 Bft) NW 307 17,7 km/h (3 Bft)
10.01.2012 17:52 6,1 C 68 % 0,0 l/m 13,9 km/h (3 Bft) W-NW 293 20,9 km/h (4 Bft)
10.01.2012 17:53 6,1 C 68 % 0,0 l/m 20,2 km/h (4 Bft) N 1 32,2 km/h (5 Bft)
10.01.2012 17:54 6,1 C 68 % 0,0 l/m 22,5 km/h (4 Bft) NW 305 37,0 km/h (5 Bft)
10.01.2012 17:55 6,1 C 66 % 0,0 l/m 20,0 km/h (4 Bft) W-NW 300 38,6 km/h (5 Bft)
10.01.2012 17:56 6,1 C 67 % 0,0 l/m 15,6 km/h (3 Bft) N-NW 333 24,1 km/h (4 Bft)
10.01.2012 17:57 6,1 C 67 % 0,0 l/m 16,4 km/h (3 Bft) NW 322 25,7 km/h (4 Bft)
10.01.2012 17:58 6,1 C 67 % 0,0 l/m 15,3 km/h (3 Bft) NW 313 20,9 km/h (4 Bft)
10.01.2012 17:59 6,1 C 67 % 0,0 l/m 15,1 km/h (3 Bft) N 349 25,7 km/h (4 Bft)
10.01.2012 18:00 6,1 C 67 % 0,0 l/m 18,9 km/h (3 Bft) N-NW 330 30,6 km/h (5 Bft)
10.01.2012 18:01 6,1 C 67 % 0,0 l/m 14,6 km/h (3 Bft) W 278 25,7 km/h (4 Bft)
10.01.2012 18:02 6,1 C 67 % 0,0 l/m 8,9 km/h (2 Bft) S-SO 166 12,9 km/h (3 Bft)
10.01.2012 18:03 6,1 C 68 % 0,0 l/m 14,6 km/h (3 Bft) W-NW 283 25,7 km/h (4 Bft)
10.01.2012 18:04 6,1 C 67 % 0,0 l/m 11,7 km/h (2 Bft) N-NW 328 24,1 km/h (4 Bft)
10.01.2012 18:05 6,1 C 68 % 0,0 l/m 16,1 km/h (3 Bft) W-NW 295 27,4 km/h (4 Bft)
10.01.2012 18:06 6,1 C 67 % 0,0 l/m 15,9 km/h (3 Bft) W-NW 283 29,0 km/h (5 Bft)
10.01.2012 18:07 6,1 C 67 % 0,0 l/m 19,6 km/h (3 Bft) W 273 27,4 km/h (4 Bft)
10.01.2012 18:08 6,1 C 67 % 0,0 l/m 17,4 km/h (3 Bft) W-NW 298 27,4 km/h (4 Bft)
10.01.2012 18:09 6,1 C 67 % 0,0 l/m 15,6 km/h (3 Bft) NW 321 27,4 km/h (4 Bft)
10.01.2012 18:10 6,1 C 67 % 0,0 l/m 11,2 km/h (2 Bft) NW 305 17,7 km/h (3 Bft)
10.01.2012 18:11 6,1 C 68 % 0,0 l/m 7,2 km/h (2 Bft) NO 50 12,9 km/h (3 Bft)
10.01.2012 18:12 6,1 C 68 % 0,0 l/m 10,7 km/h (2 Bft) W-NW 297 24,1 km/h (4 Bft)
10.01.2012 18:13 6,1 C 68 % 0,0 l/m 22,2 km/h (4 Bft) N-NW 347 32,2 km/h (5 Bft)
10.01.2012 18:14 6,1 C 67 % 0,0 l/m 17,0 km/h (3 Bft) W 274 32,2 km/h (5 Bft)
10.01.2012 18:15 6,1 C 67 % 0,0 l/m 18,7 km/h (3 Bft) W-NW 285 30,6 km/h (5 Bft)
10.01.2012 18:16 6,1 C 66 % 0,0 l/m 21,8 km/h (4 Bft) NW 305 35,4 km/h (5 Bft)
10.01.2012 18:17 6,1 C 66 % 0,0 l/m 19,2 km/h (3 Bft) N-NW 341 38,6 km/h (5 Bft)
10.01.2012 18:18 6,2 C 66 % 0,0 l/m 18,7 km/h (3 Bft) NW 307 33,8 km/h (5 Bft)
10.01.2012 18:19 6,2 C 67 % 0,0 l/m 11,1 km/h (2 Bft) W-NW 288 25,7 km/h (4 Bft)
10.01.2012 18:20 6,2 C 67 % 0,0 l/m 15,3 km/h (3 Bft) W-NW 284 33,8 km/h (5 Bft)
10.01.2012 18:21 6,2 C 67 % 0,0 l/m 17,1 km/h (3 Bft) W-NW 295 32,2 km/h (5 Bft)
10.01.2012 18:22 6,1 C 67 % 0,0 l/m 11,3 km/h (2 Bft) N-NW 332 19,3 km/h (3 Bft)
10.01.2012 18:23 6,1 C 67 % 0,0 l/m 16,6 km/h (3 Bft) W-NW 297 32,2 km/h (5 Bft)
10.01.2012 18:24 6,1 C 66 % 0,0 l/m 26,6 km/h (4 Bft) NW 307 41,8 km/h (6 Bft)
10.01.2012 18:25 6,1 C 67 % 0,0 l/m 14,8 km/h (3 Bft) NW 315 27,4 km/h (4 Bft)
10.01.2012 18:26 6,2 C 66 % 0,0 l/m 21,0 km/h (4 Bft) W-NW 297 35,4 km/h (5 Bft)
10.01.2012 18:27 6,2 C 66 % 0,0 l/m 27,8 km/h (4 Bft) N-NW 343 38,6 km/h (5 Bft)
10.01.2012 18:28 6,2 C 65 % 0,0 l/m 20,5 km/h (4 Bft) W-NW 294 35,4 km/h (5 Bft)
10.01.2012 18:29 6,2 C 66 % 0,0 l/m 11,5 km/h (2 Bft) W-NW 294 20,9 km/h (4 Bft)
10.01.2012 18:30 6,2 C 66 % 0,0 l/m 17,6 km/h (3 Bft) W-NW 302 30,6 km/h (5 Bft)
10.01.2012 18:31 6,2 C 66 % 0,0 l/m 15,5 km/h (3 Bft) NW 312 20,9 km/h (4 Bft)
10.01.2012 18:32 6,2 C 66 % 0,0 l/m 18,6 km/h (3 Bft) W-NW 293 33,8 km/h (5 Bft)
10.01.2012 18:33 6,2 C 66 % 0,0 l/m 18,5 km/h (3 Bft) SW 228 25,7 km/h (4 Bft)
10.01.2012 18:34 6,2 C 66 % 0,0 l/m 17,4 km/h (3 Bft) N 349 27,4 km/h (4 Bft)
10.01.2012 18:35 6,2 C 65 % 0,0 l/m 24,1 km/h (4 Bft) N-NW 334 37,0 km/h (5 Bft)
10.01.2012 18:36 6,2 C 66 % 0,0 l/m 16,5 km/h (3 Bft) W-NW 287 22,5 km/h (4 Bft)
10.01.2012 18:37 6,2 C 66 % 0,0 l/m 17,8 km/h (3 Bft) W-NW 285 27,4 km/h (4 Bft)
10.01.2012 18:38 6,2 C 66 % 0,0 l/m 21,6 km/h (4 Bft) N-NW 342 29,0 km/h (5 Bft)
10.01.2012 18:39 6,2 C 66 % 0,0 l/m 17,3 km/h (3 Bft) N-NW 332 35,4 km/h (5 Bft)
10.01.2012 18:40 6,2 C 66 % 0,0 l/m 16,1 km/h (3 Bft) NW 309 25,7 km/h (4 Bft)
10.01.2012 18:41 6,2 C 66 % 0,0 l/m 19,8 km/h (3 Bft) W 276 30,6 km/h (5 Bft)
10.01.2012 18:42 6,2 C 66 % 0,0 l/m 23,1 km/h (4 Bft) NW 313 30,6 km/h (5 Bft)
10.01.2012 18:43 6,2 C 66 % 0,0 l/m 23,5 km/h (4 Bft) W-NW 288 32,2 km/h (5 Bft)
10.01.2012 18:44 6,2 C 67 % 0,0 l/m 19,3 km/h (3 Bft) W-NW 297 30,6 km/h (5 Bft)
10.01.2012 18:45 6,1 C 67 % 0,0 l/m 17,9 km/h (3 Bft) NW 316 29,0 km/h (5 Bft)
10.01.2012 18:46 6,1 C 67 % 0,0 l/m 19,8 km/h (3 Bft) W 274 27,4 km/h (4 Bft)
10.01.2012 18:47 6,1 C 67 % 0,0 l/m 15,1 km/h (3 Bft) W 263 35,4 km/h (5 Bft)
10.01.2012 18:48 6,1 C 67 % 0,0 l/m 23,1 km/h (4 Bft) W-NW 284 37,0 km/h (5 Bft)
10.01.2012 18:49 6,1 C 67 % 0,0 l/m 22,0 km/h (4 Bft) NW 316 35,4 km/h (5 Bft)
10.01.2012 18:50 6,1 C 67 % 0,0 l/m 19,8 km/h (3 Bft) W-SW 249 30,6 km/h (5 Bft)
10.01.2012 18:51 6,1 C 67 % 0,0 l/m 15,7 km/h (3 Bft) W-NW 302 25,7 km/h (4 Bft)
10.01.2012 18:52 6,1 C 67 % 0,0 l/m 14,6 km/h (3 Bft) NW 314 19,3 km/h (3 Bft)
10.01.2012 18:53 6,1 C 67 % 0,0 l/m 14,3 km/h (3 Bft) W-NW 293 20,9 km/h (4 Bft)
10.01.2012 18:54 6,1 C 67 % 0,0 l/m 19,1 km/h (3 Bft) NW 323 30,6 km/h (5 Bft)
10.01.2012 18:55 6,1 C 67 % 0,0 l/m 18,4 km/h (3 Bft) NW 318 24,1 km/h (4 Bft)
10.01.2012 18:56 6,1 C 67 % 0,0 l/m 15,1 km/h (3 Bft) N 359 27,4 km/h (4 Bft)
10.01.2012 18:57 6,1 C 68 % 0,0 l/m 15,4 km/h (3 Bft) W 276 24,1 km/h (4 Bft)
10.01.2012 18:58 6,0 C 68 % 0,0 l/m 15,0 km/h (3 Bft) N-NO 23 22,5 km/h (4 Bft)
10.01.2012 18:59 6,0 C 67 % 0,0 l/m 20,1 km/h (4 Bft) W-NW 297 30,6 km/h (5 Bft)
10.01.2012 19:00 6,0 C 68 % 0,0 l/m 20,2 km/h (4 Bft) NW 304 27,4 km/h (4 Bft)
10.01.2012 19:01 6,1 C 67 % 0,0 l/m 22,7 km/h (4 Bft) W-NW 287 30,6 km/h (5 Bft)
10.01.2012 19:02 6,1 C 68 % 0,0 l/m 17,6 km/h (3 Bft) NW 318 27,4 km/h (4 Bft)
10.01.2012 19:03 6,1 C 68 % 0,0 l/m 13,9 km/h (3 Bft) W-NW 299 22,5 km/h (4 Bft)
10.01.2012 19:04 6,0 C 68 % 0,0 l/m 15,6 km/h (3 Bft) W-NW 300 25,7 km/h (4 Bft)
10.01.2012 19:05 6,0 C 68 % 0,0 l/m 11,4 km/h (2 Bft) W-NW 282 20,9 km/h (4 Bft)
10.01.2012 19:06 6,0 C 68 % 0,0 l/m 19,9 km/h (4 Bft) W-NW 291 25,7 km/h (4 Bft)
10.01.2012 19:07 5,9 C 68 % 0,0 l/m 17,0 km/h (3 Bft) N 354 20,9 km/h (4 Bft)
10.01.2012 19:08 6,0 C 68 % 0,0 l/m 11,9 km/h (2 Bft) W 269 16,1 km/h (3 Bft)
10.01.2012 19:09 6,0 C 68 % 0,0 l/m 22,9 km/h (4 Bft) W-NW 294 32,2 km/h (5 Bft)
10.01.2012 19:10 6,0 C 67 % 0,0 l/m 20,6 km/h (4 Bft) NW 304 32,2 km/h (5 Bft)
10.01.2012 19:11 6,1 C 67 % 0,0 l/m 23,4 km/h (4 Bft) W-NW 287 32,2 km/h (5 Bft)
10.01.2012 19:12 6,1 C 67 % 0,0 l/m 16,3 km/h (3 Bft) NW 309 27,4 km/h (4 Bft)
10.01.2012 19:13 6,1 C 67 % 0,0 l/m 16,7 km/h (3 Bft) W-NW 293 25,7 km/h (4 Bft)
10.01.2012 19:14 6,1 C 67 % 0,0 l/m 28,7 km/h (4 Bft) W-NW 293 35,4 km/h (5 Bft)
10.01.2012 19:15 6,1 C 67 % 0,0 l/m 22,3 km/h (4 Bft) W-NW 290 30,6 km/h (5 Bft)
10.01.2012 19:16 6,1 C 67 % 0,0 l/m 20,4 km/h (4 Bft) NW 318 38,6 km/h (5 Bft)
10.01.2012 19:17 6,1 C 67 % 0,0 l/m 19,0 km/h (3 Bft) W-NW 296 27,4 km/h (4 Bft)
10.01.2012 19:18 6,1 C 67 % 0,0 l/m 17,2 km/h (3 Bft) NW 315 30,6 km/h (5 Bft)
10.01.2012 19:19 6,1 C 67 % 0,0 l/m 19,0 km/h (3 Bft) NW 307 25,7 km/h (4 Bft)
10.01.2012 19:20 6,1 C 67 % 0,0 l/m 15,5 km/h (3 Bft) W-NW 298 24,1 km/h (4 Bft)
10.01.2012 19:21 6,1 C 67 % 0,0 l/m 20,7 km/h (4 Bft) N-NW 337 29,0 km/h (5 Bft)
10.01.2012 19:22 6,1 C 67 % 0,0 l/m 23,0 km/h (4 Bft) W-NW 293 32,2 km/h (5 Bft)
10.01.2012 19:23 6,1 C 67 % 0,0 l/m 24,1 km/h (4 Bft) W-NW 300 27,4 km/h (4 Bft)
10.01.2012 19:24 6,1 C 67 % 0,0 l/m 20,8 km/h (4 Bft) N 354 29,0 km/h (5 Bft)
10.01.2012 19:25 6,1 C 67 % 0,0 l/m 17,9 km/h (3 Bft) W-SW 242 32,2 km/h (5 Bft)
10.01.2012 19:26 6,1 C 67 % 0,0 l/m 19,9 km/h (4 Bft) NW 316 32,2 km/h (5 Bft)
10.01.2012 19:27 6,1 C 67 % 0,0 l/m 19,2 km/h (3 Bft) N 11 27,4 km/h (4 Bft)
10.01.2012 19:28 6,1 C 67 % 0,0 l/m 21,0 km/h (4 Bft) W-SW 242 37,0 km/h (5 Bft)
10.01.2012 19:29 6,1 C 66 % 0,0 l/m 26,6 km/h (4 Bft) W-NW 297 40,2 km/h (6 Bft)
10.01.2012 19:30 6,1 C 66 % 0,0 l/m 27,3 km/h (4 Bft) W 274 40,2 km/h (6 Bft)
10.01.2012 19:31 6,2 C 66 % 0,0 l/m 25,2 km/h (4 Bft) W-NW 294 37,0 km/h (5 Bft)
10.01.2012 19:32 6,2 C 66 % 0,0 l/m 25,5 km/h (4 Bft) W-NW 298 35,4 km/h (5 Bft)
10.01.2012 19:33 6,2 C 66 % 0,0 l/m 23,1 km/h (4 Bft) W 267 35,4 km/h (5 Bft)
10.01.2012 19:34 6,2 C 66 % 0,0 l/m 28,9 km/h (5 Bft) W-NW 285 51,5 km/h (7 Bft)
10.01.2012 19:35 6,2 C 66 % 0,0 l/m 18,8 km/h (3 Bft) NW 313 27,4 km/h (4 Bft)
10.01.2012 19:36 6,1 C 66 % 0,0 l/m 22,7 km/h (4 Bft) W 280 33,8 km/h (5 Bft)
10.01.2012 19:37 6,1 C 66 % 0,0 l/m 23,2 km/h (4 Bft) W-NW 285 38,6 km/h (5 Bft)
10.01.2012 19:38 6,1 C 65 % 0,0 l/m 25,1 km/h (4 Bft) N-NW 341 37,0 km/h (5 Bft)
10.01.2012 19:39 6,1 C 65 % 0,0 l/m 28,4 km/h (4 Bft) NW 323 41,8 km/h (6 Bft)
10.01.2012 19:40 6,1 C 65 % 0,0 l/m 23,7 km/h (4 Bft) W 276 46,7 km/h (6 Bft)
10.01.2012 19:41 6,1 C 65 % 0,0 l/m 36,0 km/h (5 Bft) W-NW 287 45,1 km/h (6 Bft)
10.01.2012 19:42 6,1 C 65 % 0,0 l/m 23,6 km/h (4 Bft) W-NW 283 41,8 km/h (6 Bft)
10.01.2012 19:43 6,1 C 65 % 0,0 l/m 23,5 km/h (4 Bft) W-NW 291 32,2 km/h (5 Bft)
10.01.2012 19:44 6,2 C 64 % 0,0 l/m 36,3 km/h (5 Bft) W-NW 300 48,3 km/h (6 Bft)
10.01.2012 19:45 6,2 C 65 % 0,0 l/m 20,7 km/h (4 Bft) W-NW 293 38,6 km/h (5 Bft)
10.01.2012 19:46 6,2 C 64 % 0,0 l/m 23,2 km/h (4 Bft) W-NW 284 40,2 km/h (6 Bft)
10.01.2012 19:47 6,2 C 65 % 0,0 l/m 24,6 km/h (4 Bft) W-NW 300 35,4 km/h (5 Bft)
10.01.2012 19:48 6,2 C 65 % 0,0 l/m 19,2 km/h (3 Bft) W-NW 295 37,0 km/h (5 Bft)
10.01.2012 19:49 6,2 C 65 % 0,0 l/m 22,0 km/h (4 Bft) W-NW 299 40,2 km/h (6 Bft)
10.01.2012 19:50 6,2 C 64 % 0,0 l/m 23,6 km/h (4 Bft) W 273 33,8 km/h (5 Bft)
10.01.2012 19:51 6,2 C 65 % 0,0 l/m 24,4 km/h (4 Bft) W 278 40,2 km/h (6 Bft)
10.01.2012 19:52 6,2 C 64 % 0,0 l/m 27,1 km/h (4 Bft) W-NW 293 40,2 km/h (6 Bft)
10.01.2012 19:53 6,2 C 64 % 0,0 l/m 25,3 km/h (4 Bft) NW 304 33,8 km/h (5 Bft)
10.01.2012 19:54 6,2 C 65 % 0,0 l/m 20,0 km/h (4 Bft) W-NW 295 25,7 km/h (4 Bft)
10.01.2012 19:55 6,2 C 65 % 0,0 l/m 20,2 km/h (4 Bft) N-NW 340 30,6 km/h (5 Bft)
10.01.2012 19:56 6,2 C 65 % 0,0 l/m 14,4 km/h (3 Bft) O-SO 108 24,1 km/h (4 Bft)
10.01.2012 19:57 6,1 C 65 % 0,0 l/m 15,6 km/h (3 Bft) S-SO 155 25,7 km/h (4 Bft)
10.01.2012 19:58 6,1 C 65 % 0,0 l/m 20,3 km/h (4 Bft) N 354 32,2 km/h (5 Bft)
10.01.2012 19:59 6,1 C 65 % 0,0 l/m 20,1 km/h (4 Bft) W-NW 293 33,8 km/h (5 Bft)
10.01.2012 20:00 6,1 C 65 % 0,0 l/m 25,2 km/h (4 Bft) W-NW 295 35,4 km/h (5 Bft)
10.01.2012 20:01 6,1 C 65 % 0,0 l/m 17,5 km/h (3 Bft) W-NW 295 29,0 km/h (5 Bft)
10.01.2012 20:02 6,0 C 65 % 0,0 l/m 25,1 km/h (4 Bft) W 277 37,0 km/h (5 Bft)
10.01.2012 20:03 6,0 C 65 % 0,0 l/m 21,6 km/h (4 Bft) O-NO 57 35,4 km/h (5 Bft)
10.01.2012 20:04 6,0 C 65 % 0,0 l/m 21,2 km/h (4 Bft) W 281 37,0 km/h (5 Bft)
10.01.2012 20:05 6,0 C 65 % 0,0 l/m 25,6 km/h (4 Bft) W-SW 245 35,4 km/h (5 Bft)
10.01.2012 20:06 6,0 C 65 % 0,0 l/m 25,9 km/h (4 Bft) W 266 35,4 km/h (5 Bft)
10.01.2012 20:07 6,0 C 65 % 0,0 l/m 20,4 km/h (4 Bft) W-SW 238 30,6 km/h (5 Bft)
10.01.2012 20:08 6,0 C 65 % 0,0 l/m 21,1 km/h (4 Bft) NW 304 32,2 km/h (5 Bft)
10.01.2012 20:09 6,0 C 65 % 0,0 l/m 21,4 km/h (4 Bft) W-NW 293 37,0 km/h (5 Bft)
10.01.2012 20:10 5,9 C 65 % 0,0 l/m 25,9 km/h (4 Bft) NW 317 37,0 km/h (5 Bft)
10.01.2012 20:11 5,9 C 65 % 0,0 l/m 16,2 km/h (3 Bft) W-NW 298 24,1 km/h (4 Bft)
10.01.2012 20:12 5,9 C 66 % 0,0 l/m 16,0 km/h (3 Bft) NO 46 29,0 km/h (5 Bft)
10.01.2012 20:13 5,9 C 66 % 0,0 l/m 18,8 km/h (3 Bft) W-NW 297 32,2 km/h (5 Bft)
10.01.2012 20:14 5,8 C 66 % 0,0 l/m 25,0 km/h (4 Bft) W-NW 284 40,2 km/h (6 Bft)
10.01.2012 20:15 5,8 C 65 % 0,0 l/m 26,5 km/h (4 Bft) W-NW 287 38,6 km/h (5 Bft)
10.01.2012 20:16 5,8 C 66 % 0,0 l/m 23,1 km/h (4 Bft) W-NW 293 30,6 km/h (5 Bft)
10.01.2012 20:17 5,8 C 66 % 0,0 l/m 23,3 km/h (4 Bft) W-NW 301 32,2 km/h (5 Bft)
10.01.2012 20:18 5,8 C 66 % 0,0 l/m 19,2 km/h (3 Bft) W 264 33,8 km/h (5 Bft)
10.01.2012 20:19 5,7 C 66 % 0,0 l/m 18,1 km/h (3 Bft) W-NW 282 32,2 km/h (5 Bft)
10.01.2012 20:20 5,7 C 67 % 0,0 l/m 15,9 km/h (3 Bft) W-NW 293 24,1 km/h (4 Bft)
10.01.2012 20:21 5,6 C 67 % 0,0 l/m 20,0 km/h (4 Bft) W-NW 293 27,4 km/h (4 Bft)
10.01.2012 20:22 5,6 C 66 % 0,0 l/m 16,9 km/h (3 Bft) W 276 25,7 km/h (4 Bft)
10.01.2012 20:23 5,6 C 67 % 0,0 l/m 20,4 km/h (4 Bft) N-NW 345 27,4 km/h (4 Bft)
10.01.2012 20:24 5,6 C 67 % 0,0 l/m 15,8 km/h (3 Bft) W-SW 257 22,5 km/h (4 Bft)
10.01.2012 20:25 5,6 C 67 % 0,0 l/m 21,1 km/h (4 Bft) W-NW 297 38,6 km/h (5 Bft)
10.01.2012 20:26 5,6 C 67 % 0,0 l/m 22,2 km/h (4 Bft) NO 53 30,6 km/h (5 Bft)
10.01.2012 20:27 5,5 C 66 % 0,0 l/m 21,9 km/h (4 Bft) N-NO 16 33,8 km/h (5 Bft)
10.01.2012 20:28 5,5 C 67 % 0,0 l/m 22,8 km/h (4 Bft) W 274 30,6 km/h (5 Bft)
10.01.2012 20:29 5,5 C 67 % 0,0 l/m 16,4 km/h (3 Bft) NW 309 27,4 km/h (4 Bft)
10.01.2012 20:30 5,5 C 67 % 0,0 l/m 16,2 km/h (3 Bft) NW 311 20,9 km/h (4 Bft)
10.01.2012 20:31 5,4 C 67 % 0,0 l/m 12,9 km/h (3 Bft) W-NW 294 20,9 km/h (4 Bft)
10.01.2012 20:32 5,4 C 67 % 0,0 l/m 14,0 km/h (3 Bft) NW 308 25,7 km/h (4 Bft)
10.01.2012 20:33 5,4 C 67 % 0,0 l/m 12,1 km/h (2 Bft) W-NW 300 16,1 km/h (3 Bft)
10.01.2012 20:34 5,4 C 68 % 0,0 l/m 16,0 km/h (3 Bft) N 353 30,6 km/h (5 Bft)
10.01.2012 20:35 5,3 C 67 % 0,0 l/m 18,5 km/h (3 Bft) W 281 30,6 km/h (5 Bft)
10.01.2012 20:36 5,3 C 68 % 0,0 l/m 16,8 km/h (3 Bft) NW 321 24,1 km/h (4 Bft)
10.01.2012 20:37 5,3 C 68 % 0,0 l/m 16,9 km/h (3 Bft) NW 307 22,5 km/h (4 Bft)
10.01.2012 20:38 5,3 C 68 % 0,0 l/m 7,2 km/h (2 Bft) W-NW 297 19,3 km/h (3 Bft)
10.01.2012 20:39 5,3 C 68 % 0,0 l/m 9,6 km/h (2 Bft) W 276 22,5 km/h (4 Bft)
10.01.2012 20:40 5,3 C 68 % 0,0 l/m 13,5 km/h (3 Bft) NW 304 25,7 km/h (4 Bft)
10.01.2012 20:41 5,2 C 68 % 0,0 l/m 13,5 km/h (3 Bft) NW 306 19,3 km/h (3 Bft)
10.01.2012 20:42 5,2 C 68 % 0,0 l/m 7,6 km/h (2 Bft) W-NW 296 12,9 km/h (3 Bft)
10.01.2012 20:43 5,2 C 68 % 0,0 l/m 13,1 km/h (3 Bft) N-NO 27 20,9 km/h (4 Bft)
10.01.2012 20:44 5,1 C 69 % 0,0 l/m 10,9 km/h (2 Bft) W-NW 291 25,7 km/h (4 Bft)
10.01.2012 20:45 5,1 C 69 % 0,0 l/m 15,1 km/h (3 Bft) N-NW 335 20,9 km/h (4 Bft)
10.01.2012 20:46 5,1 C 69 % 0,0 l/m 9,3 km/h (2 Bft) W-NW 289 22,5 km/h (4 Bft)
10.01.2012 20:47 5,1 C 69 % 0,0 l/m 11,8 km/h (2 Bft) NW 323 20,9 km/h (4 Bft)
10.01.2012 20:48 5,1 C 69 % 0,0 l/m 15,3 km/h (3 Bft) N 349 24,1 km/h (4 Bft)
10.01.2012 20:49 5,0 C 69 % 0,0 l/m 11,9 km/h (2 Bft) W-NW 285 19,3 km/h (3 Bft)
10.01.2012 20:50 5,0 C 69 % 0,0 l/m 13,2 km/h (3 Bft) W 260 22,5 km/h (4 Bft)
10.01.2012 20:51 5,0 C 69 % 0,0 l/m 7,4 km/h (2 Bft) W 281 24,1 km/h (4 Bft)
10.01.2012 20:52 5,0 C 70 % 0,0 l/m 5,3 km/h (1 Bft) SO 134 11,3 km/h (2 Bft)
10.01.2012 20:53 4,9 C 70 % 0,0 l/m 9,1 km/h (2 Bft) N-NW 339 17,7 km/h (3 Bft)
10.01.2012 20:54 4,9 C 70 % 0,0 l/m 16,5 km/h (3 Bft) W-NW 288 29,0 km/h (5 Bft)
10.01.2012 20:55 4,8 C 70 % 0,0 l/m 5,1 km/h (1 Bft) S-SW 211 8,0 km/h (2 Bft)
10.01.2012 20:56 4,8 C 70 % 0,0 l/m 11,9 km/h (2 Bft) W-NW 293 24,1 km/h (4 Bft)
10.01.2012 20:57 4,8 C 70 % 0,0 l/m 16,8 km/h (3 Bft) NW 313 22,5 km/h (4 Bft)
10.01.2012 20:58 4,8 C 70 % 0,0 l/m 14,3 km/h (3 Bft) NW 321 22,5 km/h (4 Bft)
10.01.2012 20:59 4,8 C 70 % 0,0 l/m 13,6 km/h (3 Bft) NW 325 19,3 km/h (3 Bft)
10.01.2012 21:00 4,8 C 70 % 0,0 l/m 17,8 km/h (3 Bft) NW 319 25,7 km/h (4 Bft)
10.01.2012 21:01 4,8 C 70 % 0,0 l/m 16,6 km/h (3 Bft) NW 314 25,7 km/h (4 Bft)
10.01.2012 21:02 4,8 C 70 % 0,0 l/m 9,1 km/h (2 Bft) N-NO 16 17,7 km/h (3 Bft)
10.01.2012 21:03 4,7 C 70 % 0,0 l/m 16,9 km/h (3 Bft) W-NW 295 30,6 km/h (5 Bft)
10.01.2012 21:04 4,7 C 70 % 0,0 l/m 15,4 km/h (3 Bft) N-NO 20 25,7 km/h (4 Bft)
10.01.2012 21:05 4,7 C 71 % 0,0 l/m 10,7 km/h (2 Bft) NW 314 16,1 km/h (3 Bft)
10.01.2012 21:06 4,7 C 70 % 0,0 l/m 14,6 km/h (3 Bft) W-NW 294 22,5 km/h (4 Bft)
10.01.2012 21:07 4,7 C 70 % 0,0 l/m 15,0 km/h (3 Bft) N-NW 334 20,9 km/h (4 Bft)
10.01.2012 21:08 4,7 C 71 % 0,0 l/m 16,2 km/h (3 Bft) NW 325 22,5 km/h (4 Bft)
10.01.2012 21:09 4,7 C 71 % 0,0 l/m 8,5 km/h (2 Bft) NW 319 14,5 km/h (3 Bft)
10.01.2012 21:10 4,7 C 71 % 0,0 l/m 11,4 km/h (2 Bft) N-NW 339 14,5 km/h (3 Bft)
10.01.2012 21:11 4,6 C 71 % 0,0 l/m 8,7 km/h (2 Bft) W-NW 296 12,9 km/h (3 Bft)
10.01.2012 21:12 4,6 C 71 % 0,0 l/m 10,7 km/h (2 Bft) NW 304 14,5 km/h (3 Bft)
10.01.2012 21:13 4,6 C 71 % 0,0 l/m 10,9 km/h (2 Bft) W-NW 293 16,1 km/h (3 Bft)
10.01.2012 21:14 4,5 C 71 % 0,0 l/m 11,8 km/h (2 Bft) W-NW 300 16,1 km/h (3 Bft)
10.01.2012 21:15 4,5 C 72 % 0,0 l/m 9,7 km/h (2 Bft) W-NW 288 12,9 km/h (3 Bft)
10.01.2012 21:17 4,4 C 72 % 0,0 l/m 11,9 km/h (2 Bft) N-NO 33 16,1 km/h (3 Bft)
10.01.2012 21:18 4,4 C 72 % 0,0 l/m 11,5 km/h (2 Bft) N-NW 340 16,1 km/h (3 Bft)
10.01.2012 21:19 4,3 C 72 % 0,0 l/m 9,4 km/h (2 Bft) W-NW 300 16,1 km/h (3 Bft)
10.01.2012 21:20 4,3 C 72 % 0,0 l/m 9,3 km/h (2 Bft) NW 321 14,5 km/h (3 Bft)
10.01.2012 21:21 4,3 C 72 % 0,0 l/m 8,1 km/h (2 Bft) N-NW 334 14,5 km/h (3 Bft)
10.01.2012 21:22 4,3 C 72 % 0,0 l/m 14,1 km/h (3 Bft) NW 312 19,3 km/h (3 Bft)
10.01.2012 21:23 4,3 C 72 % 0,0 l/m 10,6 km/h (2 Bft) W-NW 293 16,1 km/h (3 Bft)
10.01.2012 21:24 4,3 C 72 % 0,0 l/m 12,7 km/h (3 Bft) W 276 19,3 km/h (3 Bft)
10.01.2012 21:25 4,3 C 72 % 0,0 l/m 3,7 km/h (1 Bft) N-NO 12 6,4 km/h (2 Bft)
10.01.2012 21:26 4,3 C 72 % 0,0 l/m 8,7 km/h (2 Bft) NW 319 12,9 km/h (3 Bft)
10.01.2012 21:27 4,2 C 72 % 0,0 l/m 10,0 km/h (2 Bft) W-NW 289 16,1 km/h (3 Bft)
10.01.2012 21:28 4,2 C 72 % 0,0 l/m 8,9 km/h (2 Bft) W-NW 297 12,9 km/h (3 Bft)
10.01.2012 21:29 4,2 C 72 % 0,0 l/m 8,4 km/h (2 Bft) N 11 14,5 km/h (3 Bft)
10.01.2012 21:30 4,2 C 72 % 0,0 l/m 7,3 km/h (2 Bft) W 259 11,3 km/h (2 Bft)
10.01.2012 21:31 4,3 C 72 % 0,0 l/m 3,4 km/h (1 Bft) N 360 4,8 km/h (1 Bft)
10.01.2012 21:32 4,2 C 72 % 0,0 l/m 9,8 km/h (2 Bft) NW 313 17,7 km/h (3 Bft)
10.01.2012 21:33 4,2 C 72 % 0,0 l/m 8,4 km/h (2 Bft) W-NW 297 11,3 km/h (2 Bft)
10.01.2012 21:34 4,2 C 72 % 0,0 l/m 7,1 km/h (2 Bft) W-NW 293 11,3 km/h (2 Bft)
10.01.2012 21:35 4,2 C 73 % 0,0 l/m 7,1 km/h (2 Bft) N-NW 330 9,7 km/h (2 Bft)
10.01.2012 21:36 4,1 C 72 % 0,0 l/m 11,9 km/h (2 Bft) NW 312 17,7 km/h (3 Bft)
10.01.2012 21:37 4,1 C 73 % 0,0 l/m 5,5 km/h (1 Bft) W-NW 300 11,3 km/h (2 Bft)
10.01.2012 21:38 4,1 C 73 % 0,0 l/m 6,4 km/h (2 Bft) W-NW 297 12,9 km/h (3 Bft)
10.01.2012 21:39 4,1 C 73 % 0,0 l/m 7,3 km/h (2 Bft) W-NW 300 9,7 km/h (2 Bft)
10.01.2012 21:40 4,1 C 73 % 0,0 l/m 7,0 km/h (2 Bft) N 4 11,3 km/h (2 Bft)
10.01.2012 21:41 4,0 C 73 % 0,0 l/m 6,8 km/h (2 Bft) W-NW 302 11,3 km/h (2 Bft)
10.01.2012 21:42 4,0 C 73 % 0,0 l/m 10,3 km/h (2 Bft) NO 36 22,5 km/h (4 Bft)
10.01.2012 21:43 4,1 C 72 % 0,0 l/m 11,8 km/h (2 Bft) NW 316 20,9 km/h (4 Bft)
10.01.2012 21:44 4,1 C 72 % 0,0 l/m 5,5 km/h (1 Bft) NW 322 9,7 km/h (2 Bft)
10.01.2012 21:45 4,1 C 72 % 0,0 l/m 4,5 km/h (1 Bft) W-NW 288 6,4 km/h (2 Bft)
10.01.2012 21:46 4,0 C 72 % 0,0 l/m 7,2 km/h (2 Bft) W-NW 298 12,9 km/h (3 Bft)
10.01.2012 21:47 4,0 C 72 % 0,0 l/m 6,9 km/h (2 Bft) NW 321 12,9 km/h (3 Bft)
10.01.2012 21:48 4,0 C 72 % 0,0 l/m 7,8 km/h (2 Bft) N-NW 330 11,3 km/h (2 Bft)
10.01.2012 21:49 4,0 C 72 % 0,0 l/m 7,2 km/h (2 Bft) W-NW 287 11,3 km/h (2 Bft)
10.01.2012 21:50 4,0 C 72 % 0,0 l/m 10,3 km/h (2 Bft) W 274 17,7 km/h (3 Bft)
10.01.2012 21:51 3,9 C 73 % 0,0 l/m 8,2 km/h (2 Bft) W-NW 297 14,5 km/h (3 Bft)
10.01.2012 21:52 3,9 C 73 % 0,0 l/m 5,1 km/h (1 Bft) N 8 9,7 km/h (2 Bft)
10.01.2012 21:53 3,9 C 73 % 0,0 l/m 3,6 km/h (1 Bft) W 261 8,0 km/h (2 Bft)
10.01.2012 21:54 3,9 C 73 % 0,0 l/m 4,7 km/h (1 Bft) W-NW 284 6,4 km/h (2 Bft)
10.01.2012 21:55 3,9 C 73 % 0,0 l/m 4,8 km/h (1 Bft) N-NO 26 11,3 km/h (2 Bft)
10.01.2012 21:56 3,8 C 73 % 0,0 l/m 4,3 km/h (1 Bft) W-NW 300 6,4 km/h (2 Bft)
10.01.2012 21:57 3,8 C 73 % 0,0 l/m 5,8 km/h (2 Bft) NW 316 8,0 km/h (2 Bft)
10.01.2012 21:58 3,8 C 73 % 0,0 l/m 8,6 km/h (2 Bft) W-NW 297 11,3 km/h (2 Bft)
10.01.2012 21:59 3,8 C 73 % 0,0 l/m 5,3 km/h (1 Bft) NW 305 9,7 km/h (2 Bft)
10.01.2012 22:00 3,8 C 73 % 0,0 l/m 2,3 km/h (1 Bft) NW 307 4,8 km/h (1 Bft)
10.01.2012 22:01 3,7 C 73 % 0,0 l/m 3,2 km/h (1 Bft) N-NO 16 4,8 km/h (1 Bft)
10.01.2012 22:02 3,7 C 73 % 0,0 l/m 4,7 km/h (1 Bft) W-SW 243 6,4 km/h (2 Bft)
10.01.2012 22:03 3,7 C 74 % 0,0 l/m 1,8 km/h (1 Bft) N-NW 335 3,2 km/h (1 Bft)
10.01.2012 22:04 3,7 C 73 % 0,0 l/m 10,0 km/h (2 Bft) N 360 12,9 km/h (3 Bft)
10.01.2012 22:05 3,7 C 73 % 0,0 l/m 6,7 km/h (2 Bft) W-NW 299 8,0 km/h (2 Bft)
10.01.2012 22:06 3,8 C 73 % 0,0 l/m 7,6 km/h (2 Bft) NW 312 9,7 km/h (2 Bft)
10.01.2012 22:07 3,8 C 72 % 0,0 l/m 7,6 km/h (2 Bft) NW 319 11,3 km/h (2 Bft)
10.01.2012 22:08 3,8 C 73 % 0,0 l/m 8,3 km/h (2 Bft) N-NW 341 12,9 km/h (3 Bft)
10.01.2012 22:09 3,8 C 73 % 0,0 l/m 5,4 km/h (1 Bft) NW 304 11,3 km/h (2 Bft)
10.01.2012 22:10 3,8 C 73 % 0,0 l/m 5,3 km/h (1 Bft) NW 308 8,0 km/h (2 Bft)
10.01.2012 22:11 3,7 C 73 % 0,0 l/m 8,8 km/h (2 Bft) N-NO 30 14,5 km/h (3 Bft)
10.01.2012 22:12 3,8 C 73 % 0,0 l/m 12,2 km/h (2 Bft) NW 316 17,7 km/h (3 Bft)
10.01.2012 22:13 3,8 C 73 % 0,0 l/m 7,9 km/h (2 Bft) NW 316 12,9 km/h (3 Bft)
10.01.2012 22:14 3,8 C 73 % 0,0 l/m 6,5 km/h (2 Bft) NW 323 8,0 km/h (2 Bft)
10.01.2012 22:15 3,8 C 73 % 0,0 l/m 3,7 km/h (1 Bft) N-NO 18 8,0 km/h (2 Bft)
10.01.2012 22:16 3,7 C 73 % 0,0 l/m 4,5 km/h (1 Bft) NW 305 8,0 km/h (2 Bft)
10.01.2012 22:17 3,7 C 73 % 0,0 l/m 4,5 km/h (1 Bft) N 356 6,4 km/h (2 Bft)
10.01.2012 22:18 3,7 C 73 % 0,0 l/m 2,8 km/h (1 Bft) N-NO 15 4,8 km/h (1 Bft)
10.01.2012 22:19 3,7 C 73 % 0,0 l/m 1,4 km/h (1 Bft) O-NO 65 3,2 km/h (1 Bft)
10.01.2012 22:20 3,7 C 73 % 0,0 l/m 0,5 km/h (0 Bft) W 260 3,2 km/h (1 Bft)
10.01.2012 22:21 3,6 C 73 % 0,0 l/m 4,8 km/h (1 Bft) N-NW 335 9,7 km/h (2 Bft)
10.01.2012 22:22 3,6 C 73 % 0,0 l/m 7,8 km/h (2 Bft) NW 304 14,5 km/h (3 Bft)
10.01.2012 22:23 3,6 C 73 % 0,0 l/m 3,4 km/h (1 Bft) NW 305 8,0 km/h (2 Bft)
10.01.2012 22:24 3,6 C 73 % 0,0 l/m 1,8 km/h (1 Bft) NW 315 3,2 km/h (1 Bft)
10.01.2012 22:25 3,6 C 73 % 0,0 l/m 0,7 km/h (0 Bft) W 276 1,6 km/h (1 Bft)
10.01.2012 22:26 3,6 C 73 % 0,0 l/m 1,0 km/h (0 Bft) NW 323 4,8 km/h (1 Bft)
10.01.2012 22:27 3,6 C 73 % 0,0 l/m 5,0 km/h (1 Bft) NW 312 6,4 km/h (2 Bft)
10.01.2012 22:28 3,6 C 73 % 0,0 l/m 3,9 km/h (1 Bft) N-NW 330 4,8 km/h (1 Bft)
10.01.2012 22:29 3,6 C 73 % 0,0 l/m 6,7 km/h (2 Bft) N-NO 27 9,7 km/h (2 Bft)
10.01.2012 22:30 3,6 C 73 % 0,0 l/m 5,4 km/h (1 Bft) N-NO 29 8,0 km/h (2 Bft)
10.01.2012 22:31 3,6 C 73 % 0,0 l/m 4,7 km/h (1 Bft) N-NO 13 6,4 km/h (2 Bft)
10.01.2012 22:32 3,6 C 73 % 0,0 l/m 3,3 km/h (1 Bft) NW 315 4,8 km/h (1 Bft)
10.01.2012 22:33 3,6 C 73 % 0,0 l/m 4,7 km/h (1 Bft) N-NW 336 8,0 km/h (2 Bft)
10.01.2012 22:34 3,6 C 73 % 0,0 l/m 5,6 km/h (1 Bft) N-NW 329 8,0 km/h (2 Bft)
10.01.2012 22:35 3,6 C 73 % 0,0 l/m 4,7 km/h (1 Bft) N-NW 328 8,0 km/h (2 Bft)
10.01.2012 22:36 3,6 C 73 % 0,0 l/m 7,4 km/h (2 Bft) N-NO 16 16,1 km/h (3 Bft)
10.01.2012 22:37 3,6 C 73 % 0,0 l/m 10,5 km/h (2 Bft) NW 314 16,1 km/h (3 Bft)
10.01.2012 22:38 3,6 C 73 % 0,0 l/m 6,6 km/h (2 Bft) N-NW 328 9,7 km/h (2 Bft)
10.01.2012 22:39 3,6 C 73 % 0,0 l/m 8,4 km/h (2 Bft) N-NW 328 11,3 km/h (2 Bft)
10.01.2012 22:40 3,6 C 73 % 0,0 l/m 4,8 km/h (1 Bft) NW 325 8,0 km/h (2 Bft)
10.01.2012 22:41 3,6 C 73 % 0,0 l/m 5,0 km/h (1 Bft) NW 321 6,4 km/h (2 Bft)
10.01.2012 22:42 3,5 C 73 % 0,0 l/m 7,5 km/h (2 Bft) N 353 9,7 km/h (2 Bft)
10.01.2012 22:43 3,5 C 73 % 0,0 l/m 4,4 km/h (1 Bft) N 354 9,7 km/h (2 Bft)
10.01.2012 22:44 3,5 C 73 % 0,0 l/m 6,6 km/h (2 Bft) N 354 9,7 km/h (2 Bft)
10.01.2012 22:45 3,4 C 73 % 0,0 l/m 5,3 km/h (1 Bft) N-NO 21 6,4 km/h (2 Bft)
10.01.2012 22:46 3,4 C 73 % 0,0 l/m 7,6 km/h (2 Bft) N-NO 15 9,7 km/h (2 Bft)
10.01.2012 22:47 3,4 C 73 % 0,0 l/m 8,1 km/h (2 Bft) N 9 11,3 km/h (2 Bft)
10.01.2012 22:48 3,4 C 73 % 0,0 l/m 9,6 km/h (2 Bft) N-NW 337 12,9 km/h (3 Bft)
10.01.2012 22:49 3,5 C 73 % 0,0 l/m 6,6 km/h (2 Bft) N 9 9,7 km/h (2 Bft)
10.01.2012 22:50 3,5 C 73 % 0,0 l/m 6,2 km/h (2 Bft) N 358 9,7 km/h (2 Bft)
10.01.2012 22:51 3,4 C 73 % 0,0 l/m 3,4 km/h (1 Bft) N-NO 20 6,4 km/h (2 Bft)
10.01.2012 22:52 3,4 C 73 % 0,0 l/m 6,2 km/h (2 Bft) N-NW 328 8,0 km/h (2 Bft)
10.01.2012 22:53 3,4 C 73 % 0,0 l/m 5,5 km/h (1 Bft) N-NW 345 8,0 km/h (2 Bft)
10.01.2012 22:54 3,4 C 73 % 0,0 l/m 7,3 km/h (2 Bft) N-NW 343 9,7 km/h (2 Bft)
10.01.2012 22:55 3,4 C 73 % 0,0 l/m 12,3 km/h (3 Bft) NW 309 20,9 km/h (4 Bft)
10.01.2012 22:56 3,4 C 73 % 0,0 l/m 9,1 km/h (2 Bft) N 11 12,9 km/h (3 Bft)
10.01.2012 22:57 3,4 C 73 % 0,0 l/m 5,1 km/h (1 Bft) N-NO 26 6,4 km/h (2 Bft)
10.01.2012 22:58 3,4 C 73 % 0,0 l/m 6,3 km/h (2 Bft) N 354 8,0 km/h (2 Bft)
10.01.2012 22:59 3,4 C 73 % 0,0 l/m 5,5 km/h (1 Bft) N-NW 328 8,0 km/h (2 Bft)
10.01.2012 23:00 3,4 C 73 % 0,0 l/m 3,9 km/h (1 Bft) N-NO 27 6,4 km/h (2 Bft)
10.01.2012 23:01 3,4 C 73 % 0,0 l/m 5,0 km/h (1 Bft) N-NW 329 6,4 km/h (2 Bft)
10.01.2012 23:02 3,3 C 73 % 0,0 l/m 6,9 km/h (2 Bft) N-NW 336 9,7 km/h (2 Bft)
10.01.2012 23:03 3,3 C 73 % 0,0 l/m 5,5 km/h (1 Bft) N-NW 336 8,0 km/h (2 Bft)
10.01.2012 23:04 3,3 C 73 % 0,0 l/m 6,1 km/h (2 Bft) NW 314 9,7 km/h (2 Bft)
10.01.2012 23:05 3,3 C 73 % 0,0 l/m 3,9 km/h (1 Bft) N-NW 338 6,4 km/h (2 Bft)
10.01.2012 23:06 3,3 C 73 % 0,0 l/m 5,3 km/h (1 Bft) N-NW 341 6,4 km/h (2 Bft)
10.01.2012 23:07 3,3 C 73 % 0,0 l/m 3,9 km/h (1 Bft) N 359 6,4 km/h (2 Bft)
10.01.2012 23:08 3,3 C 73 % 0,0 l/m 4,3 km/h (1 Bft) N-NW 332 8,0 km/h (2 Bft)
10.01.2012 23:09 3,3 C 73 % 0,0 l/m 3,0 km/h (1 Bft) N-NO 19 4,8 km/h (1 Bft)
10.01.2012 23:10 3,3 C 74 % 0,0 l/m 6,4 km/h (2 Bft) N-NW 328 9,7 km/h (2 Bft)
10.01.2012 23:11 3,3 C 74 % 0,0 l/m 4,3 km/h (1 Bft) N-NW 343 6,4 km/h (2 Bft)
10.01.2012 23:12 3,2 C 74 % 0,0 l/m 5,5 km/h (1 Bft) NW 317 6,4 km/h (2 Bft)
10.01.2012 23:13 3,2 C 74 % 0,0 l/m 5,6 km/h (1 Bft) N-NO 13 8,0 km/h (2 Bft)
10.01.2012 23:14 3,2 C 74 % 0,0 l/m 5,5 km/h (1 Bft) N-NW 337 8,0 km/h (2 Bft)
10.01.2012 23:15 3,2 C 74 % 0,0 l/m 7,1 km/h (2 Bft) N 351 9,7 km/h (2 Bft)
10.01.2012 23:16 3,2 C 74 % 0,0 l/m 4,4 km/h (1 Bft) N-NW 347 6,4 km/h (2 Bft)
10.01.2012 23:17 3,2 C 74 % 0,0 l/m 6,4 km/h (2 Bft) N-NW 330 8,0 km/h (2 Bft)
10.01.2012 23:18 3,2 C 74 % 0,0 l/m 7,0 km/h (2 Bft) N 11 9,7 km/h (2 Bft)
10.01.2012 23:19 3,2 C 74 % 0,0 l/m 8,8 km/h (2 Bft) NW 321 14,5 km/h (3 Bft)
10.01.2012 23:20 3,2 C 74 % 0,0 l/m 8,8 km/h (2 Bft) N 357 12,9 km/h (3 Bft)
10.01.2012 23:21 3,2 C 74 % 0,0 l/m 7,1 km/h (2 Bft) N 11 11,3 km/h (2 Bft)
10.01.2012 23:22 3,2 C 74 % 0,0 l/m 6,8 km/h (2 Bft) N-NO 19 9,7 km/h (2 Bft)
10.01.2012 23:23 3,2 C 74 % 0,0 l/m 4,9 km/h (1 Bft) NO 47 6,4 km/h (2 Bft)
10.01.2012 23:24 3,2 C 74 % 0,0 l/m 3,8 km/h (1 Bft) N-NW 338 6,4 km/h (2 Bft)
10.01.2012 23:25 3,2 C 74 % 0,0 l/m 5,2 km/h (1 Bft) NW 323 8,0 km/h (2 Bft)
10.01.2012 23:26 3,2 C 75 % 0,0 l/m 8,9 km/h (2 Bft) NO 50 12,9 km/h (3 Bft)
10.01.2012 23:27 3,2 C 75 % 0,0 l/m 5,8 km/h (2 Bft) N-NW 332 9,7 km/h (2 Bft)
10.01.2012 23:28 3,2 C 75 % 0,0 l/m 6,5 km/h (2 Bft) N-NO 27 12,9 km/h (3 Bft)
10.01.2012 23:29 3,2 C 75 % 0,0 l/m 8,0 km/h (2 Bft) N-NO 20 12,9 km/h (3 Bft)
10.01.2012 23:30 3,2 C 75 % 0,0 l/m 4,0 km/h (1 Bft) N-NO 15 4,8 km/h (1 Bft)
10.01.2012 23:31 3,2 C 75 % 0,0 l/m 4,0 km/h (1 Bft) N-NW 329 4,8 km/h (1 Bft)
10.01.2012 23:32 3,1 C 75 % 0,0 l/m 6,1 km/h (2 Bft) NW 309 9,7 km/h (2 Bft)
10.01.2012 23:33 3,1 C 75 % 0,0 l/m 3,9 km/h (1 Bft) NO 53 6,4 km/h (2 Bft)
10.01.2012 23:34 3,1 C 75 % 0,0 l/m 5,8 km/h (2 Bft) N-NO 30 9,7 km/h (2 Bft)
10.01.2012 23:35 3,1 C 75 % 0,0 l/m 3,2 km/h (1 Bft) N-NO 23 6,4 km/h (2 Bft)
10.01.2012 23:36 3,1 C 75 % 0,0 l/m 3,5 km/h (1 Bft) NO 39 4,8 km/h (1 Bft)
10.01.2012 23:37 3,1 C 75 % 0,0 l/m 2,7 km/h (1 Bft) N-NO 18 4,8 km/h (1 Bft)
10.01.2012 23:38 3,0 C 75 % 0,0 l/m 3,8 km/h (1 Bft) N-NO 25 4,8 km/h (1 Bft)
10.01.2012 23:39 2,9 C 75 % 0,0 l/m 3,7 km/h (1 Bft) N 9 6,4 km/h (2 Bft)
10.01.2012 23:40 2,9 C 75 % 0,0 l/m 5,2 km/h (1 Bft) N-NO 30 6,4 km/h (2 Bft)
10.01.2012 23:41 2,9 C 76 % 0,0 l/m 5,3 km/h (1 Bft) N 8 6,4 km/h (2 Bft)
10.01.2012 23:42 2,9 C 76 % 0,0 l/m 6,4 km/h (2 Bft) N-NW 345 9,7 km/h (2 Bft)
10.01.2012 23:43 2,9 C 76 % 0,0 l/m 4,4 km/h (1 Bft) N-NO 30 6,4 km/h (2 Bft)
10.01.2012 23:44 2,9 C 76 % 0,0 l/m 5,6 km/h (1 Bft) NO 36 8,0 km/h (2 Bft)
10.01.2012 23:45 2,9 C 76 % 0,0 l/m 7,3 km/h (2 Bft) NO 34 9,7 km/h (2 Bft)
10.01.2012 23:46 3,0 C 76 % 0,0 l/m 5,1 km/h (1 Bft) NO 34 6,4 km/h (2 Bft)
10.01.2012 23:47 3,1 C 76 % 0,0 l/m 6,5 km/h (2 Bft) NO 41 8,0 km/h (2 Bft)
10.01.2012 23:48 3,1 C 76 % 0,0 l/m 4,5 km/h (1 Bft) NO 36 6,4 km/h (2 Bft)
10.01.2012 23:49 3,1 C 76 % 0,0 l/m 4,7 km/h (1 Bft) N-NO 33 6,4 km/h (2 Bft)
10.01.2012 23:50 3,1 C 76 % 0,0 l/m 6,7 km/h (2 Bft) N 8 9,7 km/h (2 Bft)
10.01.2012 23:51 3,1 C 76 % 0,0 l/m 6,9 km/h (2 Bft) N 5 8,0 km/h (2 Bft)
10.01.2012 23:52 3,1 C 76 % 0,0 l/m 5,0 km/h (1 Bft) N-NW 343 11,3 km/h (2 Bft)
10.01.2012 23:53 3,1 C 76 % 0,0 l/m 5,2 km/h (1 Bft) N-NO 30 8,0 km/h (2 Bft)
10.01.2012 23:54 3,1 C 76 % 0,0 l/m 6,5 km/h (2 Bft) N-NO 21 8,0 km/h (2 Bft)
10.01.2012 23:55 3,1 C 76 % 0,0 l/m 5,0 km/h (1 Bft) NW 313 8,0 km/h (2 Bft)
10.01.2012 23:56 3,1 C 76 % 0,0 l/m 6,9 km/h (2 Bft) N-NW 345 11,3 km/h (2 Bft)
10.01.2012 23:57 3,2 C 76 % 0,0 l/m 8,6 km/h (2 Bft) N-NW 338 12,9 km/h (3 Bft)
10.01.2012 23:58 3,2 C 76 % 0,0 l/m 5,4 km/h (1 Bft) N 358 9,7 km/h (2 Bft)
10.01.2012 23:59 3,2 C 75 % 0,0 l/m 3,3 km/h (1 Bft) N 6 4,8 km/h (1 Bft)
_ Min-Zeit 02:50 16:31 - 00:17 - - 00:17
Minimum _ 2,0 C 64 % - 0,0 km/h (0 Bft) - - 0,0 km/h (0 Bft)
_ Max-Zeit 12:12 01:47 00:03 07:54 - - 07:51
Maximum _ 6,7 C 95 % 0,2 l/m 38,6 km/h
W-NW (5 Bft)
- - 70,8 km/h
W-SW (8 Bft)
Durchschnitt _ 5,2 C 77 % #6,2 l/m 15,2 km/h (3 Bft) W-NW - 24,4 km/h (4 Bft)